<?xml version="1.0" encoding="UTF-8" standalone="no" ?>
<gpx xmlns="http://www.topografix.com/GPX/1/1" xmlns:xsi="http://www.w3.org/2001/XMLSchema-instance" xsi:schemaLocation="http://www.topografix.com/GPX/1/1 http://www.topografix.com/GPX/1/1/gpx.xsd" version="1.1" creator="VisuGPX - https://www.visugpx.com">
  <metadata>
    <name>Option single Autrans </name>
    <desc><![CDATA[Option via plateau de Geve et single d'Autrans : A/R  20km, 500m D+]]></desc>
  </metadata>
  <trk>
    <name><![CDATA[Option single Autrans _1]]></name>
    <trkseg>
      <trkpt lat="45.15746" lon="5.55322">
        <ele>1059.03</ele>
        <time>2018-06-30T07:21:54Z</time>
      </trkpt>
      <trkpt lat="45.15756" lon="5.55329">
        <ele>1059.03</ele>
        <time>2018-06-30T07:21:56Z</time>
      </trkpt>
      <trkpt lat="45.15771" lon="5.55343">
        <ele>1060.47</ele>
        <time>2018-06-30T07:22:00Z</time>
      </trkpt>
      <trkpt lat="45.15812" lon="5.55391">
        <ele>1063.36</ele>
        <time>2018-06-30T07:22:14Z</time>
      </trkpt>
      <trkpt lat="45.15868" lon="5.55443">
        <ele>1064.8</ele>
        <time>2018-06-30T07:22:31Z</time>
      </trkpt>
      <trkpt lat="45.15915" lon="5.55489">
        <ele>1067.2</ele>
        <time>2018-06-30T07:22:48Z</time>
      </trkpt>
      <trkpt lat="45.15951" lon="5.55495">
        <ele>1068.64</ele>
        <time>2018-06-30T07:23:01Z</time>
      </trkpt>
      <trkpt lat="45.15986" lon="5.55501">
        <ele>1071.05</ele>
        <time>2018-06-30T07:23:14Z</time>
      </trkpt>
      <trkpt lat="45.16005" lon="5.55504">
        <ele>1071.53</ele>
        <time>2018-06-30T07:23:21Z</time>
      </trkpt>
      <trkpt lat="45.16007" lon="5.55504">
        <ele>1071.53</ele>
        <time>2018-06-30T07:23:22Z</time>
      </trkpt>
      <trkpt lat="45.16052" lon="5.55507">
        <ele>1072.49</ele>
        <time>2018-06-30T07:23:36Z</time>
      </trkpt>
      <trkpt lat="45.16069" lon="5.55528">
        <ele>1074.41</ele>
        <time>2018-06-30T07:23:47Z</time>
      </trkpt>
      <trkpt lat="45.1608" lon="5.55557">
        <ele>1076.81</ele>
        <time>2018-06-30T07:23:59Z</time>
      </trkpt>
      <trkpt lat="45.16102" lon="5.55592">
        <ele>1079.7</ele>
        <time>2018-06-30T07:24:16Z</time>
      </trkpt>
      <trkpt lat="45.16136" lon="5.55611">
        <ele>1081.14</ele>
        <time>2018-06-30T07:24:32Z</time>
      </trkpt>
      <trkpt lat="45.16168" lon="5.5562">
        <ele>1084.02</ele>
        <time>2018-06-30T07:24:47Z</time>
      </trkpt>
      <trkpt lat="45.1621" lon="5.55638">
        <ele>1085.47</ele>
        <time>2018-06-30T07:25:05Z</time>
      </trkpt>
      <trkpt lat="45.16235" lon="5.5565">
        <ele>1088.35</ele>
        <time>2018-06-30T07:25:19Z</time>
      </trkpt>
      <trkpt lat="45.16258" lon="5.55667">
        <ele>1091.71</ele>
        <time>2018-06-30T07:25:35Z</time>
      </trkpt>
      <trkpt lat="45.16287" lon="5.55689">
        <ele>1094.12</ele>
        <time>2018-06-30T07:25:53Z</time>
      </trkpt>
      <trkpt lat="45.16315" lon="5.55729">
        <ele>1096.04</ele>
        <time>2018-06-30T07:26:11Z</time>
      </trkpt>
      <trkpt lat="45.16345" lon="5.5577">
        <ele>1098.44</ele>
        <time>2018-06-30T07:26:30Z</time>
      </trkpt>
      <trkpt lat="45.16377" lon="5.55787">
        <ele>1099.89</ele>
        <time>2018-06-30T07:26:45Z</time>
      </trkpt>
      <trkpt lat="45.16423" lon="5.55792">
        <ele>1101.33</ele>
        <time>2018-06-30T07:27:02Z</time>
      </trkpt>
      <trkpt lat="45.16475" lon="5.55829">
        <ele>1100.85</ele>
        <time>2018-06-30T07:27:21Z</time>
      </trkpt>
      <trkpt lat="45.16527" lon="5.55847">
        <ele>1100.37</ele>
        <time>2018-06-30T07:27:35Z</time>
      </trkpt>
      <trkpt lat="45.16583" lon="5.55877">
        <ele>1100.85</ele>
        <time>2018-06-30T07:27:50Z</time>
      </trkpt>
      <trkpt lat="45.16624" lon="5.55894">
        <ele>1102.77</ele>
        <time>2018-06-30T07:28:04Z</time>
      </trkpt>
      <trkpt lat="45.16664" lon="5.55921">
        <ele>1104.69</ele>
        <time>2018-06-30T07:28:19Z</time>
      </trkpt>
      <trkpt lat="45.16687" lon="5.55944">
        <ele>1108.06</ele>
        <time>2018-06-30T07:28:33Z</time>
      </trkpt>
      <trkpt lat="45.16713" lon="5.55952">
        <ele>1110.94</ele>
        <time>2018-06-30T07:28:47Z</time>
      </trkpt>
      <trkpt lat="45.16737" lon="5.55942">
        <ele>1112.38</ele>
        <time>2018-06-30T07:29:00Z</time>
      </trkpt>
      <trkpt lat="45.16766" lon="5.55934">
        <ele>1114.31</ele>
        <time>2018-06-30T07:29:14Z</time>
      </trkpt>
      <trkpt lat="45.16792" lon="5.5595">
        <ele>1116.71</ele>
        <time>2018-06-30T07:29:29Z</time>
      </trkpt>
      <trkpt lat="45.16814" lon="5.55973">
        <ele>1119.59</ele>
        <time>2018-06-30T07:29:44Z</time>
      </trkpt>
      <trkpt lat="45.16837" lon="5.55995">
        <ele>1122</ele>
        <time>2018-06-30T07:29:59Z</time>
      </trkpt>
      <trkpt lat="45.16866" lon="5.56027">
        <ele>1122</ele>
        <time>2018-06-30T07:30:12Z</time>
      </trkpt>
      <trkpt lat="45.16905" lon="5.56043">
        <ele>1121.52</ele>
        <time>2018-06-30T07:30:27Z</time>
      </trkpt>
      <trkpt lat="45.16949" lon="5.56045">
        <ele>1122.48</ele>
        <time>2018-06-30T07:30:44Z</time>
      </trkpt>
      <trkpt lat="45.16978" lon="5.56062">
        <ele>1122.48</ele>
        <time>2018-06-30T07:30:56Z</time>
      </trkpt>
      <trkpt lat="45.1702" lon="5.56093">
        <ele>1124.4</ele>
        <time>2018-06-30T07:31:16Z</time>
      </trkpt>
      <trkpt lat="45.17053" lon="5.56131">
        <ele>1125.84</ele>
        <time>2018-06-30T07:31:35Z</time>
      </trkpt>
      <trkpt lat="45.17071" lon="5.56138">
        <ele>1125.36</ele>
        <time>2018-06-30T07:31:42Z</time>
      </trkpt>
      <trkpt lat="45.17074" lon="5.56135">
        <ele>1125.36</ele>
        <time>2018-06-30T07:31:43Z</time>
      </trkpt>
      <trkpt lat="45.17078" lon="5.56131">
        <ele>1125.36</ele>
        <time>2018-06-30T07:31:44Z</time>
      </trkpt>
      <trkpt lat="45.17081" lon="5.56126">
        <ele>1124.4</ele>
        <time>2018-06-30T07:31:45Z</time>
      </trkpt>
      <trkpt lat="45.17084" lon="5.56121">
        <ele>1124.4</ele>
        <time>2018-06-30T07:31:46Z</time>
      </trkpt>
      <trkpt lat="45.17087" lon="5.56116">
        <ele>1123.92</ele>
        <time>2018-06-30T07:31:47Z</time>
      </trkpt>
      <trkpt lat="45.1709" lon="5.56111">
        <ele>1123.92</ele>
        <time>2018-06-30T07:31:48Z</time>
      </trkpt>
      <trkpt lat="45.17094" lon="5.56106">
        <ele>1123.92</ele>
        <time>2018-06-30T07:31:49Z</time>
      </trkpt>
      <trkpt lat="45.17098" lon="5.56102">
        <ele>1123.44</ele>
        <time>2018-06-30T07:31:50Z</time>
      </trkpt>
      <trkpt lat="45.17144" lon="5.56065">
        <ele>1120.07</ele>
        <time>2018-06-30T07:31:59Z</time>
      </trkpt>
      <trkpt lat="45.1715" lon="5.56061">
        <ele>1120.07</ele>
        <time>2018-06-30T07:32:00Z</time>
      </trkpt>
      <trkpt lat="45.17216" lon="5.56026">
        <ele>1116.71</ele>
        <time>2018-06-30T07:32:11Z</time>
      </trkpt>
      <trkpt lat="45.17256" lon="5.56005">
        <ele>1113.82</ele>
        <time>2018-06-30T07:32:17Z</time>
      </trkpt>
      <trkpt lat="45.1729" lon="5.55985">
        <ele>1109.98</ele>
        <time>2018-06-30T07:32:22Z</time>
      </trkpt>
      <trkpt lat="45.17296" lon="5.55982">
        <ele>1109.98</ele>
        <time>2018-06-30T07:32:23Z</time>
      </trkpt>
      <trkpt lat="45.17302" lon="5.55979">
        <ele>1109.02</ele>
        <time>2018-06-30T07:32:24Z</time>
      </trkpt>
      <trkpt lat="45.17308" lon="5.55979">
        <ele>1109.02</ele>
        <time>2018-06-30T07:32:25Z</time>
      </trkpt>
      <trkpt lat="45.17314" lon="5.55981">
        <ele>1108.54</ele>
        <time>2018-06-30T07:32:26Z</time>
      </trkpt>
      <trkpt lat="45.1732" lon="5.55986">
        <ele>1108.06</ele>
        <time>2018-06-30T07:32:27Z</time>
      </trkpt>
      <trkpt lat="45.17325" lon="5.55992">
        <ele>1107.58</ele>
        <time>2018-06-30T07:32:28Z</time>
      </trkpt>
      <trkpt lat="45.1733" lon="5.55998">
        <ele>1107.1</ele>
        <time>2018-06-30T07:32:29Z</time>
      </trkpt>
      <trkpt lat="45.17335" lon="5.56005">
        <ele>1107.1</ele>
        <time>2018-06-30T07:32:30Z</time>
      </trkpt>
      <trkpt lat="45.1734" lon="5.56012">
        <ele>1106.13</ele>
        <time>2018-06-30T07:32:31Z</time>
      </trkpt>
      <trkpt lat="45.17358" lon="5.56043">
        <ele>1103.25</ele>
        <time>2018-06-30T07:32:35Z</time>
      </trkpt>
      <trkpt lat="45.17364" lon="5.56049">
        <ele>1102.77</ele>
        <time>2018-06-30T07:32:36Z</time>
      </trkpt>
      <trkpt lat="45.17371" lon="5.56052">
        <ele>1102.29</ele>
        <time>2018-06-30T07:32:37Z</time>
      </trkpt>
      <trkpt lat="45.17378" lon="5.56052">
        <ele>1102.29</ele>
        <time>2018-06-30T07:32:38Z</time>
      </trkpt>
      <trkpt lat="45.17384" lon="5.56051">
        <ele>1101.81</ele>
        <time>2018-06-30T07:32:39Z</time>
      </trkpt>
      <trkpt lat="45.17391" lon="5.56049">
        <ele>1101.81</ele>
        <time>2018-06-30T07:32:40Z</time>
      </trkpt>
      <trkpt lat="45.17396" lon="5.56047">
        <ele>1101.81</ele>
        <time>2018-06-30T07:32:41Z</time>
      </trkpt>
      <trkpt lat="45.17401" lon="5.56044">
        <ele>1101.81</ele>
        <time>2018-06-30T07:32:42Z</time>
      </trkpt>
      <trkpt lat="45.17406" lon="5.56042">
        <ele>1101.81</ele>
        <time>2018-06-30T07:32:43Z</time>
      </trkpt>
      <trkpt lat="45.17409" lon="5.56038">
        <ele>1101.81</ele>
        <time>2018-06-30T07:32:44Z</time>
      </trkpt>
      <trkpt lat="45.17432" lon="5.56016">
        <ele>1102.29</ele>
        <time>2018-06-30T07:32:50Z</time>
      </trkpt>
      <trkpt lat="45.17436" lon="5.5601">
        <ele>1102.29</ele>
        <time>2018-06-30T07:32:51Z</time>
      </trkpt>
      <trkpt lat="45.17439" lon="5.56005">
        <ele>1102.29</ele>
        <time>2018-06-30T07:32:52Z</time>
      </trkpt>
      <trkpt lat="45.17442" lon="5.56">
        <ele>1102.29</ele>
        <time>2018-06-30T07:32:53Z</time>
      </trkpt>
      <trkpt lat="45.17444" lon="5.55994">
        <ele>1103.73</ele>
        <time>2018-06-30T07:32:54Z</time>
      </trkpt>
      <trkpt lat="45.17445" lon="5.55988">
        <ele>1104.21</ele>
        <time>2018-06-30T07:32:55Z</time>
      </trkpt>
      <trkpt lat="45.17446" lon="5.55983">
        <ele>1104.69</ele>
        <time>2018-06-30T07:32:56Z</time>
      </trkpt>
      <trkpt lat="45.17447" lon="5.55979">
        <ele>1104.69</ele>
        <time>2018-06-30T07:32:57Z</time>
      </trkpt>
      <trkpt lat="45.17447" lon="5.55974">
        <ele>1105.17</ele>
        <time>2018-06-30T07:32:58Z</time>
      </trkpt>
      <trkpt lat="45.1745" lon="5.55948">
        <ele>1108.54</ele>
        <time>2018-06-30T07:33:07Z</time>
      </trkpt>
      <trkpt lat="45.17474" lon="5.5591">
        <ele>1107.58</ele>
        <time>2018-06-30T07:33:20Z</time>
      </trkpt>
      <trkpt lat="45.17482" lon="5.55902">
        <ele>1106.13</ele>
        <time>2018-06-30T07:33:22Z</time>
      </trkpt>
      <trkpt lat="45.17486" lon="5.55899">
        <ele>1105.65</ele>
        <time>2018-06-30T07:33:23Z</time>
      </trkpt>
      <trkpt lat="45.1749" lon="5.55898">
        <ele>1105.65</ele>
        <time>2018-06-30T07:33:24Z</time>
      </trkpt>
      <trkpt lat="45.17494" lon="5.55898">
        <ele>1104.69</ele>
        <time>2018-06-30T07:33:25Z</time>
      </trkpt>
      <trkpt lat="45.17499" lon="5.55899">
        <ele>1104.69</ele>
        <time>2018-06-30T07:33:26Z</time>
      </trkpt>
      <trkpt lat="45.17505" lon="5.55901">
        <ele>1104.21</ele>
        <time>2018-06-30T07:33:27Z</time>
      </trkpt>
      <trkpt lat="45.1751" lon="5.55903">
        <ele>1104.21</ele>
        <time>2018-06-30T07:33:28Z</time>
      </trkpt>
      <trkpt lat="45.17572" lon="5.55937">
        <ele>1100.85</ele>
        <time>2018-06-30T07:33:39Z</time>
      </trkpt>
      <trkpt lat="45.17662" lon="5.55957">
        <ele>1099.4</ele>
        <time>2018-06-30T07:33:54Z</time>
      </trkpt>
      <trkpt lat="45.17719" lon="5.5598">
        <ele>1096.04</ele>
        <time>2018-06-30T07:34:03Z</time>
      </trkpt>
      <trkpt lat="45.17807" lon="5.56033">
        <ele>1094.12</ele>
        <time>2018-06-30T07:34:17Z</time>
      </trkpt>
      <trkpt lat="45.17916" lon="5.56114">
        <ele>1091.71</ele>
        <time>2018-06-30T07:34:37Z</time>
      </trkpt>
      <trkpt lat="45.17988" lon="5.56185">
        <ele>1089.79</ele>
        <time>2018-06-30T07:34:51Z</time>
      </trkpt>
      <trkpt lat="45.18068" lon="5.56199">
        <ele>1087.39</ele>
        <time>2018-06-30T07:35:04Z</time>
      </trkpt>
      <trkpt lat="45.18171" lon="5.56208">
        <ele>1085.95</ele>
        <time>2018-06-30T07:35:21Z</time>
      </trkpt>
      <trkpt lat="45.18264" lon="5.56221">
        <ele>1084.02</ele>
        <time>2018-06-30T07:35:36Z</time>
      </trkpt>
      <trkpt lat="45.18326" lon="5.56248">
        <ele>1084.02</ele>
        <time>2018-06-30T07:35:48Z</time>
      </trkpt>
      <trkpt lat="45.18329" lon="5.56249">
        <ele>1084.02</ele>
        <time>2018-06-30T07:35:49Z</time>
      </trkpt>
      <trkpt lat="45.18335" lon="5.56248">
        <ele>1084.02</ele>
        <time>2018-06-30T07:35:50Z</time>
      </trkpt>
      <trkpt lat="45.1834" lon="5.56245">
        <ele>1084.02</ele>
        <time>2018-06-30T07:35:51Z</time>
      </trkpt>
      <trkpt lat="45.18344" lon="5.5624">
        <ele>1084.02</ele>
        <time>2018-06-30T07:35:52Z</time>
      </trkpt>
      <trkpt lat="45.18347" lon="5.56235">
        <ele>1084.02</ele>
        <time>2018-06-30T07:35:53Z</time>
      </trkpt>
      <trkpt lat="45.1835" lon="5.56227">
        <ele>1084.02</ele>
        <time>2018-06-30T07:35:54Z</time>
      </trkpt>
      <trkpt lat="45.18352" lon="5.56223">
        <ele>1084.02</ele>
        <time>2018-06-30T07:35:55Z</time>
      </trkpt>
      <trkpt lat="45.18368" lon="5.5618">
        <ele>1082.1</ele>
        <time>2018-06-30T07:36:01Z</time>
      </trkpt>
      <trkpt lat="45.18369" lon="5.56173">
        <ele>1082.1</ele>
        <time>2018-06-30T07:36:02Z</time>
      </trkpt>
      <trkpt lat="45.18369" lon="5.56164">
        <ele>1082.1</ele>
        <time>2018-06-30T07:36:03Z</time>
      </trkpt>
      <trkpt lat="45.18368" lon="5.56157">
        <ele>1082.1</ele>
        <time>2018-06-30T07:36:04Z</time>
      </trkpt>
      <trkpt lat="45.18366" lon="5.56149">
        <ele>1081.62</ele>
        <time>2018-06-30T07:36:05Z</time>
      </trkpt>
      <trkpt lat="45.18364" lon="5.56141">
        <ele>1081.62</ele>
        <time>2018-06-30T07:36:06Z</time>
      </trkpt>
      <trkpt lat="45.1836" lon="5.56133">
        <ele>1081.14</ele>
        <time>2018-06-30T07:36:07Z</time>
      </trkpt>
      <trkpt lat="45.18348" lon="5.56094">
        <ele>1080.66</ele>
        <time>2018-06-30T07:36:12Z</time>
      </trkpt>
      <trkpt lat="45.18345" lon="5.56078">
        <ele>1080.18</ele>
        <time>2018-06-30T07:36:14Z</time>
      </trkpt>
      <trkpt lat="45.18344" lon="5.5607">
        <ele>1080.18</ele>
        <time>2018-06-30T07:36:15Z</time>
      </trkpt>
      <trkpt lat="45.18344" lon="5.56061">
        <ele>1079.22</ele>
        <time>2018-06-30T07:36:16Z</time>
      </trkpt>
      <trkpt lat="45.18345" lon="5.56053">
        <ele>1079.22</ele>
        <time>2018-06-30T07:36:17Z</time>
      </trkpt>
      <trkpt lat="45.18346" lon="5.56044">
        <ele>1079.22</ele>
        <time>2018-06-30T07:36:18Z</time>
      </trkpt>
      <trkpt lat="45.18349" lon="5.56035">
        <ele>1078.74</ele>
        <time>2018-06-30T07:36:19Z</time>
      </trkpt>
      <trkpt lat="45.18353" lon="5.56027">
        <ele>1077.78</ele>
        <time>2018-06-30T07:36:20Z</time>
      </trkpt>
      <trkpt lat="45.18358" lon="5.5602">
        <ele>1077.78</ele>
        <time>2018-06-30T07:36:21Z</time>
      </trkpt>
      <trkpt lat="45.18362" lon="5.56013">
        <ele>1077.78</ele>
        <time>2018-06-30T07:36:22Z</time>
      </trkpt>
      <trkpt lat="45.18367" lon="5.56008">
        <ele>1077.29</ele>
        <time>2018-06-30T07:36:23Z</time>
      </trkpt>
      <trkpt lat="45.18372" lon="5.56003">
        <ele>1077.29</ele>
        <time>2018-06-30T07:36:24Z</time>
      </trkpt>
      <trkpt lat="45.18393" lon="5.55983">
        <ele>1077.29</ele>
        <time>2018-06-30T07:36:28Z</time>
      </trkpt>
      <trkpt lat="45.18405" lon="5.55969">
        <ele>1080.18</ele>
        <time>2018-06-30T07:36:32Z</time>
      </trkpt>
      <trkpt lat="45.18422" lon="5.55954">
        <ele>1079.22</ele>
        <time>2021-05-23T13:31:34Z</time>
      </trkpt>
      <trkpt lat="45.18422" lon="5.55954">
        <ele>1079.22</ele>
        <time>2021-05-23T13:31:34Z</time>
      </trkpt>
      <trkpt lat="45.18422" lon="5.55945">
        <ele>1079.22</ele>
        <time>2021-05-23T13:31:35Z</time>
      </trkpt>
      <trkpt lat="45.18423" lon="5.55942">
        <ele>1079.22</ele>
        <time>2021-05-23T13:31:36Z</time>
      </trkpt>
      <trkpt lat="45.18425" lon="5.55939">
        <ele>1079.22</ele>
        <time>2021-05-23T13:31:37Z</time>
      </trkpt>
      <trkpt lat="45.18428" lon="5.55936">
        <ele>1079.22</ele>
        <time>2021-05-23T13:31:38Z</time>
      </trkpt>
      <trkpt lat="45.18453" lon="5.55898">
        <ele>1082.1</ele>
        <time>2021-05-23T13:31:50Z</time>
      </trkpt>
      <trkpt lat="45.18481" lon="5.55857">
        <ele>1085.47</ele>
        <time>2021-05-23T13:32:05Z</time>
      </trkpt>
      <trkpt lat="45.18506" lon="5.55823">
        <ele>1087.87</ele>
        <time>2021-05-23T13:32:19Z</time>
      </trkpt>
      <trkpt lat="45.18523" lon="5.55798">
        <ele>1091.23</ele>
        <time>2021-05-23T13:32:32Z</time>
      </trkpt>
      <trkpt lat="45.18533" lon="5.5578">
        <ele>1094.12</ele>
        <time>2021-05-23T13:32:41Z</time>
      </trkpt>
      <trkpt lat="45.1855" lon="5.55752">
        <ele>1097</ele>
        <time>2021-05-23T13:32:58Z</time>
      </trkpt>
      <trkpt lat="45.18561" lon="5.55736">
        <ele>1100.37</ele>
        <time>2021-05-23T13:33:08Z</time>
      </trkpt>
      <trkpt lat="45.18575" lon="5.55716">
        <ele>1103.73</ele>
        <time>2021-05-23T13:33:22Z</time>
      </trkpt>
      <trkpt lat="45.18589" lon="5.55696">
        <ele>1107.1</ele>
        <time>2021-05-23T13:33:38Z</time>
      </trkpt>
      <trkpt lat="45.18597" lon="5.55678">
        <ele>1109.98</ele>
        <time>2021-05-23T13:33:50Z</time>
      </trkpt>
      <trkpt lat="45.18599" lon="5.55653">
        <ele>1112.86</ele>
        <time>2021-05-23T13:34:04Z</time>
      </trkpt>
      <trkpt lat="45.18597" lon="5.55631">
        <ele>1116.23</ele>
        <time>2021-05-23T13:34:17Z</time>
      </trkpt>
      <trkpt lat="45.18596" lon="5.5562">
        <ele>1117.67</ele>
        <time>2021-05-23T13:34:24Z</time>
      </trkpt>
      <trkpt lat="45.18592" lon="5.55598">
        <ele>1121.03</ele>
        <time>2021-05-23T13:34:38Z</time>
      </trkpt>
      <trkpt lat="45.1859" lon="5.55593">
        <ele>1121.52</ele>
        <time>2021-05-23T13:34:42Z</time>
      </trkpt>
      <trkpt lat="45.1859" lon="5.55582">
        <ele>1122.96</ele>
        <time>2021-05-23T13:34:48Z</time>
      </trkpt>
      <trkpt lat="45.18591" lon="5.55561">
        <ele>1125.84</ele>
        <time>2021-05-23T13:35:01Z</time>
      </trkpt>
      <trkpt lat="45.1859" lon="5.55557">
        <ele>1126.32</ele>
        <time>2021-05-23T13:35:04Z</time>
      </trkpt>
      <trkpt lat="45.18589" lon="5.55529">
        <ele>1130.17</ele>
        <time>2021-05-23T13:35:20Z</time>
      </trkpt>
      <trkpt lat="45.18588" lon="5.55524">
        <ele>1131.13</ele>
        <time>2021-05-23T13:35:24Z</time>
      </trkpt>
      <trkpt lat="45.1859" lon="5.55501">
        <ele>1134.49</ele>
        <time>2021-05-23T13:35:37Z</time>
      </trkpt>
      <trkpt lat="45.1859" lon="5.55499">
        <ele>1134.49</ele>
        <time>2021-05-23T13:35:38Z</time>
      </trkpt>
      <trkpt lat="45.18602" lon="5.55486">
        <ele>1136.9</ele>
        <time>2021-05-23T13:35:53Z</time>
      </trkpt>
      <trkpt lat="45.1862" lon="5.5549">
        <ele>1140.74</ele>
        <time>2021-05-23T13:36:09Z</time>
      </trkpt>
      <trkpt lat="45.18622" lon="5.55492">
        <ele>1141.22</ele>
        <time>2021-05-23T13:36:12Z</time>
      </trkpt>
      <trkpt lat="45.18637" lon="5.555">
        <ele>1143.14</ele>
        <time>2021-05-23T13:36:25Z</time>
      </trkpt>
      <trkpt lat="45.18655" lon="5.55516">
        <ele>1146.03</ele>
        <time>2021-05-23T13:36:41Z</time>
      </trkpt>
      <trkpt lat="45.18671" lon="5.55529">
        <ele>1148.43</ele>
        <time>2021-05-23T13:36:55Z</time>
      </trkpt>
      <trkpt lat="45.18673" lon="5.55532">
        <ele>1148.43</ele>
        <time>2021-05-23T13:37:07Z</time>
      </trkpt>
      <trkpt lat="45.18668" lon="5.55531">
        <ele>1148.91</ele>
        <time>2021-05-23T13:37:32Z</time>
      </trkpt>
      <trkpt lat="45.1867" lon="5.55532">
        <ele>1148.91</ele>
        <time>2021-05-23T13:38:12Z</time>
      </trkpt>
      <trkpt lat="45.18679" lon="5.55539">
        <ele>1149.87</ele>
        <time>2021-05-23T13:38:22Z</time>
      </trkpt>
      <trkpt lat="45.187" lon="5.5555">
        <ele>1152.28</ele>
        <time>2021-05-23T13:38:33Z</time>
      </trkpt>
      <trkpt lat="45.18727" lon="5.55574">
        <ele>1153.72</ele>
        <time>2021-05-23T13:38:47Z</time>
      </trkpt>
      <trkpt lat="45.18754" lon="5.55596">
        <ele>1157.08</ele>
        <time>2021-05-23T13:39:02Z</time>
      </trkpt>
      <trkpt lat="45.18776" lon="5.55619">
        <ele>1159.97</ele>
        <time>2021-05-23T13:39:16Z</time>
      </trkpt>
      <trkpt lat="45.18797" lon="5.55647">
        <ele>1163.33</ele>
        <time>2021-05-23T13:39:30Z</time>
      </trkpt>
      <trkpt lat="45.18822" lon="5.55679">
        <ele>1165.26</ele>
        <time>2021-05-23T13:39:45Z</time>
      </trkpt>
      <trkpt lat="45.18848" lon="5.55724">
        <ele>1166.7</ele>
        <time>2021-05-23T13:40:00Z</time>
      </trkpt>
      <trkpt lat="45.18874" lon="5.55773">
        <ele>1169.1</ele>
        <time>2021-05-23T13:40:15Z</time>
      </trkpt>
      <trkpt lat="45.18907" lon="5.55815">
        <ele>1172.47</ele>
        <time>2021-05-23T13:40:31Z</time>
      </trkpt>
      <trkpt lat="45.18939" lon="5.5583">
        <ele>1174.39</ele>
        <time>2021-05-23T13:40:44Z</time>
      </trkpt>
      <trkpt lat="45.1897" lon="5.55819">
        <ele>1174.39</ele>
        <time>2021-05-23T13:40:56Z</time>
      </trkpt>
      <trkpt lat="45.18997" lon="5.55796">
        <ele>1172.95</ele>
        <time>2021-05-23T13:41:07Z</time>
      </trkpt>
      <trkpt lat="45.18987" lon="5.55806">
        <ele>1172.95</ele>
        <time>2021-05-23T13:41:15Z</time>
      </trkpt>
      <trkpt lat="45.18985" lon="5.55808">
        <ele>1172.95</ele>
        <time>2021-05-23T13:41:16Z</time>
      </trkpt>
      <trkpt lat="45.18968" lon="5.55837">
        <ele>1174.39</ele>
        <time>2021-05-23T13:41:27Z</time>
      </trkpt>
      <trkpt lat="45.1897" lon="5.55839">
        <ele>1174.39</ele>
        <time>2021-05-23T13:41:28Z</time>
      </trkpt>
      <trkpt lat="45.18972" lon="5.55841">
        <ele>1174.87</ele>
        <time>2021-05-23T13:41:29Z</time>
      </trkpt>
      <trkpt lat="45.18974" lon="5.55842">
        <ele>1174.87</ele>
        <time>2021-05-23T13:41:30Z</time>
      </trkpt>
      <trkpt lat="45.18977" lon="5.55843">
        <ele>1174.87</ele>
        <time>2021-05-23T13:41:31Z</time>
      </trkpt>
      <trkpt lat="45.18979" lon="5.55844">
        <ele>1174.87</ele>
        <time>2021-05-23T13:41:32Z</time>
      </trkpt>
      <trkpt lat="45.18981" lon="5.55845">
        <ele>1175.35</ele>
        <time>2021-05-23T13:41:33Z</time>
      </trkpt>
      <trkpt lat="45.18983" lon="5.55846">
        <ele>1175.35</ele>
        <time>2021-05-23T13:41:34Z</time>
      </trkpt>
      <trkpt lat="45.19003" lon="5.55848">
        <ele>1176.31</ele>
        <time>2021-05-23T13:41:42Z</time>
      </trkpt>
      <trkpt lat="45.19032" lon="5.55856">
        <ele>1180.16</ele>
        <time>2021-05-23T13:41:54Z</time>
      </trkpt>
      <trkpt lat="45.1907" lon="5.55864">
        <ele>1183.04</ele>
        <time>2021-05-23T13:42:09Z</time>
      </trkpt>
      <trkpt lat="45.19097" lon="5.55876">
        <ele>1184.96</ele>
        <time>2021-05-23T13:42:22Z</time>
      </trkpt>
      <trkpt lat="45.19126" lon="5.5589">
        <ele>1187.37</ele>
        <time>2021-05-23T13:42:37Z</time>
      </trkpt>
      <trkpt lat="45.19156" lon="5.55891">
        <ele>1189.77</ele>
        <time>2021-05-23T13:42:52Z</time>
      </trkpt>
      <trkpt lat="45.1919" lon="5.55888">
        <ele>1192.65</ele>
        <time>2021-05-23T13:43:09Z</time>
      </trkpt>
      <trkpt lat="45.19219" lon="5.55881">
        <ele>1194.09</ele>
        <time>2021-05-23T13:43:23Z</time>
      </trkpt>
      <trkpt lat="45.1922" lon="5.5588">
        <ele>1194.09</ele>
        <time>2021-05-23T13:43:24Z</time>
      </trkpt>
      <trkpt lat="45.19222" lon="5.55881">
        <ele>1195.06</ele>
        <time>2021-05-23T13:43:25Z</time>
      </trkpt>
      <trkpt lat="45.19224" lon="5.55881">
        <ele>1195.06</ele>
        <time>2021-05-23T13:43:26Z</time>
      </trkpt>
      <trkpt lat="45.19225" lon="5.55882">
        <ele>1195.06</ele>
        <time>2021-05-23T13:43:27Z</time>
      </trkpt>
      <trkpt lat="45.19244" lon="5.55883">
        <ele>1198.42</ele>
        <time>2021-05-23T13:43:38Z</time>
      </trkpt>
      <trkpt lat="45.19264" lon="5.5588">
        <ele>1201.3</ele>
        <time>2021-05-23T13:43:51Z</time>
      </trkpt>
      <trkpt lat="45.19265" lon="5.55879">
        <ele>1201.79</ele>
        <time>2021-05-23T13:43:52Z</time>
      </trkpt>
      <trkpt lat="45.19267" lon="5.55878">
        <ele>1201.3</ele>
        <time>2021-05-23T13:43:53Z</time>
      </trkpt>
      <trkpt lat="45.19291" lon="5.55863">
        <ele>1203.71</ele>
        <time>2021-05-23T13:44:10Z</time>
      </trkpt>
      <trkpt lat="45.19303" lon="5.55858">
        <ele>1206.59</ele>
        <time>2021-05-23T13:44:18Z</time>
      </trkpt>
      <trkpt lat="45.19305" lon="5.55859">
        <ele>1206.59</ele>
        <time>2021-05-23T13:44:19Z</time>
      </trkpt>
      <trkpt lat="45.19306" lon="5.55859">
        <ele>1207.07</ele>
        <time>2021-05-23T13:44:20Z</time>
      </trkpt>
      <trkpt lat="45.19307" lon="5.5586">
        <ele>1207.07</ele>
        <time>2021-05-23T13:44:21Z</time>
      </trkpt>
      <trkpt lat="45.19308" lon="5.55861">
        <ele>1207.07</ele>
        <time>2021-05-23T13:44:22Z</time>
      </trkpt>
      <trkpt lat="45.19326" lon="5.55875">
        <ele>1210.44</ele>
        <time>2021-05-23T13:44:35Z</time>
      </trkpt>
      <trkpt lat="45.19344" lon="5.55904">
        <ele>1213.32</ele>
        <time>2021-05-23T13:44:51Z</time>
      </trkpt>
      <trkpt lat="45.19358" lon="5.55914">
        <ele>1214.76</ele>
        <time>2021-05-23T13:45:02Z</time>
      </trkpt>
      <trkpt lat="45.19378" lon="5.55939">
        <ele>1216.69</ele>
        <time>2021-05-23T13:45:18Z</time>
      </trkpt>
      <trkpt lat="45.19394" lon="5.55955">
        <ele>1219.09</ele>
        <time>2021-05-23T13:45:31Z</time>
      </trkpt>
      <trkpt lat="45.19402" lon="5.55968">
        <ele>1221.49</ele>
        <time>2021-05-23T13:45:41Z</time>
      </trkpt>
      <trkpt lat="45.19403" lon="5.55969">
        <ele>1221.49</ele>
        <time>2021-05-23T13:45:42Z</time>
      </trkpt>
      <trkpt lat="45.19408" lon="5.5597">
        <ele>1222.93</ele>
        <time>2021-05-23T13:45:47Z</time>
      </trkpt>
      <trkpt lat="45.19418" lon="5.55959">
        <ele>1224.86</ele>
        <time>2021-05-23T13:46:00Z</time>
      </trkpt>
      <trkpt lat="45.19426" lon="5.55951">
        <ele>1228.22</ele>
        <time>2021-05-23T13:46:09Z</time>
      </trkpt>
      <trkpt lat="45.19429" lon="5.55949">
        <ele>1228.7</ele>
        <time>2021-05-23T13:46:16Z</time>
      </trkpt>
      <trkpt lat="45.1943" lon="5.55951">
        <ele>1228.7</ele>
        <time>2021-05-23T13:46:17Z</time>
      </trkpt>
      <trkpt lat="45.1943" lon="5.55962">
        <ele>1228.7</ele>
        <time>2021-05-23T13:46:20Z</time>
      </trkpt>
      <trkpt lat="45.19432" lon="5.55975">
        <ele>1227.74</ele>
        <time>2021-05-23T13:46:22Z</time>
      </trkpt>
      <trkpt lat="45.19433" lon="5.55981">
        <ele>1227.26</ele>
        <time>2021-05-23T13:46:23Z</time>
      </trkpt>
      <trkpt lat="45.19434" lon="5.55985">
        <ele>1227.26</ele>
        <time>2021-05-23T13:46:24Z</time>
      </trkpt>
      <trkpt lat="45.19435" lon="5.55988">
        <ele>1227.26</ele>
        <time>2021-05-23T13:46:25Z</time>
      </trkpt>
      <trkpt lat="45.1945" lon="5.56019">
        <ele>1229.18</ele>
        <time>2021-05-23T13:46:39Z</time>
      </trkpt>
      <trkpt lat="45.19451" lon="5.56021">
        <ele>1229.18</ele>
        <time>2021-05-23T13:46:40Z</time>
      </trkpt>
      <trkpt lat="45.19464" lon="5.56029">
        <ele>1232.55</ele>
        <time>2021-05-23T13:46:53Z</time>
      </trkpt>
      <trkpt lat="45.19478" lon="5.56036">
        <ele>1233.99</ele>
        <time>2021-05-23T13:47:06Z</time>
      </trkpt>
      <trkpt lat="45.19488" lon="5.56049">
        <ele>1235.91</ele>
        <time>2021-05-23T13:47:15Z</time>
      </trkpt>
      <trkpt lat="45.19493" lon="5.5605">
        <ele>1236.87</ele>
        <time>2021-05-23T13:47:19Z</time>
      </trkpt>
      <trkpt lat="45.19503" lon="5.56045">
        <ele>1239.76</ele>
        <time>2021-05-23T13:47:28Z</time>
      </trkpt>
      <trkpt lat="45.19509" lon="5.56039">
        <ele>1240.72</ele>
        <time>2021-05-23T13:47:36Z</time>
      </trkpt>
      <trkpt lat="45.19523" lon="5.56038">
        <ele>1244.08</ele>
        <time>2021-05-23T13:47:47Z</time>
      </trkpt>
      <trkpt lat="45.19539" lon="5.56045">
        <ele>1246.49</ele>
        <time>2021-05-23T13:48:03Z</time>
      </trkpt>
      <trkpt lat="45.19552" lon="5.56046">
        <ele>1249.37</ele>
        <time>2021-05-23T13:48:15Z</time>
      </trkpt>
      <trkpt lat="45.19554" lon="5.56043">
        <ele>1250.33</ele>
        <time>2021-05-23T13:48:19Z</time>
      </trkpt>
      <trkpt lat="45.19555" lon="5.56037">
        <ele>1250.33</ele>
        <time>2021-05-23T13:48:23Z</time>
      </trkpt>
      <trkpt lat="45.19573" lon="5.56024">
        <ele>1252.25</ele>
        <time>2021-05-23T13:48:38Z</time>
      </trkpt>
      <trkpt lat="45.19599" lon="5.56006">
        <ele>1253.22</ele>
        <time>2021-05-23T13:48:53Z</time>
      </trkpt>
      <trkpt lat="45.19616" lon="5.55986">
        <ele>1249.85</ele>
        <time>2021-05-23T13:48:58Z</time>
      </trkpt>
      <trkpt lat="45.19636" lon="5.55977">
        <ele>1248.89</ele>
        <time>2021-05-23T13:49:06Z</time>
      </trkpt>
      <trkpt lat="45.19664" lon="5.5597">
        <ele>1248.89</ele>
        <time>2021-05-23T13:49:16Z</time>
      </trkpt>
      <trkpt lat="45.19698" lon="5.55966">
        <ele>1247.93</ele>
        <time>2021-05-23T13:49:26Z</time>
      </trkpt>
      <trkpt lat="45.19708" lon="5.55966">
        <ele>1247.45</ele>
        <time>2021-05-23T13:49:38Z</time>
      </trkpt>
      <trkpt lat="45.19723" lon="5.55963">
        <ele>1247.45</ele>
        <time>2021-05-23T13:49:45Z</time>
      </trkpt>
      <trkpt lat="45.19726" lon="5.55967">
        <ele>1246.97</ele>
        <time>2021-05-23T13:49:49Z</time>
      </trkpt>
      <trkpt lat="45.19726" lon="5.55968">
        <ele>1246.97</ele>
        <time>2021-05-23T13:49:51Z</time>
      </trkpt>
      <trkpt lat="45.19724" lon="5.55972">
        <ele>1248.41</ele>
        <time>2021-05-23T13:49:56Z</time>
      </trkpt>
      <trkpt lat="45.19713" lon="5.55975">
        <ele>1249.37</ele>
        <time>2021-05-23T13:50:06Z</time>
      </trkpt>
      <trkpt lat="45.19712" lon="5.55977">
        <ele>1249.85</ele>
        <time>2021-05-23T13:50:07Z</time>
      </trkpt>
      <trkpt lat="45.19711" lon="5.5598">
        <ele>1251.29</ele>
        <time>2021-05-23T13:50:09Z</time>
      </trkpt>
      <trkpt lat="45.19713" lon="5.55983">
        <ele>1251.77</ele>
        <time>2021-05-23T13:50:12Z</time>
      </trkpt>
      <trkpt lat="45.19717" lon="5.5599">
        <ele>1252.74</ele>
        <time>2021-05-23T13:50:19Z</time>
      </trkpt>
      <trkpt lat="45.19712" lon="5.55993">
        <ele>1254.18</ele>
        <time>2021-05-23T13:50:25Z</time>
      </trkpt>
      <trkpt lat="45.19706" lon="5.55997">
        <ele>1254.66</ele>
        <time>2021-05-23T13:50:30Z</time>
      </trkpt>
      <trkpt lat="45.1967" lon="5.55992">
        <ele>1255.14</ele>
        <time>2021-05-23T13:50:42Z</time>
      </trkpt>
      <trkpt lat="45.1964" lon="5.56">
        <ele>1255.62</ele>
        <time>2021-05-23T13:50:53Z</time>
      </trkpt>
      <trkpt lat="45.19631" lon="5.56002">
        <ele>1255.62</ele>
        <time>2021-05-23T13:50:56Z</time>
      </trkpt>
      <trkpt lat="45.19619" lon="5.56004">
        <ele>1254.18</ele>
        <time>2021-05-23T13:50:59Z</time>
      </trkpt>
      <trkpt lat="45.19605" lon="5.56011">
        <ele>1253.7</ele>
        <time>2021-05-23T13:51:07Z</time>
      </trkpt>
      <trkpt lat="45.19583" lon="5.56022">
        <ele>1253.7</ele>
        <time>2021-05-23T13:51:19Z</time>
      </trkpt>
      <trkpt lat="45.19569" lon="5.5603">
        <ele>1252.25</ele>
        <time>2021-05-23T13:51:25Z</time>
      </trkpt>
      <trkpt lat="45.19566" lon="5.56031">
        <ele>1251.77</ele>
        <time>2021-05-23T13:51:29Z</time>
      </trkpt>
      <trkpt lat="45.1959" lon="5.56015">
        <ele>1254.18</ele>
        <time>2021-05-23T13:51:43Z</time>
      </trkpt>
      <trkpt lat="45.19603" lon="5.56006">
        <ele>1254.66</ele>
        <time>2021-05-23T13:51:49Z</time>
      </trkpt>
      <trkpt lat="45.19613" lon="5.56004">
        <ele>1254.66</ele>
        <time>2021-05-23T13:51:53Z</time>
      </trkpt>
      <trkpt lat="45.19631" lon="5.56001">
        <ele>1256.1</ele>
        <time>2021-05-23T13:52:01Z</time>
      </trkpt>
      <trkpt lat="45.19644" lon="5.55993">
        <ele>1256.1</ele>
        <time>2021-05-23T13:52:05Z</time>
      </trkpt>
      <trkpt lat="45.19687" lon="5.55992">
        <ele>1255.14</ele>
        <time>2021-05-23T13:52:17Z</time>
      </trkpt>
      <trkpt lat="45.19696" lon="5.55995">
        <ele>1255.14</ele>
        <time>2021-05-23T13:52:20Z</time>
      </trkpt>
      <trkpt lat="45.197" lon="5.55991">
        <ele>1253.7</ele>
        <time>2021-05-23T13:52:24Z</time>
      </trkpt>
      <trkpt lat="45.19696" lon="5.55983">
        <ele>1253.22</ele>
        <time>2021-05-23T13:52:27Z</time>
      </trkpt>
      <trkpt lat="45.19713" lon="5.55977">
        <ele>1249.37</ele>
        <time>2021-05-23T13:52:33Z</time>
      </trkpt>
      <trkpt lat="45.19727" lon="5.55985">
        <ele>1249.37</ele>
        <time>2021-05-23T13:52:40Z</time>
      </trkpt>
      <trkpt lat="45.1974" lon="5.55981">
        <ele>1247.45</ele>
        <time>2021-05-23T13:52:47Z</time>
      </trkpt>
      <trkpt lat="45.19759" lon="5.55974">
        <ele>1246.97</ele>
        <time>2021-05-23T13:52:55Z</time>
      </trkpt>
      <trkpt lat="45.19762" lon="5.55975">
        <ele>1246.97</ele>
        <time>2021-05-23T13:52:56Z</time>
      </trkpt>
      <trkpt lat="45.19785" lon="5.55962">
        <ele>1244.08</ele>
        <time>2021-05-23T13:53:05Z</time>
      </trkpt>
      <trkpt lat="45.19789" lon="5.55961">
        <ele>1243.6</ele>
        <time>2021-05-23T13:53:06Z</time>
      </trkpt>
      <trkpt lat="45.19809" lon="5.55949">
        <ele>1243.6</ele>
        <time>2021-05-23T13:53:12Z</time>
      </trkpt>
      <trkpt lat="45.19824" lon="5.55947">
        <ele>1245.04</ele>
        <time>2021-05-23T13:53:20Z</time>
      </trkpt>
      <trkpt lat="45.19832" lon="5.5595">
        <ele>1247.45</ele>
        <time>2021-05-23T13:53:25Z</time>
      </trkpt>
      <trkpt lat="45.19862" lon="5.55938">
        <ele>1248.41</ele>
        <time>2021-05-23T13:53:37Z</time>
      </trkpt>
      <trkpt lat="45.19888" lon="5.55936">
        <ele>1250.33</ele>
        <time>2021-05-23T13:53:47Z</time>
      </trkpt>
      <trkpt lat="45.19889" lon="5.55937">
        <ele>1250.33</ele>
        <time>2021-05-23T13:53:48Z</time>
      </trkpt>
      <trkpt lat="45.19912" lon="5.55933">
        <ele>1250.33</ele>
        <time>2021-05-23T13:53:55Z</time>
      </trkpt>
      <trkpt lat="45.19924" lon="5.55931">
        <ele>1248.89</ele>
        <time>2021-05-23T13:53:58Z</time>
      </trkpt>
      <trkpt lat="45.1995" lon="5.55929">
        <ele>1248.41</ele>
        <time>2021-05-23T13:54:05Z</time>
      </trkpt>
      <trkpt lat="45.19963" lon="5.55934">
        <ele>1248.41</ele>
        <time>2021-05-23T13:54:10Z</time>
      </trkpt>
      <trkpt lat="45.19969" lon="5.55938">
        <ele>1250.33</ele>
        <time>2021-05-23T13:54:14Z</time>
      </trkpt>
      <trkpt lat="45.19974" lon="5.55942">
        <ele>1251.29</ele>
        <time>2021-05-23T13:54:18Z</time>
      </trkpt>
      <trkpt lat="45.19981" lon="5.55946">
        <ele>1251.77</ele>
        <time>2021-05-23T13:54:22Z</time>
      </trkpt>
      <trkpt lat="45.19994" lon="5.55962">
        <ele>1254.18</ele>
        <time>2021-05-23T13:54:35Z</time>
      </trkpt>
      <trkpt lat="45.20004" lon="5.55979">
        <ele>1256.1</ele>
        <time>2021-05-23T13:54:46Z</time>
      </trkpt>
      <trkpt lat="45.20021" lon="5.55995">
        <ele>1258.5</ele>
        <time>2021-05-23T13:54:59Z</time>
      </trkpt>
      <trkpt lat="45.20044" lon="5.56007">
        <ele>1259.46</ele>
        <time>2021-05-23T13:55:11Z</time>
      </trkpt>
      <trkpt lat="45.20049" lon="5.56012">
        <ele>1259.94</ele>
        <time>2021-05-23T13:55:15Z</time>
      </trkpt>
      <trkpt lat="45.20069" lon="5.56011">
        <ele>1261.87</ele>
        <time>2021-05-23T13:55:27Z</time>
      </trkpt>
      <trkpt lat="45.2009" lon="5.56008">
        <ele>1262.35</ele>
        <time>2021-05-23T13:55:36Z</time>
      </trkpt>
      <trkpt lat="45.20121" lon="5.56011">
        <ele>1264.27</ele>
        <time>2021-05-23T13:55:49Z</time>
      </trkpt>
      <trkpt lat="45.20145" lon="5.56006">
        <ele>1263.79</ele>
        <time>2021-05-23T13:55:57Z</time>
      </trkpt>
      <trkpt lat="45.20164" lon="5.56009">
        <ele>1265.23</ele>
        <time>2021-05-23T13:56:06Z</time>
      </trkpt>
      <trkpt lat="45.20179" lon="5.56006">
        <ele>1265.23</ele>
        <time>2021-05-23T13:56:11Z</time>
      </trkpt>
      <trkpt lat="45.20184" lon="5.56004">
        <ele>1265.23</ele>
        <time>2021-05-23T13:56:13Z</time>
      </trkpt>
      <trkpt lat="45.20189" lon="5.56006">
        <ele>1263.79</ele>
        <time>2021-05-23T13:56:15Z</time>
      </trkpt>
      <trkpt lat="45.20208" lon="5.56017">
        <ele>1266.67</ele>
        <time>2021-05-23T13:56:25Z</time>
      </trkpt>
      <trkpt lat="45.20223" lon="5.56024">
        <ele>1267.16</ele>
        <time>2021-05-23T13:56:32Z</time>
      </trkpt>
      <trkpt lat="45.20225" lon="5.56024">
        <ele>1267.16</ele>
        <time>2021-05-23T13:56:33Z</time>
      </trkpt>
      <trkpt lat="45.20227" lon="5.56025">
        <ele>1267.16</ele>
        <time>2021-05-23T13:56:34Z</time>
      </trkpt>
      <trkpt lat="45.20229" lon="5.56025">
        <ele>1267.16</ele>
        <time>2021-05-23T13:56:35Z</time>
      </trkpt>
      <trkpt lat="45.20232" lon="5.56025">
        <ele>1267.16</ele>
        <time>2021-05-23T13:56:36Z</time>
      </trkpt>
      <trkpt lat="45.20248" lon="5.56023">
        <ele>1267.64</ele>
        <time>2021-05-23T13:56:43Z</time>
      </trkpt>
      <trkpt lat="45.20249" lon="5.56022">
        <ele>1267.64</ele>
        <time>2021-05-23T13:56:44Z</time>
      </trkpt>
      <trkpt lat="45.20251" lon="5.56022">
        <ele>1267.64</ele>
        <time>2021-05-23T13:56:45Z</time>
      </trkpt>
      <trkpt lat="45.20252" lon="5.56023">
        <ele>1267.64</ele>
        <time>2021-05-23T13:56:46Z</time>
      </trkpt>
      <trkpt lat="45.2026" lon="5.56026">
        <ele>1268.6</ele>
        <time>2021-05-23T13:56:51Z</time>
      </trkpt>
      <trkpt lat="45.20261" lon="5.56027">
        <ele>1269.08</ele>
        <time>2021-05-23T13:56:52Z</time>
      </trkpt>
      <trkpt lat="45.20274" lon="5.56027">
        <ele>1270.04</ele>
        <time>2021-05-23T13:57:01Z</time>
      </trkpt>
      <trkpt lat="45.20276" lon="5.56028">
        <ele>1270.04</ele>
        <time>2021-05-23T13:57:02Z</time>
      </trkpt>
      <trkpt lat="45.20278" lon="5.56029">
        <ele>1270.04</ele>
        <time>2021-05-23T13:57:03Z</time>
      </trkpt>
      <trkpt lat="45.2028" lon="5.56029">
        <ele>1270.04</ele>
        <time>2021-05-23T13:57:04Z</time>
      </trkpt>
      <trkpt lat="45.20282" lon="5.56029">
        <ele>1270.04</ele>
        <time>2021-05-23T13:57:05Z</time>
      </trkpt>
      <trkpt lat="45.20284" lon="5.56029">
        <ele>1270.04</ele>
        <time>2021-05-23T13:57:06Z</time>
      </trkpt>
      <trkpt lat="45.20286" lon="5.56029">
        <ele>1270.52</ele>
        <time>2021-05-23T13:57:07Z</time>
      </trkpt>
      <trkpt lat="45.20288" lon="5.56029">
        <ele>1270.52</ele>
        <time>2021-05-23T13:57:08Z</time>
      </trkpt>
      <trkpt lat="45.20291" lon="5.56028">
        <ele>1270.04</ele>
        <time>2021-05-23T13:57:09Z</time>
      </trkpt>
      <trkpt lat="45.20293" lon="5.56027">
        <ele>1270.04</ele>
        <time>2021-05-23T13:57:10Z</time>
      </trkpt>
      <trkpt lat="45.20295" lon="5.56025">
        <ele>1270.04</ele>
        <time>2021-05-23T13:57:11Z</time>
      </trkpt>
      <trkpt lat="45.20298" lon="5.56023">
        <ele>1270.04</ele>
        <time>2021-05-23T13:57:12Z</time>
      </trkpt>
      <trkpt lat="45.203" lon="5.5602">
        <ele>1270.04</ele>
        <time>2021-05-23T13:57:13Z</time>
      </trkpt>
      <trkpt lat="45.20327" lon="5.56007">
        <ele>1269.08</ele>
        <time>2021-05-23T13:57:23Z</time>
      </trkpt>
      <trkpt lat="45.20329" lon="5.56006">
        <ele>1269.08</ele>
        <time>2021-05-23T13:57:24Z</time>
      </trkpt>
      <trkpt lat="45.20331" lon="5.56005">
        <ele>1270.52</ele>
        <time>2021-05-23T13:57:25Z</time>
      </trkpt>
      <trkpt lat="45.20333" lon="5.56003">
        <ele>1270.52</ele>
        <time>2021-05-23T13:57:26Z</time>
      </trkpt>
      <trkpt lat="45.20336" lon="5.56001">
        <ele>1270.52</ele>
        <time>2021-05-23T13:57:27Z</time>
      </trkpt>
      <trkpt lat="45.20338" lon="5.56">
        <ele>1270.52</ele>
        <time>2021-05-23T13:57:28Z</time>
      </trkpt>
      <trkpt lat="45.2034" lon="5.55999">
        <ele>1270.52</ele>
        <time>2021-05-23T13:57:29Z</time>
      </trkpt>
      <trkpt lat="45.20343" lon="5.55999">
        <ele>1270.52</ele>
        <time>2021-05-23T13:57:30Z</time>
      </trkpt>
      <trkpt lat="45.20345" lon="5.55999">
        <ele>1271</ele>
        <time>2021-05-23T13:57:31Z</time>
      </trkpt>
      <trkpt lat="45.20371" lon="5.55995">
        <ele>1273.4</ele>
        <time>2021-05-23T13:57:43Z</time>
      </trkpt>
      <trkpt lat="45.20377" lon="5.55992">
        <ele>1273.4</ele>
        <time>2021-05-23T13:57:46Z</time>
      </trkpt>
      <trkpt lat="45.20379" lon="5.55991">
        <ele>1273.4</ele>
        <time>2021-05-23T13:57:47Z</time>
      </trkpt>
      <trkpt lat="45.20381" lon="5.55989">
        <ele>1273.4</ele>
        <time>2021-05-23T13:57:48Z</time>
      </trkpt>
      <trkpt lat="45.204" lon="5.55984">
        <ele>1275.33</ele>
        <time>2021-05-23T13:57:58Z</time>
      </trkpt>
      <trkpt lat="45.20405" lon="5.55985">
        <ele>1276.77</ele>
        <time>2021-05-23T13:58:02Z</time>
      </trkpt>
      <trkpt lat="45.20407" lon="5.55984">
        <ele>1276.77</ele>
        <time>2021-05-23T13:58:03Z</time>
      </trkpt>
      <trkpt lat="45.20409" lon="5.55984">
        <ele>1276.77</ele>
        <time>2021-05-23T13:58:04Z</time>
      </trkpt>
      <trkpt lat="45.2041" lon="5.55984">
        <ele>1276.77</ele>
        <time>2021-05-23T13:58:05Z</time>
      </trkpt>
      <trkpt lat="45.20413" lon="5.55984">
        <ele>1276.77</ele>
        <time>2021-05-23T13:58:06Z</time>
      </trkpt>
      <trkpt lat="45.20415" lon="5.55984">
        <ele>1276.77</ele>
        <time>2021-05-23T13:58:07Z</time>
      </trkpt>
      <trkpt lat="45.20417" lon="5.55985">
        <ele>1276.77</ele>
        <time>2021-05-23T13:58:08Z</time>
      </trkpt>
      <trkpt lat="45.20419" lon="5.55985">
        <ele>1276.77</ele>
        <time>2021-05-23T13:58:09Z</time>
      </trkpt>
      <trkpt lat="45.20421" lon="5.55986">
        <ele>1276.77</ele>
        <time>2021-05-23T13:58:10Z</time>
      </trkpt>
      <trkpt lat="45.20423" lon="5.55987">
        <ele>1276.77</ele>
        <time>2021-05-23T13:58:11Z</time>
      </trkpt>
      <trkpt lat="45.20451" lon="5.55999">
        <ele>1276.77</ele>
        <time>2021-05-23T13:58:21Z</time>
      </trkpt>
      <trkpt lat="45.20469" lon="5.56002">
        <ele>1276.77</ele>
        <time>2021-05-23T13:58:28Z</time>
      </trkpt>
      <trkpt lat="45.2047" lon="5.56004">
        <ele>1276.77</ele>
        <time>2021-05-23T13:58:29Z</time>
      </trkpt>
      <trkpt lat="45.20473" lon="5.56005">
        <ele>1276.77</ele>
        <time>2021-05-23T13:58:32Z</time>
      </trkpt>
      <trkpt lat="45.20473" lon="5.56008">
        <ele>1277.25</ele>
        <time>2021-05-23T13:58:34Z</time>
      </trkpt>
      <trkpt lat="45.2047" lon="5.56015">
        <ele>1279.65</ele>
        <time>2021-05-23T13:58:45Z</time>
      </trkpt>
      <trkpt lat="45.20469" lon="5.56025">
        <ele>1281.09</ele>
        <time>2021-05-23T13:58:59Z</time>
      </trkpt>
      <trkpt lat="45.20463" lon="5.56045">
        <ele>1283.98</ele>
        <time>2021-05-23T13:59:12Z</time>
      </trkpt>
      <trkpt lat="45.20456" lon="5.56055">
        <ele>1285.9</ele>
        <time>2021-05-23T13:59:25Z</time>
      </trkpt>
      <trkpt lat="45.20455" lon="5.56061">
        <ele>1286.86</ele>
        <time>2021-05-23T13:59:37Z</time>
      </trkpt>
      <trkpt lat="45.20448" lon="5.56074">
        <ele>1289.27</ele>
        <time>2021-05-23T13:59:52Z</time>
      </trkpt>
      <trkpt lat="45.20447" lon="5.56077">
        <ele>1290.23</ele>
        <time>2021-05-23T14:00:00Z</time>
      </trkpt>
      <trkpt lat="45.20449" lon="5.56088">
        <ele>1291.19</ele>
        <time>2021-05-23T14:00:09Z</time>
      </trkpt>
      <trkpt lat="45.20452" lon="5.56106">
        <ele>1293.11</ele>
        <time>2021-05-23T14:00:19Z</time>
      </trkpt>
      <trkpt lat="45.20458" lon="5.56117">
        <ele>1295.03</ele>
        <time>2021-05-23T14:00:29Z</time>
      </trkpt>
      <trkpt lat="45.20475" lon="5.56125">
        <ele>1296.48</ele>
        <time>2021-05-23T14:00:43Z</time>
      </trkpt>
      <trkpt lat="45.20484" lon="5.56124">
        <ele>1297.44</ele>
        <time>2021-05-23T14:00:48Z</time>
      </trkpt>
      <trkpt lat="45.20494" lon="5.56133">
        <ele>1298.88</ele>
        <time>2021-05-23T14:00:56Z</time>
      </trkpt>
      <trkpt lat="45.20498" lon="5.56133">
        <ele>1298.88</ele>
        <time>2021-05-23T14:00:59Z</time>
      </trkpt>
      <trkpt lat="45.20502" lon="5.56139">
        <ele>1299.84</ele>
        <time>2021-05-23T14:01:04Z</time>
      </trkpt>
      <trkpt lat="45.20502" lon="5.56148">
        <ele>1300.8</ele>
        <time>2021-05-23T14:01:12Z</time>
      </trkpt>
      <trkpt lat="45.20509" lon="5.56147">
        <ele>1302.24</ele>
        <time>2021-05-23T14:01:19Z</time>
      </trkpt>
      <trkpt lat="45.20519" lon="5.56149">
        <ele>1303.2</ele>
        <time>2021-05-23T14:01:28Z</time>
      </trkpt>
      <trkpt lat="45.20542" lon="5.56153">
        <ele>1306.09</ele>
        <time>2021-05-23T14:01:44Z</time>
      </trkpt>
      <trkpt lat="45.20556" lon="5.56163">
        <ele>1308.97</ele>
        <time>2021-05-23T14:01:58Z</time>
      </trkpt>
      <trkpt lat="45.2056" lon="5.56166">
        <ele>1309.93</ele>
        <time>2021-05-23T14:02:02Z</time>
      </trkpt>
      <trkpt lat="45.20563" lon="5.56177">
        <ele>1311.86</ele>
        <time>2021-05-23T14:02:07Z</time>
      </trkpt>
      <trkpt lat="45.20564" lon="5.56181">
        <ele>1312.82</ele>
        <time>2021-05-23T14:02:09Z</time>
      </trkpt>
      <trkpt lat="45.2057" lon="5.56187">
        <ele>1313.3</ele>
        <time>2021-05-23T14:02:16Z</time>
      </trkpt>
      <trkpt lat="45.20579" lon="5.56189">
        <ele>1313.78</ele>
        <time>2021-05-23T14:02:23Z</time>
      </trkpt>
      <trkpt lat="45.20593" lon="5.56185">
        <ele>1315.7</ele>
        <time>2021-05-23T14:02:35Z</time>
      </trkpt>
      <trkpt lat="45.20599" lon="5.56183">
        <ele>1317.14</ele>
        <time>2021-05-23T14:02:40Z</time>
      </trkpt>
      <trkpt lat="45.2061" lon="5.56182">
        <ele>1318.59</ele>
        <time>2021-05-23T14:02:54Z</time>
      </trkpt>
      <trkpt lat="45.20617" lon="5.56191">
        <ele>1321.95</ele>
        <time>2021-05-23T14:03:09Z</time>
      </trkpt>
      <trkpt lat="45.20618" lon="5.56192">
        <ele>1321.95</ele>
        <time>2021-05-23T14:03:12Z</time>
      </trkpt>
      <trkpt lat="45.20619" lon="5.56192">
        <ele>1322.43</ele>
        <time>2021-05-23T14:03:14Z</time>
      </trkpt>
      <trkpt lat="45.20626" lon="5.56193">
        <ele>1322.91</ele>
        <time>2021-05-23T14:03:19Z</time>
      </trkpt>
      <trkpt lat="45.20628" lon="5.56193">
        <ele>1322.91</ele>
        <time>2021-05-23T14:03:21Z</time>
      </trkpt>
      <trkpt lat="45.2064" lon="5.5619">
        <ele>1323.87</ele>
        <time>2021-05-23T14:03:29Z</time>
      </trkpt>
      <trkpt lat="45.20651" lon="5.56186">
        <ele>1323.87</ele>
        <time>2021-05-23T14:03:35Z</time>
      </trkpt>
      <trkpt lat="45.20683" lon="5.56191">
        <ele>1322.43</ele>
        <time>2021-05-23T14:03:46Z</time>
      </trkpt>
      <trkpt lat="45.20704" lon="5.56201">
        <ele>1322.43</ele>
        <time>2021-05-23T14:03:56Z</time>
      </trkpt>
      <trkpt lat="45.20711" lon="5.5621">
        <ele>1326.28</ele>
        <time>2021-05-23T14:04:03Z</time>
      </trkpt>
      <trkpt lat="45.20727" lon="5.56227">
        <ele>1326.76</ele>
        <time>2021-05-23T14:04:11Z</time>
      </trkpt>
      <trkpt lat="45.20735" lon="5.5623">
        <ele>1326.76</ele>
        <time>2021-05-23T14:04:16Z</time>
      </trkpt>
      <trkpt lat="45.20757" lon="5.56227">
        <ele>1326.76</ele>
        <time>2021-05-23T14:04:26Z</time>
      </trkpt>
      <trkpt lat="45.20777" lon="5.56215">
        <ele>1327.24</ele>
        <time>2021-05-23T14:04:37Z</time>
      </trkpt>
      <trkpt lat="45.20785" lon="5.5621">
        <ele>1329.16</ele>
        <time>2021-05-23T14:04:45Z</time>
      </trkpt>
      <trkpt lat="45.20788" lon="5.56205">
        <ele>1329.64</ele>
        <time>2021-05-23T14:04:48Z</time>
      </trkpt>
      <trkpt lat="45.20791" lon="5.56203">
        <ele>1331.08</ele>
        <time>2021-05-23T14:04:51Z</time>
      </trkpt>
      <trkpt lat="45.20795" lon="5.5621">
        <ele>1332.52</ele>
        <time>2021-05-23T14:04:58Z</time>
      </trkpt>
      <trkpt lat="45.208" lon="5.5622">
        <ele>1334.45</ele>
        <time>2021-05-23T14:05:12Z</time>
      </trkpt>
      <trkpt lat="45.20799" lon="5.56235">
        <ele>1336.37</ele>
        <time>2021-05-23T14:05:26Z</time>
      </trkpt>
      <trkpt lat="45.20799" lon="5.56242">
        <ele>1337.33</ele>
        <time>2021-05-23T14:05:39Z</time>
      </trkpt>
      <trkpt lat="45.20804" lon="5.56254">
        <ele>1337.33</ele>
        <time>2021-05-23T14:05:51Z</time>
      </trkpt>
      <trkpt lat="45.20815" lon="5.56266">
        <ele>1339.73</ele>
        <time>2021-05-23T14:06:02Z</time>
      </trkpt>
      <trkpt lat="45.20824" lon="5.56264">
        <ele>1341.18</ele>
        <time>2021-05-23T14:06:09Z</time>
      </trkpt>
      <trkpt lat="45.20835" lon="5.56264">
        <ele>1341.66</ele>
        <time>2021-05-23T14:06:17Z</time>
      </trkpt>
      <trkpt lat="45.20843" lon="5.56263">
        <ele>1342.14</ele>
        <time>2021-05-23T14:06:23Z</time>
      </trkpt>
      <trkpt lat="45.20855" lon="5.56267">
        <ele>1342.62</ele>
        <time>2021-05-23T14:06:31Z</time>
      </trkpt>
      <trkpt lat="45.2087" lon="5.56276">
        <ele>1344.06</ele>
        <time>2021-05-23T14:06:40Z</time>
      </trkpt>
      <trkpt lat="45.20872" lon="5.56282">
        <ele>1344.54</ele>
        <time>2021-05-23T14:06:43Z</time>
      </trkpt>
      <trkpt lat="45.20874" lon="5.56284">
        <ele>1345.5</ele>
        <time>2021-05-23T14:06:45Z</time>
      </trkpt>
      <trkpt lat="45.20886" lon="5.56312">
        <ele>1345.98</ele>
        <time>2021-05-23T14:06:57Z</time>
      </trkpt>
      <trkpt lat="45.20893" lon="5.56317">
        <ele>1345.98</ele>
        <time>2021-05-23T14:07:02Z</time>
      </trkpt>
      <trkpt lat="45.20909" lon="5.56311">
        <ele>1345.98</ele>
        <time>2021-05-23T14:07:13Z</time>
      </trkpt>
      <trkpt lat="45.20911" lon="5.56307">
        <ele>1345.98</ele>
        <time>2021-05-23T14:07:15Z</time>
      </trkpt>
      <trkpt lat="45.20921" lon="5.56294">
        <ele>1345.98</ele>
        <time>2021-05-23T14:07:21Z</time>
      </trkpt>
      <trkpt lat="45.20924" lon="5.56282">
        <ele>1347.91</ele>
        <time>2021-05-23T14:07:34Z</time>
      </trkpt>
      <trkpt lat="45.20927" lon="5.56276">
        <ele>1349.35</ele>
        <time>2021-05-23T14:07:44Z</time>
      </trkpt>
      <trkpt lat="45.20929" lon="5.56272">
        <ele>1349.83</ele>
        <time>2021-05-23T14:07:47Z</time>
      </trkpt>
      <trkpt lat="45.20938" lon="5.56273">
        <ele>1349.35</ele>
        <time>2021-05-23T14:07:53Z</time>
      </trkpt>
      <trkpt lat="45.20949" lon="5.56277">
        <ele>1351.75</ele>
        <time>2021-05-23T14:08:01Z</time>
      </trkpt>
      <trkpt lat="45.20964" lon="5.56272">
        <ele>1354.15</ele>
        <time>2021-05-23T14:08:11Z</time>
      </trkpt>
      <trkpt lat="45.20984" lon="5.56276">
        <ele>1354.63</ele>
        <time>2021-05-23T14:08:23Z</time>
      </trkpt>
      <trkpt lat="45.20985" lon="5.56273">
        <ele>1354.63</ele>
        <time>2021-05-23T14:08:26Z</time>
      </trkpt>
      <trkpt lat="45.20985" lon="5.56268">
        <ele>1355.12</ele>
        <time>2021-05-23T14:08:29Z</time>
      </trkpt>
      <trkpt lat="45.20986" lon="5.56259">
        <ele>1355.6</ele>
        <time>2021-05-23T14:08:34Z</time>
      </trkpt>
      <trkpt lat="45.20979" lon="5.56256">
        <ele>1357.52</ele>
        <time>2021-05-23T14:08:41Z</time>
      </trkpt>
      <trkpt lat="45.20972" lon="5.56245">
        <ele>1355.6</ele>
        <time>2021-05-23T14:08:48Z</time>
      </trkpt>
      <trkpt lat="45.20978" lon="5.56235">
        <ele>1354.15</ele>
        <time>2021-05-23T14:08:52Z</time>
      </trkpt>
      <trkpt lat="45.20985" lon="5.56236">
        <ele>1353.67</ele>
        <time>2021-05-23T14:08:54Z</time>
      </trkpt>
      <trkpt lat="45.21009" lon="5.56236">
        <ele>1350.31</ele>
        <time>2021-05-23T14:09:02Z</time>
      </trkpt>
      <trkpt lat="45.21014" lon="5.56232">
        <ele>1347.91</ele>
        <time>2021-05-23T14:09:05Z</time>
      </trkpt>
      <trkpt lat="45.21016" lon="5.56232">
        <ele>1347.43</ele>
        <time>2021-05-23T14:09:10Z</time>
      </trkpt>
      <trkpt lat="45.21025" lon="5.56232">
        <ele>1345.5</ele>
        <time>2021-05-23T14:09:15Z</time>
      </trkpt>
      <trkpt lat="45.21028" lon="5.56233">
        <ele>1344.06</ele>
        <time>2021-05-23T14:09:17Z</time>
      </trkpt>
      <trkpt lat="45.21038" lon="5.56229">
        <ele>1339.25</ele>
        <time>2021-05-23T14:09:22Z</time>
      </trkpt>
      <trkpt lat="45.21048" lon="5.56231">
        <ele>1335.89</ele>
        <time>2021-05-23T14:09:25Z</time>
      </trkpt>
      <trkpt lat="45.21059" lon="5.56231">
        <ele>1333.97</ele>
        <time>2021-05-23T14:09:27Z</time>
      </trkpt>
      <trkpt lat="45.21077" lon="5.56232">
        <ele>1332.52</ele>
        <time>2021-05-23T14:09:30Z</time>
      </trkpt>
      <trkpt lat="45.21087" lon="5.56231">
        <ele>1332.52</ele>
        <time>2021-05-23T14:09:32Z</time>
      </trkpt>
      <trkpt lat="45.2112" lon="5.56219">
        <ele>1331.08</ele>
        <time>2021-05-23T14:09:41Z</time>
      </trkpt>
      <trkpt lat="45.21143" lon="5.56222">
        <ele>1330.12</ele>
        <time>2021-05-23T14:09:47Z</time>
      </trkpt>
      <trkpt lat="45.21182" lon="5.56246">
        <ele>1324.83</ele>
        <time>2021-05-23T14:09:54Z</time>
      </trkpt>
      <trkpt lat="45.21203" lon="5.56256">
        <ele>1320.99</ele>
        <time>2021-05-23T14:09:57Z</time>
      </trkpt>
      <trkpt lat="45.21206" lon="5.56256">
        <ele>1320.03</ele>
        <time>2021-05-23T14:09:58Z</time>
      </trkpt>
      <trkpt lat="45.21208" lon="5.56256">
        <ele>1319.55</ele>
        <time>2021-05-23T14:09:59Z</time>
      </trkpt>
      <trkpt lat="45.21215" lon="5.56254">
        <ele>1319.55</ele>
        <time>2021-05-23T14:10:09Z</time>
      </trkpt>
      <trkpt lat="45.21217" lon="5.56253">
        <ele>1319.55</ele>
        <time>2021-05-23T14:10:10Z</time>
      </trkpt>
      <trkpt lat="45.21218" lon="5.56252">
        <ele>1319.07</ele>
        <time>2021-05-23T14:10:11Z</time>
      </trkpt>
      <trkpt lat="45.21221" lon="5.56248">
        <ele>1318.59</ele>
        <time>2021-05-23T14:10:14Z</time>
      </trkpt>
      <trkpt lat="45.21222" lon="5.56246">
        <ele>1318.59</ele>
        <time>2021-05-23T14:10:15Z</time>
      </trkpt>
      <trkpt lat="45.21232" lon="5.56235">
        <ele>1315.7</ele>
        <time>2021-05-23T14:10:22Z</time>
      </trkpt>
      <trkpt lat="45.21239" lon="5.56228">
        <ele>1314.74</ele>
        <time>2021-05-23T14:10:38Z</time>
      </trkpt>
      <trkpt lat="45.21242" lon="5.56229">
        <ele>1314.74</ele>
        <time>2021-05-23T14:11:12Z</time>
      </trkpt>
      <trkpt lat="45.21245" lon="5.56228">
        <ele>1314.74</ele>
        <time>2021-05-23T14:11:31Z</time>
      </trkpt>
      <trkpt lat="45.21249" lon="5.56227">
        <ele>1314.74</ele>
        <time>2021-05-23T14:12:00Z</time>
      </trkpt>
      <trkpt lat="45.21247" lon="5.5623">
        <ele>1314.74</ele>
        <time>2021-05-23T14:12:31Z</time>
      </trkpt>
      <trkpt lat="45.21244" lon="5.56227">
        <ele>1314.74</ele>
        <time>2021-05-23T14:12:39Z</time>
      </trkpt>
      <trkpt lat="45.21243" lon="5.56228">
        <ele>1314.74</ele>
        <time>2021-05-23T14:12:40Z</time>
      </trkpt>
      <trkpt lat="45.21242" lon="5.5623">
        <ele>1314.74</ele>
        <time>2021-05-23T14:12:41Z</time>
      </trkpt>
      <trkpt lat="45.21241" lon="5.56235">
        <ele>1315.7</ele>
        <time>2021-05-23T14:12:44Z</time>
      </trkpt>
      <trkpt lat="45.21241" lon="5.56236">
        <ele>1316.66</ele>
        <time>2021-05-23T14:12:45Z</time>
      </trkpt>
      <trkpt lat="45.21239" lon="5.56238">
        <ele>1316.66</ele>
        <time>2021-05-23T14:12:46Z</time>
      </trkpt>
      <trkpt lat="45.21234" lon="5.56244">
        <ele>1318.1</ele>
        <time>2021-05-23T14:12:51Z</time>
      </trkpt>
      <trkpt lat="45.21225" lon="5.56257">
        <ele>1320.03</ele>
        <time>2021-05-23T14:13:00Z</time>
      </trkpt>
      <trkpt lat="45.21223" lon="5.56267">
        <ele>1320.03</ele>
        <time>2021-05-23T14:13:05Z</time>
      </trkpt>
      <trkpt lat="45.21219" lon="5.56274">
        <ele>1320.03</ele>
        <time>2021-05-23T14:13:07Z</time>
      </trkpt>
      <trkpt lat="45.21225" lon="5.56285">
        <ele>1318.59</ele>
        <time>2021-05-23T14:13:13Z</time>
      </trkpt>
      <trkpt lat="45.21233" lon="5.56289">
        <ele>1318.59</ele>
        <time>2021-05-23T14:13:17Z</time>
      </trkpt>
      <trkpt lat="45.21253" lon="5.56289">
        <ele>1318.59</ele>
        <time>2021-05-23T14:13:26Z</time>
      </trkpt>
      <trkpt lat="45.21259" lon="5.56298">
        <ele>1318.59</ele>
        <time>2021-05-23T14:13:31Z</time>
      </trkpt>
      <trkpt lat="45.21266" lon="5.56308">
        <ele>1319.55</ele>
        <time>2021-05-23T14:13:41Z</time>
      </trkpt>
      <trkpt lat="45.2127" lon="5.5632">
        <ele>1320.03</ele>
        <time>2021-05-23T14:13:51Z</time>
      </trkpt>
      <trkpt lat="45.2127" lon="5.56338">
        <ele>1321.47</ele>
        <time>2021-05-23T14:14:04Z</time>
      </trkpt>
      <trkpt lat="45.21272" lon="5.56347">
        <ele>1324.35</ele>
        <time>2021-05-23T14:14:18Z</time>
      </trkpt>
      <trkpt lat="45.2127" lon="5.56355">
        <ele>1325.31</ele>
        <time>2021-05-23T14:14:31Z</time>
      </trkpt>
      <trkpt lat="45.21269" lon="5.5636">
        <ele>1325.8</ele>
        <time>2021-05-23T14:14:39Z</time>
      </trkpt>
      <trkpt lat="45.21264" lon="5.56377">
        <ele>1327.24</ele>
        <time>2021-05-23T14:14:52Z</time>
      </trkpt>
      <trkpt lat="45.21264" lon="5.5638">
        <ele>1327.72</ele>
        <time>2021-05-23T14:14:54Z</time>
      </trkpt>
      <trkpt lat="45.21262" lon="5.56386">
        <ele>1328.2</ele>
        <time>2021-05-23T14:14:57Z</time>
      </trkpt>
      <trkpt lat="45.21263" lon="5.56405">
        <ele>1331.08</ele>
        <time>2021-05-23T14:15:08Z</time>
      </trkpt>
      <trkpt lat="45.21265" lon="5.56408">
        <ele>1332.52</ele>
        <time>2021-05-23T14:15:19Z</time>
      </trkpt>
      <trkpt lat="45.21272" lon="5.56412">
        <ele>1334.93</ele>
        <time>2021-05-23T14:15:33Z</time>
      </trkpt>
      <trkpt lat="45.21281" lon="5.56405">
        <ele>1338.29</ele>
        <time>2021-05-23T14:15:47Z</time>
      </trkpt>
      <trkpt lat="45.21282" lon="5.56405">
        <ele>1337.81</ele>
        <time>2021-05-23T14:15:51Z</time>
      </trkpt>
      <trkpt lat="45.21295" lon="5.564">
        <ele>1339.73</ele>
        <time>2021-05-23T14:16:03Z</time>
      </trkpt>
      <trkpt lat="45.21298" lon="5.56404">
        <ele>1340.7</ele>
        <time>2021-05-23T14:16:07Z</time>
      </trkpt>
      <trkpt lat="45.21305" lon="5.56409">
        <ele>1341.18</ele>
        <time>2021-05-23T14:16:14Z</time>
      </trkpt>
      <trkpt lat="45.21313" lon="5.5641">
        <ele>1342.14</ele>
        <time>2021-05-23T14:16:20Z</time>
      </trkpt>
      <trkpt lat="45.21315" lon="5.56412">
        <ele>1342.14</ele>
        <time>2021-05-23T14:16:22Z</time>
      </trkpt>
      <trkpt lat="45.21319" lon="5.56428">
        <ele>1343.1</ele>
        <time>2021-05-23T14:16:29Z</time>
      </trkpt>
      <trkpt lat="45.21333" lon="5.56457">
        <ele>1345.02</ele>
        <time>2021-05-23T14:16:42Z</time>
      </trkpt>
      <trkpt lat="45.21358" lon="5.56479">
        <ele>1344.06</ele>
        <time>2021-05-23T14:16:53Z</time>
      </trkpt>
      <trkpt lat="45.21363" lon="5.56488">
        <ele>1343.1</ele>
        <time>2021-05-23T14:16:55Z</time>
      </trkpt>
      <trkpt lat="45.21379" lon="5.56509">
        <ele>1339.25</ele>
        <time>2021-05-23T14:17:02Z</time>
      </trkpt>
      <trkpt lat="45.21387" lon="5.56514">
        <ele>1337.33</ele>
        <time>2021-05-23T14:17:04Z</time>
      </trkpt>
      <trkpt lat="45.21401" lon="5.5653">
        <ele>1334.45</ele>
        <time>2021-05-23T14:17:14Z</time>
      </trkpt>
      <trkpt lat="45.21405" lon="5.56534">
        <ele>1333.97</ele>
        <time>2021-05-23T14:17:20Z</time>
      </trkpt>
      <trkpt lat="45.21407" lon="5.56532">
        <ele>1333.97</ele>
        <time>2021-05-23T14:17:23Z</time>
      </trkpt>
      <trkpt lat="45.21416" lon="5.56534">
        <ele>1330.12</ele>
        <time>2021-05-23T14:17:27Z</time>
      </trkpt>
      <trkpt lat="45.21419" lon="5.56536">
        <ele>1329.64</ele>
        <time>2021-05-23T14:17:28Z</time>
      </trkpt>
      <trkpt lat="45.21431" lon="5.56543">
        <ele>1326.76</ele>
        <time>2021-05-23T14:17:35Z</time>
      </trkpt>
      <trkpt lat="45.21432" lon="5.56549">
        <ele>1326.28</ele>
        <time>2021-05-23T14:17:38Z</time>
      </trkpt>
      <trkpt lat="45.21433" lon="5.56554">
        <ele>1325.31</ele>
        <time>2021-05-23T14:17:40Z</time>
      </trkpt>
      <trkpt lat="45.21434" lon="5.56555">
        <ele>1324.35</ele>
        <time>2021-05-23T14:17:41Z</time>
      </trkpt>
      <trkpt lat="45.21436" lon="5.56556">
        <ele>1324.35</ele>
        <time>2021-05-23T14:17:42Z</time>
      </trkpt>
      <trkpt lat="45.21437" lon="5.56555">
        <ele>1324.35</ele>
        <time>2021-05-23T14:17:43Z</time>
      </trkpt>
      <trkpt lat="45.21438" lon="5.56554">
        <ele>1324.35</ele>
        <time>2021-05-23T14:17:44Z</time>
      </trkpt>
      <trkpt lat="45.21438" lon="5.56553">
        <ele>1324.35</ele>
        <time>2021-05-23T14:17:45Z</time>
      </trkpt>
      <trkpt lat="45.21439" lon="5.56551">
        <ele>1324.35</ele>
        <time>2021-05-23T14:17:46Z</time>
      </trkpt>
      <trkpt lat="45.21437" lon="5.5652">
        <ele>1323.87</ele>
        <time>2021-05-23T14:17:54Z</time>
      </trkpt>
      <trkpt lat="45.21435" lon="5.56512">
        <ele>1322.91</ele>
        <time>2021-05-23T14:17:55Z</time>
      </trkpt>
      <trkpt lat="45.21432" lon="5.56497">
        <ele>1322.43</ele>
        <time>2021-05-23T14:17:57Z</time>
      </trkpt>
      <trkpt lat="45.2143" lon="5.56471">
        <ele>1320.51</ele>
        <time>2021-05-23T14:18:00Z</time>
      </trkpt>
      <trkpt lat="45.21432" lon="5.5645">
        <ele>1318.59</ele>
        <time>2021-05-23T14:18:02Z</time>
      </trkpt>
      <trkpt lat="45.21434" lon="5.56438">
        <ele>1317.62</ele>
        <time>2021-05-23T14:18:03Z</time>
      </trkpt>
      <trkpt lat="45.21446" lon="5.56396">
        <ele>1315.7</ele>
        <time>2021-05-23T14:18:07Z</time>
      </trkpt>
      <trkpt lat="45.21449" lon="5.56385">
        <ele>1314.74</ele>
        <time>2021-05-23T14:18:08Z</time>
      </trkpt>
      <trkpt lat="45.21454" lon="5.56373">
        <ele>1314.74</ele>
        <time>2021-05-23T14:18:09Z</time>
      </trkpt>
      <trkpt lat="45.21462" lon="5.56349">
        <ele>1313.3</ele>
        <time>2021-05-23T14:18:11Z</time>
      </trkpt>
      <trkpt lat="45.21464" lon="5.56336">
        <ele>1311.86</ele>
        <time>2021-05-23T14:18:12Z</time>
      </trkpt>
      <trkpt lat="45.21466" lon="5.56325">
        <ele>1311.86</ele>
        <time>2021-05-23T14:18:13Z</time>
      </trkpt>
      <trkpt lat="45.21467" lon="5.56312">
        <ele>1310.9</ele>
        <time>2021-05-23T14:18:14Z</time>
      </trkpt>
      <trkpt lat="45.2147" lon="5.563">
        <ele>1309.93</ele>
        <time>2021-05-23T14:18:15Z</time>
      </trkpt>
      <trkpt lat="45.21474" lon="5.56289">
        <ele>1309.45</ele>
        <time>2021-05-23T14:18:16Z</time>
      </trkpt>
      <trkpt lat="45.21478" lon="5.56279">
        <ele>1309.45</ele>
        <time>2021-05-23T14:18:17Z</time>
      </trkpt>
      <trkpt lat="45.21486" lon="5.56259">
        <ele>1308.01</ele>
        <time>2021-05-23T14:18:19Z</time>
      </trkpt>
      <trkpt lat="45.21491" lon="5.5625">
        <ele>1308.01</ele>
        <time>2021-05-23T14:18:20Z</time>
      </trkpt>
      <trkpt lat="45.21496" lon="5.56242">
        <ele>1308.01</ele>
        <time>2021-05-23T14:18:21Z</time>
      </trkpt>
      <trkpt lat="45.215" lon="5.56234">
        <ele>1307.53</ele>
        <time>2021-05-23T14:18:22Z</time>
      </trkpt>
      <trkpt lat="45.21504" lon="5.56226">
        <ele>1307.05</ele>
        <time>2021-05-23T14:18:23Z</time>
      </trkpt>
      <trkpt lat="45.21507" lon="5.56218">
        <ele>1306.57</ele>
        <time>2021-05-23T14:18:24Z</time>
      </trkpt>
      <trkpt lat="45.21509" lon="5.5621">
        <ele>1306.09</ele>
        <time>2021-05-23T14:18:25Z</time>
      </trkpt>
      <trkpt lat="45.21512" lon="5.56202">
        <ele>1305.13</ele>
        <time>2021-05-23T14:18:26Z</time>
      </trkpt>
      <trkpt lat="45.21514" lon="5.56195">
        <ele>1305.13</ele>
        <time>2021-05-23T14:18:27Z</time>
      </trkpt>
      <trkpt lat="45.21526" lon="5.56163">
        <ele>1304.65</ele>
        <time>2021-05-23T14:18:32Z</time>
      </trkpt>
      <trkpt lat="45.21546" lon="5.56116">
        <ele>1304.17</ele>
        <time>2021-05-23T14:18:41Z</time>
      </trkpt>
      <trkpt lat="45.21556" lon="5.56096">
        <ele>1304.17</ele>
        <time>2021-05-23T14:18:45Z</time>
      </trkpt>
      <trkpt lat="45.21561" lon="5.56085">
        <ele>1304.17</ele>
        <time>2021-05-23T14:18:47Z</time>
      </trkpt>
      <trkpt lat="45.21585" lon="5.56003">
        <ele>1305.61</ele>
        <time>2021-05-23T14:19:02Z</time>
      </trkpt>
      <trkpt lat="45.21589" lon="5.56001">
        <ele>1305.13</ele>
        <time>2021-05-23T14:19:03Z</time>
      </trkpt>
      <trkpt lat="45.21357" lon="5.56009">
        <ele>1300.1</ele>
      </trkpt>
      <trkpt lat="45.2133" lon="5.55995">
        <ele>1294.07</ele>
        <time>2018-06-30T08:14:49Z</time>
      </trkpt>
      <trkpt lat="45.21332" lon="5.55994">
        <ele>1294.07</ele>
        <time>2018-06-30T08:14:50Z</time>
      </trkpt>
      <trkpt lat="45.21348" lon="5.55981">
        <ele>1295.03</ele>
        <time>2018-06-30T08:14:59Z</time>
      </trkpt>
      <trkpt lat="45.21348" lon="5.55979">
        <ele>1295.03</ele>
        <time>2018-06-30T08:15:00Z</time>
      </trkpt>
      <trkpt lat="45.2135" lon="5.55978">
        <ele>1295.03</ele>
        <time>2018-06-30T08:15:01Z</time>
      </trkpt>
      <trkpt lat="45.21351" lon="5.55976">
        <ele>1295.03</ele>
        <time>2018-06-30T08:15:02Z</time>
      </trkpt>
      <trkpt lat="45.21351" lon="5.55974">
        <ele>1295.03</ele>
        <time>2018-06-30T08:15:03Z</time>
      </trkpt>
      <trkpt lat="45.21369" lon="5.55954">
        <ele>1296.48</ele>
        <time>2018-06-30T08:15:17Z</time>
      </trkpt>
      <trkpt lat="45.21382" lon="5.55937">
        <ele>1299.36</ele>
        <time>2018-06-30T08:15:26Z</time>
      </trkpt>
      <trkpt lat="45.21382" lon="5.55935">
        <ele>1299.36</ele>
        <time>2018-06-30T08:15:27Z</time>
      </trkpt>
      <trkpt lat="45.21381" lon="5.55933">
        <ele>1299.84</ele>
        <time>2018-06-30T08:15:28Z</time>
      </trkpt>
      <trkpt lat="45.21382" lon="5.5593">
        <ele>1299.84</ele>
        <time>2018-06-30T08:15:29Z</time>
      </trkpt>
      <trkpt lat="45.21382" lon="5.55928">
        <ele>1299.84</ele>
        <time>2018-06-30T08:15:30Z</time>
      </trkpt>
      <trkpt lat="45.21386" lon="5.55917">
        <ele>1300.32</ele>
        <time>2018-06-30T08:15:35Z</time>
      </trkpt>
      <trkpt lat="45.21387" lon="5.55924">
        <ele>1300.32</ele>
        <time>2018-06-30T08:15:41Z</time>
      </trkpt>
      <trkpt lat="45.21384" lon="5.55924">
        <ele>1300.32</ele>
        <time>2018-06-30T08:15:43Z</time>
      </trkpt>
      <trkpt lat="45.21386" lon="5.55915">
        <ele>1300.32</ele>
        <time>2018-06-30T08:15:49Z</time>
      </trkpt>
      <trkpt lat="45.21401" lon="5.55915">
        <ele>1300.32</ele>
        <time>2018-06-30T08:15:56Z</time>
      </trkpt>
      <trkpt lat="45.21433" lon="5.55902">
        <ele>1300.32</ele>
        <time>2018-06-30T08:16:10Z</time>
      </trkpt>
      <trkpt lat="45.2146" lon="5.55898">
        <ele>1299.84</ele>
        <time>2018-06-30T08:16:20Z</time>
      </trkpt>
      <trkpt lat="45.21489" lon="5.55868">
        <ele>1300.32</ele>
        <time>2018-06-30T08:16:30Z</time>
      </trkpt>
      <trkpt lat="45.21513" lon="5.55842">
        <ele>1303.2</ele>
        <time>2018-06-30T08:16:44Z</time>
      </trkpt>
      <trkpt lat="45.21533" lon="5.55813">
        <ele>1306.57</ele>
        <time>2018-06-30T08:17:00Z</time>
      </trkpt>
      <trkpt lat="45.21549" lon="5.55788">
        <ele>1309.93</ele>
        <time>2018-06-30T08:17:15Z</time>
      </trkpt>
      <trkpt lat="45.21563" lon="5.55769">
        <ele>1312.34</ele>
        <time>2018-06-30T08:17:30Z</time>
      </trkpt>
      <trkpt lat="45.21567" lon="5.55745">
        <ele>1314.26</ele>
        <time>2018-06-30T08:17:44Z</time>
      </trkpt>
      <trkpt lat="45.21571" lon="5.55719">
        <ele>1316.18</ele>
        <time>2018-06-30T08:17:58Z</time>
      </trkpt>
      <trkpt lat="45.21572" lon="5.55697">
        <ele>1318.1</ele>
        <time>2018-06-30T08:18:10Z</time>
      </trkpt>
      <trkpt lat="45.21571" lon="5.5567">
        <ele>1320.03</ele>
        <time>2018-06-30T08:18:26Z</time>
      </trkpt>
      <trkpt lat="45.21572" lon="5.55646">
        <ele>1322.91</ele>
        <time>2018-06-30T08:18:38Z</time>
      </trkpt>
      <trkpt lat="45.21572" lon="5.55638">
        <ele>1323.87</ele>
        <time>2018-06-30T08:18:42Z</time>
      </trkpt>
      <trkpt lat="45.2157" lon="5.55629">
        <ele>1325.31</ele>
        <time>2018-06-30T08:18:50Z</time>
      </trkpt>
      <trkpt lat="45.2157" lon="5.55618">
        <ele>1326.76</ele>
        <time>2018-06-30T08:18:57Z</time>
      </trkpt>
      <trkpt lat="45.21566" lon="5.55614">
        <ele>1327.24</ele>
        <time>2018-06-30T08:19:02Z</time>
      </trkpt>
      <trkpt lat="45.21565" lon="5.55606">
        <ele>1327.72</ele>
        <time>2018-06-30T08:19:07Z</time>
      </trkpt>
      <trkpt lat="45.21557" lon="5.55589">
        <ele>1331.08</ele>
        <time>2018-06-30T08:19:20Z</time>
      </trkpt>
      <trkpt lat="45.21555" lon="5.55586">
        <ele>1331.56</ele>
        <time>2018-06-30T08:19:22Z</time>
      </trkpt>
      <trkpt lat="45.21548" lon="5.55566">
        <ele>1334.45</ele>
        <time>2018-06-30T08:19:36Z</time>
      </trkpt>
      <trkpt lat="45.21549" lon="5.55556">
        <ele>1336.37</ele>
        <time>2018-06-30T08:19:49Z</time>
      </trkpt>
      <trkpt lat="45.21547" lon="5.55558">
        <ele>1336.85</ele>
        <time>2018-06-30T08:20:07Z</time>
      </trkpt>
      <trkpt lat="45.21547" lon="5.55553">
        <ele>1337.81</ele>
        <time>2018-06-30T08:20:33Z</time>
      </trkpt>
      <trkpt lat="45.21548" lon="5.55552">
        <ele>1337.81</ele>
        <time>2018-06-30T08:20:39Z</time>
      </trkpt>
      <trkpt lat="45.21548" lon="5.55566">
        <ele>1334.45</ele>
        <time>2018-06-30T08:20:46Z</time>
      </trkpt>
      <trkpt lat="45.21549" lon="5.55569">
        <ele>1334.45</ele>
        <time>2018-06-30T08:20:47Z</time>
      </trkpt>
      <trkpt lat="45.21553" lon="5.55583">
        <ele>1332.04</ele>
        <time>2018-06-30T08:20:50Z</time>
      </trkpt>
      <trkpt lat="45.21562" lon="5.55607">
        <ele>1328.2</ele>
        <time>2018-06-30T08:20:54Z</time>
      </trkpt>
      <trkpt lat="45.21565" lon="5.55613">
        <ele>1327.24</ele>
        <time>2018-06-30T08:20:56Z</time>
      </trkpt>
      <trkpt lat="45.21568" lon="5.55613">
        <ele>1326.76</ele>
        <time>2018-06-30T08:20:58Z</time>
      </trkpt>
      <trkpt lat="45.21569" lon="5.55613">
        <ele>1327.24</ele>
        <time>2018-06-30T08:20:59Z</time>
      </trkpt>
      <trkpt lat="45.2157" lon="5.55611">
        <ele>1326.76</ele>
        <time>2018-06-30T08:21:00Z</time>
      </trkpt>
      <trkpt lat="45.2157" lon="5.5561">
        <ele>1326.76</ele>
        <time>2018-06-30T08:21:01Z</time>
      </trkpt>
      <trkpt lat="45.2157" lon="5.55609">
        <ele>1327.24</ele>
        <time>2018-06-30T08:21:02Z</time>
      </trkpt>
      <trkpt lat="45.21571" lon="5.55608">
        <ele>1326.76</ele>
        <time>2018-06-30T08:21:03Z</time>
      </trkpt>
      <trkpt lat="45.21571" lon="5.55607">
        <ele>1326.76</ele>
        <time>2018-06-30T08:21:04Z</time>
      </trkpt>
      <trkpt lat="45.21572" lon="5.55605">
        <ele>1326.76</ele>
        <time>2018-06-30T08:21:05Z</time>
      </trkpt>
      <trkpt lat="45.21572" lon="5.55601">
        <ele>1328.2</ele>
        <time>2018-06-30T08:21:07Z</time>
      </trkpt>
      <trkpt lat="45.2158" lon="5.5558">
        <ele>1331.56</ele>
        <time>2018-06-30T08:21:17Z</time>
      </trkpt>
      <trkpt lat="45.21587" lon="5.5556">
        <ele>1334.45</ele>
        <time>2018-06-30T08:21:30Z</time>
      </trkpt>
      <trkpt lat="45.21593" lon="5.55543">
        <ele>1337.81</ele>
        <time>2018-06-30T08:21:41Z</time>
      </trkpt>
      <trkpt lat="45.21602" lon="5.55526">
        <ele>1341.18</ele>
        <time>2018-06-30T08:21:52Z</time>
      </trkpt>
      <trkpt lat="45.21613" lon="5.55507">
        <ele>1345.02</ele>
        <time>2018-06-30T08:22:05Z</time>
      </trkpt>
      <trkpt lat="45.2162" lon="5.55494">
        <ele>1346.46</ele>
        <time>2018-06-30T08:22:16Z</time>
      </trkpt>
      <trkpt lat="45.21627" lon="5.55483">
        <ele>1346.94</ele>
        <time>2018-06-30T08:22:23Z</time>
      </trkpt>
      <trkpt lat="45.21627" lon="5.55481">
        <ele>1346.94</ele>
        <time>2018-06-30T08:22:24Z</time>
      </trkpt>
      <trkpt lat="45.21628" lon="5.55479">
        <ele>1346.94</ele>
        <time>2018-06-30T08:22:25Z</time>
      </trkpt>
      <trkpt lat="45.21629" lon="5.55478">
        <ele>1346.94</ele>
        <time>2018-06-30T08:22:26Z</time>
      </trkpt>
      <trkpt lat="45.2163" lon="5.55476">
        <ele>1347.43</ele>
        <time>2018-06-30T08:22:27Z</time>
      </trkpt>
      <trkpt lat="45.21637" lon="5.55446">
        <ele>1351.27</ele>
        <time>2018-06-30T08:22:42Z</time>
      </trkpt>
      <trkpt lat="45.21639" lon="5.5544">
        <ele>1351.75</ele>
        <time>2018-06-30T08:22:45Z</time>
      </trkpt>
      <trkpt lat="45.2164" lon="5.55438">
        <ele>1352.71</ele>
        <time>2018-06-30T08:22:46Z</time>
      </trkpt>
      <trkpt lat="45.2164" lon="5.55436">
        <ele>1352.71</ele>
        <time>2018-06-30T08:22:47Z</time>
      </trkpt>
      <trkpt lat="45.21641" lon="5.55434">
        <ele>1353.19</ele>
        <time>2018-06-30T08:22:48Z</time>
      </trkpt>
      <trkpt lat="45.21642" lon="5.55433">
        <ele>1353.19</ele>
        <time>2018-06-30T08:22:49Z</time>
      </trkpt>
      <trkpt lat="45.21643" lon="5.55431">
        <ele>1353.67</ele>
        <time>2018-06-30T08:22:50Z</time>
      </trkpt>
      <trkpt lat="45.21644" lon="5.5543">
        <ele>1353.67</ele>
        <time>2018-06-30T08:22:51Z</time>
      </trkpt>
      <trkpt lat="45.21645" lon="5.55429">
        <ele>1354.15</ele>
        <time>2018-06-30T08:22:52Z</time>
      </trkpt>
      <trkpt lat="45.21655" lon="5.55418">
        <ele>1357.04</ele>
        <time>2018-06-30T08:23:05Z</time>
      </trkpt>
      <trkpt lat="45.21658" lon="5.55417">
        <ele>1357.52</ele>
        <time>2018-06-30T08:23:16Z</time>
      </trkpt>
      <trkpt lat="45.21659" lon="5.55416">
        <ele>1357.52</ele>
        <time>2018-06-30T08:23:28Z</time>
      </trkpt>
      <trkpt lat="45.21659" lon="5.55416">
        <ele>1357.52</ele>
        <time>2018-06-30T08:23:55Z</time>
      </trkpt>
      <trkpt lat="45.21658" lon="5.55415">
        <ele>1357.52</ele>
        <time>2018-06-30T08:24:10Z</time>
      </trkpt>
      <trkpt lat="45.21657" lon="5.55415">
        <ele>1357.52</ele>
        <time>2018-06-30T08:24:11Z</time>
      </trkpt>
      <trkpt lat="45.21656" lon="5.55415">
        <ele>1357.52</ele>
        <time>2018-06-30T08:24:12Z</time>
      </trkpt>
      <trkpt lat="45.21654" lon="5.55415">
        <ele>1357.52</ele>
        <time>2018-06-30T08:24:13Z</time>
      </trkpt>
      <trkpt lat="45.21648" lon="5.55416">
        <ele>1358.96</ele>
        <time>2018-06-30T08:24:19Z</time>
      </trkpt>
      <trkpt lat="45.21646" lon="5.55416">
        <ele>1358.96</ele>
        <time>2018-06-30T08:24:20Z</time>
      </trkpt>
      <trkpt lat="45.21644" lon="5.55416">
        <ele>1359.92</ele>
        <time>2018-06-30T08:24:21Z</time>
      </trkpt>
      <trkpt lat="45.21626" lon="5.55415">
        <ele>1362.33</ele>
        <time>2018-06-30T08:24:34Z</time>
      </trkpt>
      <trkpt lat="45.21611" lon="5.55418">
        <ele>1363.29</ele>
        <time>2018-06-30T08:24:47Z</time>
      </trkpt>
      <trkpt lat="45.21607" lon="5.5542">
        <ele>1363.29</ele>
        <time>2018-06-30T08:24:53Z</time>
      </trkpt>
      <trkpt lat="45.21606" lon="5.55422">
        <ele>1363.29</ele>
        <time>2018-06-30T08:24:54Z</time>
      </trkpt>
      <trkpt lat="45.21604" lon="5.55423">
        <ele>1363.77</ele>
        <time>2018-06-30T08:24:55Z</time>
      </trkpt>
      <trkpt lat="45.21584" lon="5.55435">
        <ele>1363.77</ele>
        <time>2018-06-30T08:25:05Z</time>
      </trkpt>
      <trkpt lat="45.21582" lon="5.55434">
        <ele>1363.77</ele>
        <time>2018-06-30T08:25:06Z</time>
      </trkpt>
      <trkpt lat="45.2158" lon="5.55434">
        <ele>1363.77</ele>
        <time>2018-06-30T08:25:07Z</time>
      </trkpt>
      <trkpt lat="45.21578" lon="5.55434">
        <ele>1363.77</ele>
        <time>2018-06-30T08:25:08Z</time>
      </trkpt>
      <trkpt lat="45.21576" lon="5.55434">
        <ele>1363.77</ele>
        <time>2018-06-30T08:25:09Z</time>
      </trkpt>
      <trkpt lat="45.21574" lon="5.55434">
        <ele>1363.77</ele>
        <time>2018-06-30T08:25:10Z</time>
      </trkpt>
      <trkpt lat="45.21565" lon="5.55435">
        <ele>1362.33</ele>
        <time>2018-06-30T08:25:13Z</time>
      </trkpt>
      <trkpt lat="45.21563" lon="5.55435">
        <ele>1362.33</ele>
        <time>2018-06-30T08:25:14Z</time>
      </trkpt>
      <trkpt lat="45.21556" lon="5.55433">
        <ele>1362.33</ele>
        <time>2018-06-30T08:25:16Z</time>
      </trkpt>
      <trkpt lat="45.21552" lon="5.55434">
        <ele>1362.33</ele>
        <time>2018-06-30T08:25:17Z</time>
      </trkpt>
      <trkpt lat="45.21549" lon="5.55434">
        <ele>1362.33</ele>
        <time>2018-06-30T08:25:18Z</time>
      </trkpt>
      <trkpt lat="45.21546" lon="5.55435">
        <ele>1362.33</ele>
        <time>2018-06-30T08:25:19Z</time>
      </trkpt>
      <trkpt lat="45.21543" lon="5.55434">
        <ele>1362.33</ele>
        <time>2018-06-30T08:25:20Z</time>
      </trkpt>
      <trkpt lat="45.21541" lon="5.55435">
        <ele>1362.33</ele>
        <time>2018-06-30T08:25:21Z</time>
      </trkpt>
      <trkpt lat="45.21538" lon="5.55436">
        <ele>1362.33</ele>
        <time>2018-06-30T08:25:22Z</time>
      </trkpt>
      <trkpt lat="45.21534" lon="5.55437">
        <ele>1362.33</ele>
        <time>2018-06-30T08:25:23Z</time>
      </trkpt>
      <trkpt lat="45.2153" lon="5.55438">
        <ele>1362.33</ele>
        <time>2018-06-30T08:25:24Z</time>
      </trkpt>
      <trkpt lat="45.21528" lon="5.55438">
        <ele>1362.33</ele>
        <time>2018-06-30T08:25:25Z</time>
      </trkpt>
      <trkpt lat="45.21524" lon="5.55439">
        <ele>1362.33</ele>
        <time>2018-06-30T08:25:26Z</time>
      </trkpt>
      <trkpt lat="45.21521" lon="5.5544">
        <ele>1361.84</ele>
        <time>2018-06-30T08:25:27Z</time>
      </trkpt>
      <trkpt lat="45.21519" lon="5.55441">
        <ele>1361.84</ele>
        <time>2018-06-30T08:25:28Z</time>
      </trkpt>
      <trkpt lat="45.21516" lon="5.55441">
        <ele>1361.36</ele>
        <time>2018-06-30T08:25:29Z</time>
      </trkpt>
      <trkpt lat="45.21513" lon="5.55441">
        <ele>1361.36</ele>
        <time>2018-06-30T08:25:30Z</time>
      </trkpt>
      <trkpt lat="45.2151" lon="5.5544">
        <ele>1361.36</ele>
        <time>2018-06-30T08:25:31Z</time>
      </trkpt>
      <trkpt lat="45.21508" lon="5.55439">
        <ele>1361.36</ele>
        <time>2018-06-30T08:25:32Z</time>
      </trkpt>
      <trkpt lat="45.215" lon="5.55436">
        <ele>1361.36</ele>
        <time>2018-06-30T08:25:37Z</time>
      </trkpt>
      <trkpt lat="45.21497" lon="5.55434">
        <ele>1361.36</ele>
        <time>2018-06-30T08:25:38Z</time>
      </trkpt>
      <trkpt lat="45.21495" lon="5.55433">
        <ele>1361.36</ele>
        <time>2018-06-30T08:25:39Z</time>
      </trkpt>
      <trkpt lat="45.21493" lon="5.55432">
        <ele>1361.36</ele>
        <time>2018-06-30T08:25:40Z</time>
      </trkpt>
      <trkpt lat="45.21491" lon="5.55431">
        <ele>1361.36</ele>
        <time>2018-06-30T08:25:41Z</time>
      </trkpt>
      <trkpt lat="45.21488" lon="5.55428">
        <ele>1361.36</ele>
        <time>2018-06-30T08:25:42Z</time>
      </trkpt>
      <trkpt lat="45.21486" lon="5.55427">
        <ele>1361.36</ele>
        <time>2018-06-30T08:25:43Z</time>
      </trkpt>
      <trkpt lat="45.21483" lon="5.55425">
        <ele>1361.36</ele>
        <time>2018-06-30T08:25:44Z</time>
      </trkpt>
      <trkpt lat="45.21474" lon="5.55422">
        <ele>1360.88</ele>
        <time>2018-06-30T08:25:47Z</time>
      </trkpt>
      <trkpt lat="45.21469" lon="5.55421">
        <ele>1360.4</ele>
        <time>2018-06-30T08:25:48Z</time>
      </trkpt>
      <trkpt lat="45.21456" lon="5.55417">
        <ele>1359.44</ele>
        <time>2018-06-30T08:25:51Z</time>
      </trkpt>
      <trkpt lat="45.21438" lon="5.55415">
        <ele>1357.52</ele>
        <time>2018-06-30T08:25:54Z</time>
      </trkpt>
      <trkpt lat="45.21401" lon="5.55416">
        <ele>1354.63</ele>
        <time>2018-06-30T08:25:59Z</time>
      </trkpt>
      <trkpt lat="45.2138" lon="5.55417">
        <ele>1353.67</ele>
        <time>2018-06-30T08:26:02Z</time>
      </trkpt>
      <trkpt lat="45.21343" lon="5.55408">
        <ele>1351.75</ele>
        <time>2018-06-30T08:26:07Z</time>
      </trkpt>
      <trkpt lat="45.21297" lon="5.55399">
        <ele>1350.79</ele>
        <time>2018-06-30T08:26:14Z</time>
      </trkpt>
      <trkpt lat="45.21282" lon="5.55397">
        <ele>1350.79</ele>
        <time>2018-06-30T08:26:17Z</time>
      </trkpt>
      <trkpt lat="45.21258" lon="5.55397">
        <ele>1349.35</ele>
        <time>2018-06-30T08:26:21Z</time>
      </trkpt>
      <trkpt lat="45.21231" lon="5.55394">
        <ele>1348.87</ele>
        <time>2018-06-30T08:26:26Z</time>
      </trkpt>
      <trkpt lat="45.21203" lon="5.55391">
        <ele>1348.87</ele>
        <time>2018-06-30T08:26:32Z</time>
      </trkpt>
      <trkpt lat="45.2116" lon="5.55375">
        <ele>1350.31</ele>
        <time>2018-06-30T08:26:43Z</time>
      </trkpt>
      <trkpt lat="45.21157" lon="5.55374">
        <ele>1350.31</ele>
        <time>2018-06-30T08:26:44Z</time>
      </trkpt>
      <trkpt lat="45.21137" lon="5.55366">
        <ele>1351.75</ele>
        <time>2018-06-30T08:26:51Z</time>
      </trkpt>
      <trkpt lat="45.21127" lon="5.55366">
        <ele>1352.23</ele>
        <time>2018-06-30T08:26:55Z</time>
      </trkpt>
      <trkpt lat="45.21117" lon="5.55365">
        <ele>1352.23</ele>
        <time>2018-06-30T08:27:04Z</time>
      </trkpt>
      <trkpt lat="45.21104" lon="5.55368">
        <ele>1350.79</ele>
        <time>2018-06-30T08:27:09Z</time>
      </trkpt>
      <trkpt lat="45.21078" lon="5.55369">
        <ele>1350.79</ele>
        <time>2018-06-30T08:27:14Z</time>
      </trkpt>
      <trkpt lat="45.21059" lon="5.55369">
        <ele>1352.23</ele>
        <time>2018-06-30T08:27:18Z</time>
      </trkpt>
      <trkpt lat="45.2102" lon="5.55366">
        <ele>1353.67</ele>
        <time>2018-06-30T08:27:30Z</time>
      </trkpt>
      <trkpt lat="45.21007" lon="5.55369">
        <ele>1351.27</ele>
        <time>2018-06-30T08:27:33Z</time>
      </trkpt>
      <trkpt lat="45.20997" lon="5.5537">
        <ele>1350.79</ele>
        <time>2018-06-30T08:27:35Z</time>
      </trkpt>
      <trkpt lat="45.20968" lon="5.55369">
        <ele>1346.94</ele>
        <time>2018-06-30T08:27:40Z</time>
      </trkpt>
      <trkpt lat="45.20931" lon="5.55368">
        <ele>1342.62</ele>
        <time>2018-06-30T08:27:45Z</time>
      </trkpt>
      <trkpt lat="45.20906" lon="5.55378">
        <ele>1338.29</ele>
        <time>2018-06-30T08:27:48Z</time>
      </trkpt>
      <trkpt lat="45.20893" lon="5.55385">
        <ele>1337.81</ele>
        <time>2018-06-30T08:27:50Z</time>
      </trkpt>
      <trkpt lat="45.20863" lon="5.55401">
        <ele>1334.45</ele>
        <time>2018-06-30T08:27:55Z</time>
      </trkpt>
      <trkpt lat="45.20843" lon="5.55408">
        <ele>1333.49</ele>
        <time>2018-06-30T08:27:58Z</time>
      </trkpt>
      <trkpt lat="45.20814" lon="5.55424">
        <ele>1330.6</ele>
        <time>2018-06-30T08:28:02Z</time>
      </trkpt>
      <trkpt lat="45.2079" lon="5.55429">
        <ele>1329.64</ele>
        <time>2018-06-30T08:28:05Z</time>
      </trkpt>
      <trkpt lat="45.20759" lon="5.55432">
        <ele>1326.76</ele>
        <time>2018-06-30T08:28:09Z</time>
      </trkpt>
      <trkpt lat="45.20741" lon="5.5543">
        <ele>1325.31</ele>
        <time>2018-06-30T08:28:12Z</time>
      </trkpt>
      <trkpt lat="45.20718" lon="5.55433">
        <ele>1320.99</ele>
        <time>2018-06-30T08:28:16Z</time>
      </trkpt>
      <trkpt lat="45.20712" lon="5.55434">
        <ele>1320.51</ele>
        <time>2018-06-30T08:28:17Z</time>
      </trkpt>
      <trkpt lat="45.20678" lon="5.5545">
        <ele>1319.55</ele>
        <time>2018-06-30T08:28:22Z</time>
      </trkpt>
      <trkpt lat="45.20638" lon="5.55476">
        <ele>1319.55</ele>
        <time>2018-06-30T08:28:32Z</time>
      </trkpt>
      <trkpt lat="45.20625" lon="5.55478">
        <ele>1317.62</ele>
        <time>2018-06-30T08:28:35Z</time>
      </trkpt>
      <trkpt lat="45.20591" lon="5.5549">
        <ele>1313.3</ele>
        <time>2018-06-30T08:28:40Z</time>
      </trkpt>
      <trkpt lat="45.20564" lon="5.5551">
        <ele>1309.45</ele>
        <time>2018-06-30T08:28:44Z</time>
      </trkpt>
      <trkpt lat="45.20547" lon="5.55531">
        <ele>1308.01</ele>
        <time>2018-06-30T08:28:47Z</time>
      </trkpt>
      <trkpt lat="45.20525" lon="5.55544">
        <ele>1308.01</ele>
        <time>2018-06-30T08:28:50Z</time>
      </trkpt>
      <trkpt lat="45.20506" lon="5.55554">
        <ele>1307.05</ele>
        <time>2018-06-30T08:28:53Z</time>
      </trkpt>
      <trkpt lat="45.20484" lon="5.55564">
        <ele>1306.57</ele>
        <time>2018-06-30T08:29:01Z</time>
      </trkpt>
      <trkpt lat="45.20482" lon="5.55562">
        <ele>1306.57</ele>
        <time>2018-06-30T08:29:19Z</time>
      </trkpt>
      <trkpt lat="45.20483" lon="5.55562">
        <ele>1306.09</ele>
        <time>2018-06-30T08:29:30Z</time>
      </trkpt>
      <trkpt lat="45.20485" lon="5.55554">
        <ele>1306.09</ele>
        <time>2018-06-30T08:29:35Z</time>
      </trkpt>
      <trkpt lat="45.20485" lon="5.55551">
        <ele>1307.53</ele>
        <time>2018-06-30T08:29:37Z</time>
      </trkpt>
      <trkpt lat="45.20488" lon="5.55531">
        <ele>1310.41</ele>
        <time>2018-06-30T08:29:49Z</time>
      </trkpt>
      <trkpt lat="45.2049" lon="5.55522">
        <ele>1311.38</ele>
        <time>2018-06-30T08:29:53Z</time>
      </trkpt>
      <trkpt lat="45.20488" lon="5.55516">
        <ele>1312.82</ele>
        <time>2018-06-30T08:29:57Z</time>
      </trkpt>
      <trkpt lat="45.20482" lon="5.55505">
        <ele>1314.26</ele>
        <time>2018-06-30T08:30:03Z</time>
      </trkpt>
      <trkpt lat="45.20468" lon="5.55498">
        <ele>1314.74</ele>
        <time>2018-06-30T08:30:16Z</time>
      </trkpt>
      <trkpt lat="45.2046" lon="5.55487">
        <ele>1315.22</ele>
        <time>2018-06-30T08:30:24Z</time>
      </trkpt>
      <trkpt lat="45.20457" lon="5.55482">
        <ele>1315.22</ele>
        <time>2018-06-30T08:30:27Z</time>
      </trkpt>
      <trkpt lat="45.20455" lon="5.55473">
        <ele>1316.66</ele>
        <time>2018-06-30T08:30:31Z</time>
      </trkpt>
      <trkpt lat="45.20454" lon="5.55471">
        <ele>1317.62</ele>
        <time>2018-06-30T08:30:32Z</time>
      </trkpt>
      <trkpt lat="45.20448" lon="5.55458">
        <ele>1318.1</ele>
        <time>2018-06-30T08:30:39Z</time>
      </trkpt>
      <trkpt lat="45.20448" lon="5.55454">
        <ele>1318.1</ele>
        <time>2018-06-30T08:30:42Z</time>
      </trkpt>
      <trkpt lat="45.20437" lon="5.55441">
        <ele>1317.62</ele>
        <time>2018-06-30T08:30:50Z</time>
      </trkpt>
      <trkpt lat="45.20427" lon="5.55424">
        <ele>1314.74</ele>
        <time>2018-06-30T08:30:56Z</time>
      </trkpt>
      <trkpt lat="45.2041" lon="5.55388">
        <ele>1312.82</ele>
        <time>2018-06-30T08:31:04Z</time>
      </trkpt>
      <trkpt lat="45.20387" lon="5.55372">
        <ele>1312.34</ele>
        <time>2018-06-30T08:31:10Z</time>
      </trkpt>
      <trkpt lat="45.20375" lon="5.55372">
        <ele>1312.34</ele>
        <time>2018-06-30T08:31:15Z</time>
      </trkpt>
      <trkpt lat="45.20369" lon="5.55369">
        <ele>1313.78</ele>
        <time>2018-06-30T08:31:19Z</time>
      </trkpt>
      <trkpt lat="45.20364" lon="5.55368">
        <ele>1313.78</ele>
        <time>2018-06-30T08:31:21Z</time>
      </trkpt>
      <trkpt lat="45.20347" lon="5.55362">
        <ele>1313.78</ele>
        <time>2018-06-30T08:31:29Z</time>
      </trkpt>
      <trkpt lat="45.20343" lon="5.5536">
        <ele>1313.78</ele>
        <time>2018-06-30T08:31:31Z</time>
      </trkpt>
      <trkpt lat="45.20335" lon="5.55355">
        <ele>1313.78</ele>
        <time>2018-06-30T08:31:35Z</time>
      </trkpt>
      <trkpt lat="45.20332" lon="5.55351">
        <ele>1314.26</ele>
        <time>2018-06-30T08:31:37Z</time>
      </trkpt>
      <trkpt lat="45.20324" lon="5.55349">
        <ele>1314.74</ele>
        <time>2018-06-30T08:31:41Z</time>
      </trkpt>
      <trkpt lat="45.20301" lon="5.55352">
        <ele>1315.22</ele>
        <time>2018-06-30T08:31:55Z</time>
      </trkpt>
      <trkpt lat="45.20279" lon="5.55342">
        <ele>1317.14</ele>
        <time>2018-06-30T08:32:06Z</time>
      </trkpt>
      <trkpt lat="45.20276" lon="5.5534">
        <ele>1318.1</ele>
        <time>2018-06-30T08:32:08Z</time>
      </trkpt>
      <trkpt lat="45.20257" lon="5.55335">
        <ele>1318.1</ele>
        <time>2018-06-30T08:32:16Z</time>
      </trkpt>
      <trkpt lat="45.2023" lon="5.55319">
        <ele>1318.1</ele>
        <time>2018-06-30T08:32:29Z</time>
      </trkpt>
      <trkpt lat="45.20227" lon="5.55318">
        <ele>1318.1</ele>
        <time>2018-06-30T08:32:31Z</time>
      </trkpt>
      <trkpt lat="45.20199" lon="5.55309">
        <ele>1319.07</ele>
        <time>2018-06-30T08:32:42Z</time>
      </trkpt>
      <trkpt lat="45.20176" lon="5.55292">
        <ele>1317.14</ele>
        <time>2018-06-30T08:32:54Z</time>
      </trkpt>
      <trkpt lat="45.20174" lon="5.5529">
        <ele>1317.14</ele>
        <time>2018-06-30T08:32:55Z</time>
      </trkpt>
      <trkpt lat="45.20161" lon="5.55282">
        <ele>1316.66</ele>
        <time>2018-06-30T08:32:59Z</time>
      </trkpt>
      <trkpt lat="45.20144" lon="5.5526">
        <ele>1314.74</ele>
        <time>2018-06-30T08:33:11Z</time>
      </trkpt>
      <trkpt lat="45.20146" lon="5.55253">
        <ele>1314.26</ele>
        <time>2018-06-30T08:33:13Z</time>
      </trkpt>
      <trkpt lat="45.20149" lon="5.55245">
        <ele>1315.7</ele>
        <time>2018-06-30T08:33:16Z</time>
      </trkpt>
      <trkpt lat="45.20161" lon="5.55204">
        <ele>1317.62</ele>
        <time>2018-06-30T08:33:28Z</time>
      </trkpt>
      <trkpt lat="45.20168" lon="5.55166">
        <ele>1320.03</ele>
        <time>2018-06-30T08:33:40Z</time>
      </trkpt>
      <trkpt lat="45.20177" lon="5.55145">
        <ele>1322.91</ele>
        <time>2018-06-30T08:33:49Z</time>
      </trkpt>
      <trkpt lat="45.20177" lon="5.55105">
        <ele>1321.95</ele>
        <time>2018-06-30T08:34:00Z</time>
      </trkpt>
      <trkpt lat="45.20168" lon="5.55086">
        <ele>1323.39</ele>
        <time>2018-06-30T08:34:05Z</time>
      </trkpt>
      <trkpt lat="45.20146" lon="5.5508">
        <ele>1324.35</ele>
        <time>2018-06-30T08:34:14Z</time>
      </trkpt>
      <trkpt lat="45.20138" lon="5.55079">
        <ele>1322.91</ele>
        <time>2018-06-30T08:34:16Z</time>
      </trkpt>
      <trkpt lat="45.20124" lon="5.55071">
        <ele>1322.43</ele>
        <time>2018-06-30T08:34:19Z</time>
      </trkpt>
      <trkpt lat="45.20111" lon="5.5506">
        <ele>1321.95</ele>
        <time>2018-06-30T08:34:22Z</time>
      </trkpt>
      <trkpt lat="45.20092" lon="5.55017">
        <ele>1319.07</ele>
        <time>2018-06-30T08:34:30Z</time>
      </trkpt>
      <trkpt lat="45.2008" lon="5.55015">
        <ele>1318.59</ele>
        <time>2018-06-30T08:34:33Z</time>
      </trkpt>
      <trkpt lat="45.20076" lon="5.55015">
        <ele>1318.59</ele>
        <time>2018-06-30T08:34:35Z</time>
      </trkpt>
      <trkpt lat="45.20073" lon="5.55014">
        <ele>1318.1</ele>
        <time>2018-06-30T08:34:45Z</time>
      </trkpt>
      <trkpt lat="45.20073" lon="5.55015">
        <ele>1318.59</ele>
        <time>2018-06-30T08:35:01Z</time>
      </trkpt>
      <trkpt lat="45.20072" lon="5.55017">
        <ele>1318.59</ele>
        <time>2018-06-30T08:35:26Z</time>
      </trkpt>
      <trkpt lat="45.2007" lon="5.55019">
        <ele>1319.07</ele>
        <time>2018-06-30T08:35:56Z</time>
      </trkpt>
      <trkpt lat="45.20067" lon="5.5502">
        <ele>1319.07</ele>
        <time>2018-06-30T08:36:31Z</time>
      </trkpt>
      <trkpt lat="45.20069" lon="5.55017">
        <ele>1319.07</ele>
        <time>2018-06-30T08:36:51Z</time>
      </trkpt>
      <trkpt lat="45.20068" lon="5.55017">
        <ele>1319.55</ele>
        <time>2018-06-30T08:37:21Z</time>
      </trkpt>
      <trkpt lat="45.20065" lon="5.5502">
        <ele>1319.55</ele>
        <time>2018-06-30T08:37:53Z</time>
      </trkpt>
      <trkpt lat="45.20066" lon="5.55019">
        <ele>1320.03</ele>
        <time>2018-06-30T08:38:31Z</time>
      </trkpt>
      <trkpt lat="45.20067" lon="5.55017">
        <ele>1320.99</ele>
        <time>2018-06-30T08:39:13Z</time>
      </trkpt>
      <trkpt lat="45.20067" lon="5.55015">
        <ele>1320.99</ele>
        <time>2018-06-30T08:39:55Z</time>
      </trkpt>
      <trkpt lat="45.20065" lon="5.55017">
        <ele>1320.99</ele>
        <time>2018-06-30T08:40:02Z</time>
      </trkpt>
      <trkpt lat="45.2005" lon="5.55026">
        <ele>1319.55</ele>
        <time>2018-06-30T08:40:13Z</time>
      </trkpt>
      <trkpt lat="45.20048" lon="5.55027">
        <ele>1319.55</ele>
        <time>2018-06-30T08:40:21Z</time>
      </trkpt>
      <trkpt lat="45.20055" lon="5.55021">
        <ele>1319.55</ele>
        <time>2018-06-30T08:40:31Z</time>
      </trkpt>
      <trkpt lat="45.20061" lon="5.55016">
        <ele>1319.55</ele>
        <time>2018-06-30T08:40:35Z</time>
      </trkpt>
      <trkpt lat="45.20069" lon="5.55014">
        <ele>1319.55</ele>
        <time>2018-06-30T08:40:44Z</time>
      </trkpt>
      <trkpt lat="45.20068" lon="5.55011">
        <ele>1320.99</ele>
        <time>2018-06-30T08:40:48Z</time>
      </trkpt>
      <trkpt lat="45.20069" lon="5.55009">
        <ele>1320.99</ele>
        <time>2018-06-30T08:40:55Z</time>
      </trkpt>
      <trkpt lat="45.20075" lon="5.54997">
        <ele>1319.07</ele>
        <time>2018-06-30T08:40:59Z</time>
      </trkpt>
      <trkpt lat="45.20071" lon="5.54984">
        <ele>1320.51</ele>
        <time>2018-06-30T08:41:07Z</time>
      </trkpt>
      <trkpt lat="45.20068" lon="5.54977">
        <ele>1321.47</ele>
        <time>2018-06-30T08:41:14Z</time>
      </trkpt>
      <trkpt lat="45.20066" lon="5.54975">
        <ele>1322.43</ele>
        <time>2018-06-30T08:41:16Z</time>
      </trkpt>
      <trkpt lat="45.20065" lon="5.5497">
        <ele>1322.43</ele>
        <time>2018-06-30T08:41:19Z</time>
      </trkpt>
      <trkpt lat="45.20061" lon="5.54962">
        <ele>1320.99</ele>
        <time>2018-06-30T08:41:22Z</time>
      </trkpt>
      <trkpt lat="45.20065" lon="5.54953">
        <ele>1322.43</ele>
        <time>2018-06-30T08:41:30Z</time>
      </trkpt>
      <trkpt lat="45.20069" lon="5.54951">
        <ele>1323.39</ele>
        <time>2018-06-30T08:41:34Z</time>
      </trkpt>
      <trkpt lat="45.20073" lon="5.54927">
        <ele>1321.47</ele>
        <time>2018-06-30T08:41:41Z</time>
      </trkpt>
      <trkpt lat="45.20076" lon="5.54907">
        <ele>1321.47</ele>
        <time>2018-06-30T08:41:47Z</time>
      </trkpt>
      <trkpt lat="45.20077" lon="5.549">
        <ele>1322.91</ele>
        <time>2018-06-30T08:41:50Z</time>
      </trkpt>
      <trkpt lat="45.20076" lon="5.54895">
        <ele>1322.91</ele>
        <time>2018-06-30T08:41:52Z</time>
      </trkpt>
      <trkpt lat="45.20076" lon="5.54886">
        <ele>1322.91</ele>
        <time>2018-06-30T08:41:55Z</time>
      </trkpt>
      <trkpt lat="45.20071" lon="5.54865">
        <ele>1324.83</ele>
        <time>2018-06-30T08:42:06Z</time>
      </trkpt>
      <trkpt lat="45.2007" lon="5.54861">
        <ele>1325.8</ele>
        <time>2018-06-30T08:42:09Z</time>
      </trkpt>
      <trkpt lat="45.20059" lon="5.54837">
        <ele>1327.24</ele>
        <time>2018-06-30T08:42:22Z</time>
      </trkpt>
      <trkpt lat="45.20052" lon="5.54822">
        <ele>1329.64</ele>
        <time>2018-06-30T08:42:32Z</time>
      </trkpt>
      <trkpt lat="45.20051" lon="5.54819">
        <ele>1330.12</ele>
        <time>2018-06-30T08:42:34Z</time>
      </trkpt>
      <trkpt lat="45.20048" lon="5.54818">
        <ele>1330.12</ele>
        <time>2018-06-30T08:42:36Z</time>
      </trkpt>
      <trkpt lat="45.20041" lon="5.54806">
        <ele>1330.12</ele>
        <time>2018-06-30T08:42:42Z</time>
      </trkpt>
      <trkpt lat="45.20033" lon="5.5479">
        <ele>1331.56</ele>
        <time>2018-06-30T08:42:51Z</time>
      </trkpt>
      <trkpt lat="45.20032" lon="5.54786">
        <ele>1333.01</ele>
        <time>2018-06-30T08:42:54Z</time>
      </trkpt>
      <trkpt lat="45.20028" lon="5.54776">
        <ele>1333.97</ele>
        <time>2018-06-30T08:43:03Z</time>
      </trkpt>
      <trkpt lat="45.20025" lon="5.54766">
        <ele>1335.41</ele>
        <time>2018-06-30T08:43:09Z</time>
      </trkpt>
      <trkpt lat="45.2002" lon="5.54754">
        <ele>1333.97</ele>
        <time>2018-06-30T08:43:14Z</time>
      </trkpt>
      <trkpt lat="45.2001" lon="5.54744">
        <ele>1331.56</ele>
        <time>2018-06-30T08:43:21Z</time>
      </trkpt>
      <trkpt lat="45.19994" lon="5.5472">
        <ele>1330.12</ele>
        <time>2018-06-30T08:43:30Z</time>
      </trkpt>
      <trkpt lat="45.19993" lon="5.54718">
        <ele>1330.12</ele>
        <time>2018-06-30T08:43:31Z</time>
      </trkpt>
      <trkpt lat="45.19992" lon="5.54716">
        <ele>1330.12</ele>
        <time>2018-06-30T08:43:32Z</time>
      </trkpt>
      <trkpt lat="45.19968" lon="5.54701">
        <ele>1331.08</ele>
        <time>2018-06-30T08:43:44Z</time>
      </trkpt>
      <trkpt lat="45.19962" lon="5.547">
        <ele>1331.56</ele>
        <time>2018-06-30T08:43:47Z</time>
      </trkpt>
      <trkpt lat="45.19958" lon="5.54696">
        <ele>1331.56</ele>
        <time>2018-06-30T08:43:51Z</time>
      </trkpt>
      <trkpt lat="45.19942" lon="5.54693">
        <ele>1331.56</ele>
        <time>2018-06-30T08:43:59Z</time>
      </trkpt>
      <trkpt lat="45.19923" lon="5.54689">
        <ele>1330.12</ele>
        <time>2018-06-30T08:44:09Z</time>
      </trkpt>
      <trkpt lat="45.19905" lon="5.54679">
        <ele>1332.04</ele>
        <time>2018-06-30T08:44:20Z</time>
      </trkpt>
      <trkpt lat="45.19893" lon="5.54684">
        <ele>1333.49</ele>
        <time>2018-06-30T08:44:32Z</time>
      </trkpt>
      <trkpt lat="45.19888" lon="5.54678">
        <ele>1336.85</ele>
        <time>2018-06-30T08:44:41Z</time>
      </trkpt>
      <trkpt lat="45.19885" lon="5.54678">
        <ele>1337.81</ele>
        <time>2018-06-30T08:44:43Z</time>
      </trkpt>
      <trkpt lat="45.19869" lon="5.54685">
        <ele>1340.7</ele>
        <time>2018-06-30T08:44:55Z</time>
      </trkpt>
      <trkpt lat="45.19863" lon="5.54679">
        <ele>1342.62</ele>
        <time>2018-06-30T08:45:06Z</time>
      </trkpt>
      <trkpt lat="45.1986" lon="5.54674">
        <ele>1344.06</ele>
        <time>2018-06-30T08:45:20Z</time>
      </trkpt>
      <trkpt lat="45.19853" lon="5.5467">
        <ele>1345.98</ele>
        <time>2018-06-30T08:45:34Z</time>
      </trkpt>
      <trkpt lat="45.19845" lon="5.54664">
        <ele>1348.39</ele>
        <time>2018-06-30T08:45:50Z</time>
      </trkpt>
      <trkpt lat="45.19832" lon="5.54657">
        <ele>1350.79</ele>
        <time>2018-06-30T08:46:05Z</time>
      </trkpt>
      <trkpt lat="45.19831" lon="5.54657">
        <ele>1350.79</ele>
        <time>2018-06-30T08:46:06Z</time>
      </trkpt>
      <trkpt lat="45.1982" lon="5.54648">
        <ele>1352.71</ele>
        <time>2018-06-30T08:46:20Z</time>
      </trkpt>
      <trkpt lat="45.19818" lon="5.54645">
        <ele>1352.71</ele>
        <time>2018-06-30T08:46:37Z</time>
      </trkpt>
      <trkpt lat="45.19818" lon="5.54645">
        <ele>1352.23</ele>
        <time>2018-06-30T08:46:58Z</time>
      </trkpt>
      <trkpt lat="45.19821" lon="5.54644">
        <ele>1352.71</ele>
        <time>2018-06-30T08:47:25Z</time>
      </trkpt>
      <trkpt lat="45.1982" lon="5.54643">
        <ele>1352.71</ele>
        <time>2018-06-30T08:47:54Z</time>
      </trkpt>
      <trkpt lat="45.19815" lon="5.54642">
        <ele>1352.71</ele>
        <time>2018-06-30T08:47:57Z</time>
      </trkpt>
      <trkpt lat="45.19805" lon="5.54633">
        <ele>1352.71</ele>
        <time>2018-06-30T08:48:02Z</time>
      </trkpt>
      <trkpt lat="45.19798" lon="5.54618">
        <ele>1351.27</ele>
        <time>2018-06-30T08:48:07Z</time>
      </trkpt>
      <trkpt lat="45.19789" lon="5.54593">
        <ele>1349.83</ele>
        <time>2018-06-30T08:48:13Z</time>
      </trkpt>
      <trkpt lat="45.19782" lon="5.54582">
        <ele>1347.91</ele>
        <time>2018-06-30T08:48:18Z</time>
      </trkpt>
      <trkpt lat="45.19779" lon="5.54582">
        <ele>1346.94</ele>
        <time>2018-06-30T08:48:19Z</time>
      </trkpt>
      <trkpt lat="45.19776" lon="5.54582">
        <ele>1346.94</ele>
        <time>2018-06-30T08:48:20Z</time>
      </trkpt>
      <trkpt lat="45.19774" lon="5.54583">
        <ele>1346.94</ele>
        <time>2018-06-30T08:48:21Z</time>
      </trkpt>
      <trkpt lat="45.1975" lon="5.54588">
        <ele>1345.02</ele>
        <time>2018-06-30T08:48:30Z</time>
      </trkpt>
      <trkpt lat="45.19748" lon="5.54588">
        <ele>1344.54</ele>
        <time>2018-06-30T08:49:05Z</time>
      </trkpt>
      <trkpt lat="45.19748" lon="5.54592">
        <ele>1344.54</ele>
        <time>2018-06-30T08:49:41Z</time>
      </trkpt>
      <trkpt lat="45.19747" lon="5.54592">
        <ele>1344.54</ele>
        <time>2018-06-30T08:50:15Z</time>
      </trkpt>
      <trkpt lat="45.19746" lon="5.54587">
        <ele>1344.06</ele>
        <time>2018-06-30T08:50:46Z</time>
      </trkpt>
      <trkpt lat="45.19746" lon="5.54587">
        <ele>1344.06</ele>
        <time>2018-06-30T08:51:16Z</time>
      </trkpt>
      <trkpt lat="45.19743" lon="5.54592">
        <ele>1344.06</ele>
        <time>2018-06-30T08:51:49Z</time>
      </trkpt>
      <trkpt lat="45.19745" lon="5.5459">
        <ele>1344.06</ele>
        <time>2018-06-30T08:52:13Z</time>
      </trkpt>
      <trkpt lat="45.1975" lon="5.5459">
        <ele>1344.06</ele>
        <time>2018-06-30T08:52:43Z</time>
      </trkpt>
      <trkpt lat="45.19749" lon="5.54591">
        <ele>1344.06</ele>
        <time>2018-06-30T08:53:11Z</time>
      </trkpt>
      <trkpt lat="45.19749" lon="5.5459">
        <ele>1343.58</ele>
        <time>2018-06-30T08:53:42Z</time>
      </trkpt>
      <trkpt lat="45.19752" lon="5.54588">
        <ele>1343.58</ele>
        <time>2018-06-30T08:53:49Z</time>
      </trkpt>
      <trkpt lat="45.19765" lon="5.54584">
        <ele>1345.02</ele>
        <time>2018-06-30T08:53:57Z</time>
      </trkpt>
      <trkpt lat="45.19781" lon="5.54582">
        <ele>1345.98</ele>
        <time>2018-06-30T08:54:05Z</time>
      </trkpt>
      <trkpt lat="45.19783" lon="5.54583">
        <ele>1345.98</ele>
        <time>2018-06-30T08:54:06Z</time>
      </trkpt>
      <trkpt lat="45.19792" lon="5.54595">
        <ele>1348.87</ele>
        <time>2018-06-30T08:54:14Z</time>
      </trkpt>
      <trkpt lat="45.19793" lon="5.546">
        <ele>1348.87</ele>
        <time>2018-06-30T08:54:16Z</time>
      </trkpt>
      <trkpt lat="45.19799" lon="5.54611">
        <ele>1349.35</ele>
        <time>2018-06-30T08:54:22Z</time>
      </trkpt>
      <trkpt lat="45.1981" lon="5.54638">
        <ele>1350.79</ele>
        <time>2018-06-30T08:54:34Z</time>
      </trkpt>
      <trkpt lat="45.19821" lon="5.54643">
        <ele>1350.79</ele>
        <time>2018-06-30T08:54:45Z</time>
      </trkpt>
      <trkpt lat="45.19828" lon="5.54651">
        <ele>1350.79</ele>
        <time>2018-06-30T08:54:57Z</time>
      </trkpt>
      <trkpt lat="45.19842" lon="5.54667">
        <ele>1345.5</ele>
        <time>2018-06-30T08:55:02Z</time>
      </trkpt>
      <trkpt lat="45.19852" lon="5.54678">
        <ele>1341.66</ele>
        <time>2018-06-30T08:55:05Z</time>
      </trkpt>
      <trkpt lat="45.19867" lon="5.54673">
        <ele>1336.85</ele>
        <time>2018-06-30T08:55:10Z</time>
      </trkpt>
      <trkpt lat="45.19875" lon="5.54669">
        <ele>1335.41</ele>
        <time>2018-06-30T08:55:13Z</time>
      </trkpt>
      <trkpt lat="45.1988" lon="5.54673">
        <ele>1333.01</ele>
        <time>2018-06-30T08:55:17Z</time>
      </trkpt>
      <trkpt lat="45.19882" lon="5.54676">
        <ele>1332.04</ele>
        <time>2018-06-30T08:55:19Z</time>
      </trkpt>
      <trkpt lat="45.19888" lon="5.54675">
        <ele>1331.56</ele>
        <time>2018-06-30T08:55:21Z</time>
      </trkpt>
      <trkpt lat="45.19902" lon="5.54671">
        <ele>1330.12</ele>
        <time>2018-06-30T08:55:25Z</time>
      </trkpt>
      <trkpt lat="45.19913" lon="5.54675">
        <ele>1329.16</ele>
        <time>2018-06-30T08:55:28Z</time>
      </trkpt>
      <trkpt lat="45.19928" lon="5.54677">
        <ele>1329.16</ele>
        <time>2018-06-30T08:55:33Z</time>
      </trkpt>
      <trkpt lat="45.19933" lon="5.54676">
        <ele>1330.12</ele>
        <time>2018-06-30T08:55:35Z</time>
      </trkpt>
      <trkpt lat="45.19935" lon="5.54675">
        <ele>1330.12</ele>
        <time>2018-06-30T08:55:36Z</time>
      </trkpt>
      <trkpt lat="45.19943" lon="5.54679">
        <ele>1330.12</ele>
        <time>2018-06-30T08:55:41Z</time>
      </trkpt>
      <trkpt lat="45.19965" lon="5.54689">
        <ele>1330.12</ele>
        <time>2018-06-30T08:55:52Z</time>
      </trkpt>
      <trkpt lat="45.19982" lon="5.547">
        <ele>1330.12</ele>
        <time>2018-06-30T08:56:00Z</time>
      </trkpt>
      <trkpt lat="45.19986" lon="5.54706">
        <ele>1329.16</ele>
        <time>2018-06-30T08:56:02Z</time>
      </trkpt>
      <trkpt lat="45.19992" lon="5.54714">
        <ele>1328.2</ele>
        <time>2018-06-30T08:56:04Z</time>
      </trkpt>
      <trkpt lat="45.19997" lon="5.54719">
        <ele>1329.64</ele>
        <time>2018-06-30T08:56:06Z</time>
      </trkpt>
      <trkpt lat="45.20001" lon="5.54723">
        <ele>1330.12</ele>
        <time>2018-06-30T08:56:08Z</time>
      </trkpt>
      <trkpt lat="45.2001" lon="5.54736">
        <ele>1332.52</ele>
        <time>2018-06-30T08:56:19Z</time>
      </trkpt>
      <trkpt lat="45.20014" lon="5.54738">
        <ele>1333.01</ele>
        <time>2018-06-30T08:56:23Z</time>
      </trkpt>
      <trkpt lat="45.20026" lon="5.54744">
        <ele>1334.45</ele>
        <time>2018-06-30T08:56:36Z</time>
      </trkpt>
      <trkpt lat="45.20027" lon="5.54746">
        <ele>1334.93</ele>
        <time>2018-06-30T08:57:02Z</time>
      </trkpt>
      <trkpt lat="45.2003" lon="5.54752">
        <ele>1334.93</ele>
        <time>2018-06-30T08:57:23Z</time>
      </trkpt>
      <trkpt lat="45.20033" lon="5.5476">
        <ele>1333.49</ele>
        <time>2018-06-30T08:57:25Z</time>
      </trkpt>
      <trkpt lat="45.20041" lon="5.5478">
        <ele>1331.08</ele>
        <time>2018-06-30T08:57:30Z</time>
      </trkpt>
      <trkpt lat="45.20052" lon="5.54795">
        <ele>1329.64</ele>
        <time>2018-06-30T08:57:34Z</time>
      </trkpt>
      <trkpt lat="45.20059" lon="5.54814">
        <ele>1327.24</ele>
        <time>2018-06-30T08:57:38Z</time>
      </trkpt>
      <trkpt lat="45.20073" lon="5.54847">
        <ele>1323.39</ele>
        <time>2018-06-30T08:57:45Z</time>
      </trkpt>
      <trkpt lat="45.20074" lon="5.54851">
        <ele>1322.91</ele>
        <time>2018-06-30T08:57:46Z</time>
      </trkpt>
      <trkpt lat="45.20081" lon="5.54882">
        <ele>1321.47</ele>
        <time>2018-06-30T08:57:52Z</time>
      </trkpt>
      <trkpt lat="45.20081" lon="5.54889">
        <ele>1321.95</ele>
        <time>2018-06-30T08:57:54Z</time>
      </trkpt>
      <trkpt lat="45.2008" lon="5.54915">
        <ele>1321.47</ele>
        <time>2018-06-30T08:58:01Z</time>
      </trkpt>
      <trkpt lat="45.20074" lon="5.54938">
        <ele>1323.39</ele>
        <time>2018-06-30T08:58:08Z</time>
      </trkpt>
      <trkpt lat="45.20068" lon="5.54941">
        <ele>1321.95</ele>
        <time>2018-06-30T08:58:12Z</time>
      </trkpt>
      <trkpt lat="45.20068" lon="5.54949">
        <ele>1321.47</ele>
        <time>2018-06-30T08:58:19Z</time>
      </trkpt>
      <trkpt lat="45.2007" lon="5.54955">
        <ele>1322.43</ele>
        <time>2018-06-30T08:58:35Z</time>
      </trkpt>
      <trkpt lat="45.20071" lon="5.54957">
        <ele>1322.43</ele>
        <time>2018-06-30T08:58:37Z</time>
      </trkpt>
      <trkpt lat="45.20073" lon="5.54966">
        <ele>1320.99</ele>
        <time>2018-06-30T08:58:43Z</time>
      </trkpt>
      <trkpt lat="45.20071" lon="5.54972">
        <ele>1320.99</ele>
        <time>2018-06-30T08:58:57Z</time>
      </trkpt>
      <trkpt lat="45.20071" lon="5.54972">
        <ele>1320.99</ele>
        <time>2018-06-30T08:58:58Z</time>
      </trkpt>
      <trkpt lat="45.20065" lon="5.54976">
        <ele>1320.03</ele>
        <time>2018-06-30T08:59:03Z</time>
      </trkpt>
      <trkpt lat="45.20057" lon="5.54971">
        <ele>1319.07</ele>
        <time>2018-06-30T08:59:08Z</time>
      </trkpt>
      <trkpt lat="45.20052" lon="5.5496">
        <ele>1318.59</ele>
        <time>2018-06-30T08:59:14Z</time>
      </trkpt>
      <trkpt lat="45.20041" lon="5.54964">
        <ele>1318.59</ele>
        <time>2018-06-30T08:59:24Z</time>
      </trkpt>
      <trkpt lat="45.20025" lon="5.54964">
        <ele>1317.14</ele>
        <time>2018-06-30T08:59:31Z</time>
      </trkpt>
      <trkpt lat="45.20016" lon="5.54971">
        <ele>1312.34</ele>
        <time>2018-06-30T08:59:39Z</time>
      </trkpt>
      <trkpt lat="45.20011" lon="5.5497">
        <ele>1311.86</ele>
        <time>2018-06-30T08:59:41Z</time>
      </trkpt>
      <trkpt lat="45.19997" lon="5.54968">
        <ele>1310.41</ele>
        <time>2018-06-30T08:59:46Z</time>
      </trkpt>
      <trkpt lat="45.19993" lon="5.54972">
        <ele>1310.41</ele>
        <time>2018-06-30T08:59:49Z</time>
      </trkpt>
      <trkpt lat="45.1999" lon="5.54975">
        <ele>1309.45</ele>
        <time>2018-06-30T08:59:51Z</time>
      </trkpt>
      <trkpt lat="45.19981" lon="5.5498">
        <ele>1307.05</ele>
        <time>2018-06-30T08:59:54Z</time>
      </trkpt>
      <trkpt lat="45.1998" lon="5.54986">
        <ele>1304.65</ele>
        <time>2018-06-30T08:59:57Z</time>
      </trkpt>
      <trkpt lat="45.19979" lon="5.54988">
        <ele>1303.2</ele>
        <time>2018-06-30T08:59:58Z</time>
      </trkpt>
      <trkpt lat="45.19971" lon="5.54989">
        <ele>1302.24</ele>
        <time>2018-06-30T09:00:01Z</time>
      </trkpt>
      <trkpt lat="45.19967" lon="5.54989">
        <ele>1302.24</ele>
        <time>2018-06-30T09:00:02Z</time>
      </trkpt>
      <trkpt lat="45.19964" lon="5.55002">
        <ele>1301.28</ele>
        <time>2018-06-30T09:00:07Z</time>
      </trkpt>
      <trkpt lat="45.1996" lon="5.55007">
        <ele>1298.4</ele>
        <time>2018-06-30T09:00:12Z</time>
      </trkpt>
      <trkpt lat="45.19957" lon="5.55009">
        <ele>1298.4</ele>
        <time>2018-06-30T09:00:13Z</time>
      </trkpt>
      <trkpt lat="45.19932" lon="5.55011">
        <ele>1296.96</ele>
        <time>2018-06-30T09:00:21Z</time>
      </trkpt>
      <trkpt lat="45.19926" lon="5.55014">
        <ele>1296.48</ele>
        <time>2018-06-30T09:00:23Z</time>
      </trkpt>
      <trkpt lat="45.19924" lon="5.55017">
        <ele>1296.48</ele>
        <time>2018-06-30T09:00:24Z</time>
      </trkpt>
      <trkpt lat="45.19923" lon="5.5502">
        <ele>1296.48</ele>
        <time>2018-06-30T09:00:25Z</time>
      </trkpt>
      <trkpt lat="45.19922" lon="5.55022">
        <ele>1295.99</ele>
        <time>2018-06-30T09:00:26Z</time>
      </trkpt>
      <trkpt lat="45.19921" lon="5.55024">
        <ele>1295.99</ele>
        <time>2018-06-30T09:00:27Z</time>
      </trkpt>
      <trkpt lat="45.19919" lon="5.55025">
        <ele>1295.99</ele>
        <time>2018-06-30T09:00:29Z</time>
      </trkpt>
      <trkpt lat="45.19919" lon="5.55022">
        <ele>1297.44</ele>
        <time>2018-06-30T09:00:40Z</time>
      </trkpt>
      <trkpt lat="45.19918" lon="5.55023">
        <ele>1296.48</ele>
        <time>2018-06-30T09:01:05Z</time>
      </trkpt>
      <trkpt lat="45.19921" lon="5.5502">
        <ele>1296.48</ele>
        <time>2018-06-30T09:01:27Z</time>
      </trkpt>
      <trkpt lat="45.19919" lon="5.55026">
        <ele>1297.44</ele>
        <time>2018-06-30T09:01:53Z</time>
      </trkpt>
      <trkpt lat="45.19921" lon="5.55028">
        <ele>1295.99</ele>
        <time>2018-06-30T09:02:13Z</time>
      </trkpt>
      <trkpt lat="45.19921" lon="5.5503">
        <ele>1295.99</ele>
        <time>2018-06-30T09:02:14Z</time>
      </trkpt>
      <trkpt lat="45.1992" lon="5.55056">
        <ele>1294.55</ele>
        <time>2018-06-30T09:02:21Z</time>
      </trkpt>
      <trkpt lat="45.19922" lon="5.55077">
        <ele>1293.11</ele>
        <time>2018-06-30T09:02:24Z</time>
      </trkpt>
      <trkpt lat="45.19921" lon="5.55086">
        <ele>1292.15</ele>
        <time>2018-06-30T09:02:25Z</time>
      </trkpt>
      <trkpt lat="45.1992" lon="5.55094">
        <ele>1291.67</ele>
        <time>2018-06-30T09:02:26Z</time>
      </trkpt>
      <trkpt lat="45.19917" lon="5.55103">
        <ele>1290.23</ele>
        <time>2018-06-30T09:02:27Z</time>
      </trkpt>
      <trkpt lat="45.19914" lon="5.55112">
        <ele>1289.27</ele>
        <time>2018-06-30T09:02:28Z</time>
      </trkpt>
      <trkpt lat="45.1991" lon="5.55124">
        <ele>1288.3</ele>
        <time>2018-06-30T09:02:29Z</time>
      </trkpt>
      <trkpt lat="45.19908" lon="5.55134">
        <ele>1287.82</ele>
        <time>2018-06-30T09:02:30Z</time>
      </trkpt>
      <trkpt lat="45.19906" lon="5.55147">
        <ele>1286.86</ele>
        <time>2018-06-30T09:02:31Z</time>
      </trkpt>
      <trkpt lat="45.19906" lon="5.55158">
        <ele>1286.86</ele>
        <time>2018-06-30T09:02:32Z</time>
      </trkpt>
      <trkpt lat="45.19908" lon="5.55168">
        <ele>1288.78</ele>
        <time>2018-06-30T09:02:33Z</time>
      </trkpt>
      <trkpt lat="45.1991" lon="5.55172">
        <ele>1289.75</ele>
        <time>2018-06-30T09:02:34Z</time>
      </trkpt>
      <trkpt lat="45.19912" lon="5.55175">
        <ele>1290.23</ele>
        <time>2018-06-30T09:02:35Z</time>
      </trkpt>
      <trkpt lat="45.19914" lon="5.55177">
        <ele>1290.23</ele>
        <time>2018-06-30T09:02:36Z</time>
      </trkpt>
      <trkpt lat="45.19916" lon="5.55179">
        <ele>1290.71</ele>
        <time>2018-06-30T09:02:37Z</time>
      </trkpt>
      <trkpt lat="45.19918" lon="5.5518">
        <ele>1291.67</ele>
        <time>2018-06-30T09:02:38Z</time>
      </trkpt>
      <trkpt lat="45.1992" lon="5.55182">
        <ele>1291.67</ele>
        <time>2018-06-30T09:02:39Z</time>
      </trkpt>
      <trkpt lat="45.19944" lon="5.552">
        <ele>1294.07</ele>
        <time>2018-06-30T09:02:52Z</time>
      </trkpt>
      <trkpt lat="45.19962" lon="5.55204">
        <ele>1295.99</ele>
        <time>2018-06-30T09:03:04Z</time>
      </trkpt>
      <trkpt lat="45.19964" lon="5.55203">
        <ele>1296.48</ele>
        <time>2018-06-30T09:03:05Z</time>
      </trkpt>
      <trkpt lat="45.19971" lon="5.55182">
        <ele>1297.92</ele>
        <time>2018-06-30T09:03:14Z</time>
      </trkpt>
      <trkpt lat="45.19966" lon="5.55173">
        <ele>1299.84</ele>
        <time>2018-06-30T09:03:25Z</time>
      </trkpt>
      <trkpt lat="45.19966" lon="5.55164">
        <ele>1300.32</ele>
        <time>2018-06-30T09:03:29Z</time>
      </trkpt>
      <trkpt lat="45.19967" lon="5.55149">
        <ele>1301.28</ele>
        <time>2018-06-30T09:03:35Z</time>
      </trkpt>
      <trkpt lat="45.19981" lon="5.55123">
        <ele>1304.17</ele>
        <time>2018-06-30T09:03:47Z</time>
      </trkpt>
      <trkpt lat="45.19977" lon="5.551">
        <ele>1306.57</ele>
        <time>2018-06-30T09:04:00Z</time>
      </trkpt>
      <trkpt lat="45.19977" lon="5.55097">
        <ele>1307.05</ele>
        <time>2018-06-30T09:04:02Z</time>
      </trkpt>
      <trkpt lat="45.19981" lon="5.55072">
        <ele>1309.93</ele>
        <time>2018-06-30T09:04:13Z</time>
      </trkpt>
      <trkpt lat="45.19982" lon="5.5507">
        <ele>1310.41</ele>
        <time>2018-06-30T09:04:14Z</time>
      </trkpt>
      <trkpt lat="45.19993" lon="5.55054">
        <ele>1313.3</ele>
        <time>2018-06-30T09:04:27Z</time>
      </trkpt>
      <trkpt lat="45.19995" lon="5.55053">
        <ele>1314.26</ele>
        <time>2018-06-30T09:04:29Z</time>
      </trkpt>
      <trkpt lat="45.20015" lon="5.55038">
        <ele>1316.66</ele>
        <time>2018-06-30T09:04:44Z</time>
      </trkpt>
      <trkpt lat="45.20025" lon="5.5503">
        <ele>1318.1</ele>
        <time>2018-06-30T09:04:52Z</time>
      </trkpt>
      <trkpt lat="45.20039" lon="5.55031">
        <ele>1319.07</ele>
        <time>2018-06-30T09:05:02Z</time>
      </trkpt>
      <trkpt lat="45.20044" lon="5.55029">
        <ele>1319.55</ele>
        <time>2018-06-30T09:05:14Z</time>
      </trkpt>
      <trkpt lat="45.20045" lon="5.55027">
        <ele>1319.55</ele>
        <time>2018-06-30T09:05:31Z</time>
      </trkpt>
      <trkpt lat="45.2005" lon="5.55026">
        <ele>1320.03</ele>
        <time>2018-06-30T09:05:56Z</time>
      </trkpt>
      <trkpt lat="45.2005" lon="5.55031">
        <ele>1320.03</ele>
        <time>2018-06-30T09:06:23Z</time>
      </trkpt>
      <trkpt lat="45.20044" lon="5.55029">
        <ele>1320.03</ele>
        <time>2018-06-30T09:06:40Z</time>
      </trkpt>
      <trkpt lat="45.20041" lon="5.55009">
        <ele>1321.47</ele>
        <time>2018-06-30T09:06:50Z</time>
      </trkpt>
      <trkpt lat="45.20043" lon="5.55004">
        <ele>1321.47</ele>
        <time>2018-06-30T09:06:53Z</time>
      </trkpt>
      <trkpt lat="45.2003" lon="5.54988">
        <ele>1320.51</ele>
        <time>2018-06-30T09:07:02Z</time>
      </trkpt>
      <trkpt lat="45.20022" lon="5.54985">
        <ele>1319.55</ele>
        <time>2018-06-30T09:07:04Z</time>
      </trkpt>
      <trkpt lat="45.20014" lon="5.54993">
        <ele>1318.59</ele>
        <time>2018-06-30T09:07:08Z</time>
      </trkpt>
      <trkpt lat="45.19993" lon="5.55001">
        <ele>1314.74</ele>
        <time>2018-06-30T09:07:15Z</time>
      </trkpt>
      <trkpt lat="45.1998" lon="5.55017">
        <ele>1310.9</ele>
        <time>2018-06-30T09:07:19Z</time>
      </trkpt>
      <trkpt lat="45.1998" lon="5.5503">
        <ele>1309.93</ele>
        <time>2018-06-30T09:07:24Z</time>
      </trkpt>
      <trkpt lat="45.19979" lon="5.55051">
        <ele>1308.49</ele>
        <time>2018-06-30T09:07:30Z</time>
      </trkpt>
      <trkpt lat="45.19971" lon="5.55059">
        <ele>1306.09</ele>
        <time>2018-06-30T09:07:32Z</time>
      </trkpt>
      <trkpt lat="45.19969" lon="5.55066">
        <ele>1305.61</ele>
        <time>2018-06-30T09:07:34Z</time>
      </trkpt>
      <trkpt lat="45.19966" lon="5.55083">
        <ele>1303.2</ele>
        <time>2018-06-30T09:07:41Z</time>
      </trkpt>
      <trkpt lat="45.19955" lon="5.55081">
        <ele>1300.8</ele>
        <time>2018-06-30T09:07:46Z</time>
      </trkpt>
      <trkpt lat="45.1994" lon="5.55071">
        <ele>1299.36</ele>
        <time>2018-06-30T09:07:54Z</time>
      </trkpt>
      <trkpt lat="45.19937" lon="5.55071">
        <ele>1297.44</ele>
        <time>2018-06-30T09:07:57Z</time>
      </trkpt>
      <trkpt lat="45.19925" lon="5.55064">
        <ele>1294.55</ele>
        <time>2018-06-30T09:08:01Z</time>
      </trkpt>
      <trkpt lat="45.19921" lon="5.5506">
        <ele>1293.59</ele>
        <time>2018-06-30T09:08:02Z</time>
      </trkpt>
      <trkpt lat="45.19918" lon="5.55051">
        <ele>1294.07</ele>
        <time>2018-06-30T09:08:04Z</time>
      </trkpt>
      <trkpt lat="45.19918" lon="5.55047">
        <ele>1294.07</ele>
        <time>2018-06-30T09:08:05Z</time>
      </trkpt>
      <trkpt lat="45.19918" lon="5.55045">
        <ele>1294.07</ele>
        <time>2018-06-30T09:08:06Z</time>
      </trkpt>
      <trkpt lat="45.19919" lon="5.55042">
        <ele>1294.07</ele>
        <time>2018-06-30T09:08:07Z</time>
      </trkpt>
      <trkpt lat="45.19919" lon="5.5504">
        <ele>1294.07</ele>
        <time>2018-06-30T09:08:08Z</time>
      </trkpt>
      <trkpt lat="45.1992" lon="5.55037">
        <ele>1295.03</ele>
        <time>2018-06-30T09:08:09Z</time>
      </trkpt>
      <trkpt lat="45.1992" lon="5.55034">
        <ele>1295.03</ele>
        <time>2018-06-30T09:08:10Z</time>
      </trkpt>
      <trkpt lat="45.1992" lon="5.55032">
        <ele>1295.03</ele>
        <time>2018-06-30T09:08:11Z</time>
      </trkpt>
      <trkpt lat="45.19924" lon="5.55023">
        <ele>1295.51</ele>
        <time>2018-06-30T09:08:15Z</time>
      </trkpt>
      <trkpt lat="45.19924" lon="5.55021">
        <ele>1295.51</ele>
        <time>2018-06-30T09:08:16Z</time>
      </trkpt>
      <trkpt lat="45.19925" lon="5.55019">
        <ele>1295.51</ele>
        <time>2018-06-30T09:08:17Z</time>
      </trkpt>
      <trkpt lat="45.19926" lon="5.55016">
        <ele>1295.51</ele>
        <time>2018-06-30T09:08:18Z</time>
      </trkpt>
      <trkpt lat="45.19927" lon="5.55015">
        <ele>1295.99</ele>
        <time>2018-06-30T09:08:19Z</time>
      </trkpt>
      <trkpt lat="45.19927" lon="5.55011">
        <ele>1295.99</ele>
        <time>2018-06-30T09:08:29Z</time>
      </trkpt>
      <trkpt lat="45.19925" lon="5.55014">
        <ele>1295.99</ele>
        <time>2018-06-30T09:08:47Z</time>
      </trkpt>
      <trkpt lat="45.19926" lon="5.55013">
        <ele>1295.99</ele>
        <time>2018-06-30T09:09:10Z</time>
      </trkpt>
      <trkpt lat="45.19925" lon="5.55013">
        <ele>1295.99</ele>
        <time>2018-06-30T09:09:21Z</time>
      </trkpt>
      <trkpt lat="45.19927" lon="5.55005">
        <ele>1296.48</ele>
        <time>2018-06-30T09:09:25Z</time>
      </trkpt>
      <trkpt lat="45.19939" lon="5.54986">
        <ele>1297.44</ele>
        <time>2018-06-30T09:09:35Z</time>
      </trkpt>
      <trkpt lat="45.19964" lon="5.54952">
        <ele>1298.88</ele>
        <time>2018-06-30T09:09:47Z</time>
      </trkpt>
      <trkpt lat="45.19984" lon="5.5492">
        <ele>1300.32</ele>
        <time>2018-06-30T09:09:58Z</time>
      </trkpt>
      <trkpt lat="45.19983" lon="5.54909">
        <ele>1300.8</ele>
        <time>2018-06-30T09:10:01Z</time>
      </trkpt>
      <trkpt lat="45.19981" lon="5.54906">
        <ele>1300.8</ele>
        <time>2018-06-30T09:10:02Z</time>
      </trkpt>
      <trkpt lat="45.19979" lon="5.54904">
        <ele>1301.76</ele>
        <time>2018-06-30T09:10:03Z</time>
      </trkpt>
      <trkpt lat="45.19958" lon="5.54865">
        <ele>1302.72</ele>
        <time>2018-06-30T09:10:16Z</time>
      </trkpt>
      <trkpt lat="45.19951" lon="5.54819">
        <ele>1302.72</ele>
        <time>2018-06-30T09:10:28Z</time>
      </trkpt>
      <trkpt lat="45.19931" lon="5.54781">
        <ele>1302.72</ele>
        <time>2018-06-30T09:10:38Z</time>
      </trkpt>
      <trkpt lat="45.19929" lon="5.54781">
        <ele>1302.72</ele>
        <time>2018-06-30T09:10:39Z</time>
      </trkpt>
      <trkpt lat="45.19926" lon="5.54782">
        <ele>1302.72</ele>
        <time>2018-06-30T09:10:40Z</time>
      </trkpt>
      <trkpt lat="45.19924" lon="5.54784">
        <ele>1303.2</ele>
        <time>2018-06-30T09:10:41Z</time>
      </trkpt>
      <trkpt lat="45.19922" lon="5.54785">
        <ele>1303.2</ele>
        <time>2018-06-30T09:10:42Z</time>
      </trkpt>
      <trkpt lat="45.1992" lon="5.54787">
        <ele>1303.69</ele>
        <time>2018-06-30T09:10:43Z</time>
      </trkpt>
      <trkpt lat="45.19918" lon="5.54788">
        <ele>1303.69</ele>
        <time>2018-06-30T09:10:44Z</time>
      </trkpt>
      <trkpt lat="45.19899" lon="5.54803">
        <ele>1306.09</ele>
        <time>2018-06-30T09:10:55Z</time>
      </trkpt>
      <trkpt lat="45.19886" lon="5.54812">
        <ele>1307.53</ele>
        <time>2018-06-30T09:11:02Z</time>
      </trkpt>
      <trkpt lat="45.19885" lon="5.54813">
        <ele>1307.53</ele>
        <time>2018-06-30T09:11:03Z</time>
      </trkpt>
      <trkpt lat="45.19877" lon="5.54818">
        <ele>1308.01</ele>
        <time>2018-06-30T09:11:07Z</time>
      </trkpt>
      <trkpt lat="45.19859" lon="5.54843">
        <ele>1309.93</ele>
        <time>2018-06-30T09:11:19Z</time>
      </trkpt>
      <trkpt lat="45.19841" lon="5.5486">
        <ele>1311.86</ele>
        <time>2018-06-30T09:11:28Z</time>
      </trkpt>
      <trkpt lat="45.1982" lon="5.54873">
        <ele>1313.3</ele>
        <time>2018-06-30T09:11:38Z</time>
      </trkpt>
      <trkpt lat="45.19804" lon="5.54883">
        <ele>1314.74</ele>
        <time>2018-06-30T09:11:46Z</time>
      </trkpt>
      <trkpt lat="45.19799" lon="5.54885">
        <ele>1315.22</ele>
        <time>2018-06-30T09:11:49Z</time>
      </trkpt>
      <trkpt lat="45.19798" lon="5.54885">
        <ele>1315.22</ele>
        <time>2018-06-30T09:11:50Z</time>
      </trkpt>
      <trkpt lat="45.19796" lon="5.54886">
        <ele>1315.7</ele>
        <time>2018-06-30T09:11:51Z</time>
      </trkpt>
      <trkpt lat="45.19795" lon="5.54887">
        <ele>1315.7</ele>
        <time>2018-06-30T09:11:52Z</time>
      </trkpt>
      <trkpt lat="45.19793" lon="5.54889">
        <ele>1315.7</ele>
        <time>2018-06-30T09:11:53Z</time>
      </trkpt>
      <trkpt lat="45.19792" lon="5.5489">
        <ele>1316.66</ele>
        <time>2018-06-30T09:11:54Z</time>
      </trkpt>
      <trkpt lat="45.1979" lon="5.54892">
        <ele>1316.66</ele>
        <time>2018-06-30T09:11:55Z</time>
      </trkpt>
      <trkpt lat="45.19788" lon="5.54894">
        <ele>1316.66</ele>
        <time>2018-06-30T09:11:56Z</time>
      </trkpt>
      <trkpt lat="45.19763" lon="5.54914">
        <ele>1318.1</ele>
        <time>2018-06-30T09:12:08Z</time>
      </trkpt>
      <trkpt lat="45.19762" lon="5.54914">
        <ele>1318.1</ele>
        <time>2018-06-30T09:12:09Z</time>
      </trkpt>
      <trkpt lat="45.19759" lon="5.54916">
        <ele>1318.1</ele>
        <time>2018-06-30T09:12:10Z</time>
      </trkpt>
      <trkpt lat="45.19757" lon="5.54917">
        <ele>1318.59</ele>
        <time>2018-06-30T09:12:11Z</time>
      </trkpt>
      <trkpt lat="45.19755" lon="5.54918">
        <ele>1318.59</ele>
        <time>2018-06-30T09:12:12Z</time>
      </trkpt>
      <trkpt lat="45.19753" lon="5.5492">
        <ele>1318.59</ele>
        <time>2018-06-30T09:12:13Z</time>
      </trkpt>
      <trkpt lat="45.19736" lon="5.54922">
        <ele>1320.99</ele>
        <time>2018-06-30T09:12:21Z</time>
      </trkpt>
      <trkpt lat="45.19718" lon="5.54919">
        <ele>1321.47</ele>
        <time>2018-06-30T09:12:29Z</time>
      </trkpt>
      <trkpt lat="45.19715" lon="5.54919">
        <ele>1321.47</ele>
        <time>2018-06-30T09:12:30Z</time>
      </trkpt>
      <trkpt lat="45.19713" lon="5.54919">
        <ele>1321.47</ele>
        <time>2018-06-30T09:12:31Z</time>
      </trkpt>
      <trkpt lat="45.1971" lon="5.54919">
        <ele>1321.95</ele>
        <time>2018-06-30T09:12:32Z</time>
      </trkpt>
      <trkpt lat="45.19708" lon="5.54918">
        <ele>1321.95</ele>
        <time>2018-06-30T09:12:33Z</time>
      </trkpt>
      <trkpt lat="45.19691" lon="5.54912">
        <ele>1323.39</ele>
        <time>2018-06-30T09:12:41Z</time>
      </trkpt>
      <trkpt lat="45.1969" lon="5.54911">
        <ele>1323.39</ele>
        <time>2018-06-30T09:12:42Z</time>
      </trkpt>
      <trkpt lat="45.19688" lon="5.54909">
        <ele>1323.87</ele>
        <time>2018-06-30T09:12:43Z</time>
      </trkpt>
      <trkpt lat="45.19679" lon="5.54892">
        <ele>1324.83</ele>
        <time>2018-06-30T09:12:56Z</time>
      </trkpt>
      <trkpt lat="45.19679" lon="5.5489">
        <ele>1324.83</ele>
        <time>2018-06-30T09:12:57Z</time>
      </trkpt>
      <trkpt lat="45.19679" lon="5.54888">
        <ele>1324.83</ele>
        <time>2018-06-30T09:12:58Z</time>
      </trkpt>
      <trkpt lat="45.19679" lon="5.54886">
        <ele>1324.83</ele>
        <time>2018-06-30T09:12:59Z</time>
      </trkpt>
      <trkpt lat="45.19679" lon="5.54885">
        <ele>1324.83</ele>
        <time>2018-06-30T09:13:00Z</time>
      </trkpt>
      <trkpt lat="45.19679" lon="5.54882">
        <ele>1324.83</ele>
        <time>2018-06-30T09:13:01Z</time>
      </trkpt>
      <trkpt lat="45.19679" lon="5.5488">
        <ele>1324.83</ele>
        <time>2018-06-30T09:13:02Z</time>
      </trkpt>
      <trkpt lat="45.1968" lon="5.54877">
        <ele>1324.83</ele>
        <time>2018-06-30T09:13:03Z</time>
      </trkpt>
      <trkpt lat="45.19682" lon="5.54869">
        <ele>1324.35</ele>
        <time>2018-06-30T09:13:15Z</time>
      </trkpt>
      <trkpt lat="45.19679" lon="5.54871">
        <ele>1324.35</ele>
        <time>2018-06-30T09:13:34Z</time>
      </trkpt>
      <trkpt lat="45.19684" lon="5.5487">
        <ele>1324.35</ele>
        <time>2018-06-30T09:13:57Z</time>
      </trkpt>
      <trkpt lat="45.19685" lon="5.54874">
        <ele>1324.35</ele>
        <time>2018-06-30T09:14:31Z</time>
      </trkpt>
      <trkpt lat="45.19684" lon="5.54872">
        <ele>1324.35</ele>
        <time>2018-06-30T09:14:48Z</time>
      </trkpt>
      <trkpt lat="45.19687" lon="5.54869">
        <ele>1324.35</ele>
        <time>2018-06-30T09:15:16Z</time>
      </trkpt>
      <trkpt lat="45.19685" lon="5.5487">
        <ele>1324.35</ele>
        <time>2018-06-30T09:15:35Z</time>
      </trkpt>
      <trkpt lat="45.19681" lon="5.54865">
        <ele>1322.43</ele>
        <time>2018-06-30T09:15:38Z</time>
      </trkpt>
      <trkpt lat="45.19675" lon="5.54864">
        <ele>1320.99</ele>
        <time>2018-06-30T09:15:39Z</time>
      </trkpt>
      <trkpt lat="45.19672" lon="5.54865">
        <ele>1320.99</ele>
        <time>2018-06-30T09:15:40Z</time>
      </trkpt>
      <trkpt lat="45.19648" lon="5.54859">
        <ele>1318.1</ele>
        <time>2018-06-30T09:15:46Z</time>
      </trkpt>
      <trkpt lat="45.19639" lon="5.54858">
        <ele>1317.14</ele>
        <time>2018-06-30T09:15:50Z</time>
      </trkpt>
      <trkpt lat="45.19613" lon="5.54858">
        <ele>1315.7</ele>
        <time>2018-06-30T09:15:56Z</time>
      </trkpt>
      <trkpt lat="45.19589" lon="5.54864">
        <ele>1313.3</ele>
        <time>2018-06-30T09:16:04Z</time>
      </trkpt>
      <trkpt lat="45.19576" lon="5.54867">
        <ele>1309.93</ele>
        <time>2018-06-30T09:16:09Z</time>
      </trkpt>
      <trkpt lat="45.19557" lon="5.5487">
        <ele>1307.53</ele>
        <time>2018-06-30T09:16:16Z</time>
      </trkpt>
      <trkpt lat="45.19545" lon="5.54864">
        <ele>1306.09</ele>
        <time>2018-06-30T09:16:19Z</time>
      </trkpt>
      <trkpt lat="45.19541" lon="5.54861">
        <ele>1305.13</ele>
        <time>2018-06-30T09:16:20Z</time>
      </trkpt>
      <trkpt lat="45.1954" lon="5.5486">
        <ele>1305.13</ele>
        <time>2018-06-30T09:16:21Z</time>
      </trkpt>
      <trkpt lat="45.19526" lon="5.54857">
        <ele>1303.69</ele>
        <time>2018-06-30T09:16:24Z</time>
      </trkpt>
      <trkpt lat="45.195" lon="5.54852">
        <ele>1299.36</ele>
        <time>2018-06-30T09:16:31Z</time>
      </trkpt>
      <trkpt lat="45.19497" lon="5.5485">
        <ele>1299.36</ele>
        <time>2018-06-30T09:16:32Z</time>
      </trkpt>
      <trkpt lat="45.19485" lon="5.54836">
        <ele>1296.48</ele>
        <time>2018-06-30T09:16:36Z</time>
      </trkpt>
      <trkpt lat="45.19476" lon="5.54834">
        <ele>1295.51</ele>
        <time>2018-06-30T09:16:38Z</time>
      </trkpt>
      <trkpt lat="45.19465" lon="5.54835">
        <ele>1293.11</ele>
        <time>2018-06-30T09:16:41Z</time>
      </trkpt>
      <trkpt lat="45.19465" lon="5.54849">
        <ele>1290.71</ele>
        <time>2018-06-30T09:16:45Z</time>
      </trkpt>
      <trkpt lat="45.19466" lon="5.54851">
        <ele>1290.23</ele>
        <time>2018-06-30T09:16:46Z</time>
      </trkpt>
      <trkpt lat="45.19468" lon="5.54853">
        <ele>1290.23</ele>
        <time>2018-06-30T09:16:47Z</time>
      </trkpt>
      <trkpt lat="45.19463" lon="5.54858">
        <ele>1289.27</ele>
        <time>2018-06-30T09:16:50Z</time>
      </trkpt>
      <trkpt lat="45.1946" lon="5.54858">
        <ele>1288.78</ele>
        <time>2018-06-30T09:16:51Z</time>
      </trkpt>
      <trkpt lat="45.19458" lon="5.54858">
        <ele>1288.78</ele>
        <time>2018-06-30T09:16:52Z</time>
      </trkpt>
      <trkpt lat="45.19455" lon="5.54857">
        <ele>1288.78</ele>
        <time>2018-06-30T09:16:53Z</time>
      </trkpt>
      <trkpt lat="45.19452" lon="5.54856">
        <ele>1288.78</ele>
        <time>2018-06-30T09:16:54Z</time>
      </trkpt>
      <trkpt lat="45.19448" lon="5.54852">
        <ele>1289.27</ele>
        <time>2018-06-30T09:16:55Z</time>
      </trkpt>
      <trkpt lat="45.19447" lon="5.5485">
        <ele>1288.78</ele>
        <time>2018-06-30T09:16:56Z</time>
      </trkpt>
      <trkpt lat="45.19442" lon="5.54846">
        <ele>1288.78</ele>
        <time>2018-06-30T09:16:58Z</time>
      </trkpt>
      <trkpt lat="45.19439" lon="5.54845">
        <ele>1289.27</ele>
        <time>2018-06-30T09:16:59Z</time>
      </trkpt>
      <trkpt lat="45.19436" lon="5.54845">
        <ele>1288.78</ele>
        <time>2018-06-30T09:17:00Z</time>
      </trkpt>
      <trkpt lat="45.19434" lon="5.54843">
        <ele>1288.3</ele>
        <time>2018-06-30T09:17:01Z</time>
      </trkpt>
      <trkpt lat="45.19432" lon="5.5484">
        <ele>1287.82</ele>
        <time>2018-06-30T09:17:02Z</time>
      </trkpt>
      <trkpt lat="45.1943" lon="5.54837">
        <ele>1287.82</ele>
        <time>2018-06-30T09:17:03Z</time>
      </trkpt>
      <trkpt lat="45.19429" lon="5.54834">
        <ele>1287.82</ele>
        <time>2018-06-30T09:17:04Z</time>
      </trkpt>
      <trkpt lat="45.19426" lon="5.54832">
        <ele>1287.82</ele>
        <time>2018-06-30T09:17:05Z</time>
      </trkpt>
      <trkpt lat="45.19424" lon="5.54832">
        <ele>1287.82</ele>
        <time>2018-06-30T09:17:06Z</time>
      </trkpt>
      <trkpt lat="45.19422" lon="5.54832">
        <ele>1289.27</ele>
        <time>2018-06-30T09:17:07Z</time>
      </trkpt>
      <trkpt lat="45.19419" lon="5.54831">
        <ele>1289.27</ele>
        <time>2018-06-30T09:17:08Z</time>
      </trkpt>
      <trkpt lat="45.19417" lon="5.5483">
        <ele>1289.27</ele>
        <time>2018-06-30T09:17:09Z</time>
      </trkpt>
      <trkpt lat="45.19416" lon="5.54828">
        <ele>1289.75</ele>
        <time>2018-06-30T09:17:10Z</time>
      </trkpt>
      <trkpt lat="45.19411" lon="5.54824">
        <ele>1290.23</ele>
        <time>2018-06-30T09:17:22Z</time>
      </trkpt>
      <trkpt lat="45.19408" lon="5.54821">
        <ele>1290.23</ele>
        <time>2018-06-30T09:17:49Z</time>
      </trkpt>
      <trkpt lat="45.19411" lon="5.54818">
        <ele>1290.23</ele>
        <time>2018-06-30T09:18:06Z</time>
      </trkpt>
      <trkpt lat="45.1941" lon="5.54816">
        <ele>1290.23</ele>
        <time>2018-06-30T09:18:07Z</time>
      </trkpt>
      <trkpt lat="45.1941" lon="5.54815">
        <ele>1290.23</ele>
        <time>2018-06-30T09:18:08Z</time>
      </trkpt>
      <trkpt lat="45.1941" lon="5.54812">
        <ele>1290.23</ele>
        <time>2018-06-30T09:18:10Z</time>
      </trkpt>
      <trkpt lat="45.1941" lon="5.5481">
        <ele>1290.71</ele>
        <time>2018-06-30T09:18:11Z</time>
      </trkpt>
      <trkpt lat="45.19412" lon="5.54805">
        <ele>1291.67</ele>
        <time>2018-06-30T09:18:21Z</time>
      </trkpt>
      <trkpt lat="45.19413" lon="5.54807">
        <ele>1291.67</ele>
        <time>2018-06-30T09:18:25Z</time>
      </trkpt>
      <trkpt lat="45.19425" lon="5.54808">
        <ele>1291.67</ele>
        <time>2018-06-30T09:18:30Z</time>
      </trkpt>
      <trkpt lat="45.19426" lon="5.54795">
        <ele>1292.15</ele>
        <time>2018-06-30T09:18:36Z</time>
      </trkpt>
      <trkpt lat="45.19413" lon="5.54793">
        <ele>1289.27</ele>
        <time>2018-06-30T09:18:41Z</time>
      </trkpt>
      <trkpt lat="45.19409" lon="5.54791">
        <ele>1289.27</ele>
        <time>2018-06-30T09:18:42Z</time>
      </trkpt>
      <trkpt lat="45.19406" lon="5.54789">
        <ele>1289.27</ele>
        <time>2018-06-30T09:18:43Z</time>
      </trkpt>
      <trkpt lat="45.19402" lon="5.54786">
        <ele>1289.27</ele>
        <time>2018-06-30T09:18:44Z</time>
      </trkpt>
      <trkpt lat="45.19398" lon="5.54784">
        <ele>1288.78</ele>
        <time>2018-06-30T09:18:45Z</time>
      </trkpt>
      <trkpt lat="45.19395" lon="5.54784">
        <ele>1288.78</ele>
        <time>2018-06-30T09:18:46Z</time>
      </trkpt>
      <trkpt lat="45.1936" lon="5.54767">
        <ele>1288.78</ele>
        <time>2018-06-30T09:18:54Z</time>
      </trkpt>
      <trkpt lat="45.19355" lon="5.54765">
        <ele>1288.78</ele>
        <time>2018-06-30T09:18:55Z</time>
      </trkpt>
      <trkpt lat="45.19352" lon="5.54762">
        <ele>1288.78</ele>
        <time>2018-06-30T09:18:56Z</time>
      </trkpt>
      <trkpt lat="45.19345" lon="5.54742">
        <ele>1288.78</ele>
        <time>2018-06-30T09:19:01Z</time>
      </trkpt>
      <trkpt lat="45.19347" lon="5.54734">
        <ele>1288.78</ele>
        <time>2018-06-30T09:19:05Z</time>
      </trkpt>
      <trkpt lat="45.19347" lon="5.54731">
        <ele>1288.78</ele>
        <time>2018-06-30T09:19:12Z</time>
      </trkpt>
      <trkpt lat="45.1936" lon="5.54708">
        <ele>1286.38</ele>
        <time>2018-06-30T09:19:19Z</time>
      </trkpt>
      <trkpt lat="45.19363" lon="5.54691">
        <ele>1285.42</ele>
        <time>2018-06-30T09:19:25Z</time>
      </trkpt>
      <trkpt lat="45.19374" lon="5.54686">
        <ele>1285.42</ele>
        <time>2018-06-30T09:19:29Z</time>
      </trkpt>
      <trkpt lat="45.19392" lon="5.5467">
        <ele>1284.46</ele>
        <time>2018-06-30T09:19:35Z</time>
      </trkpt>
      <trkpt lat="45.19401" lon="5.54654">
        <ele>1281.57</ele>
        <time>2018-06-30T09:19:38Z</time>
      </trkpt>
      <trkpt lat="45.19416" lon="5.54632">
        <ele>1278.69</ele>
        <time>2018-06-30T09:19:44Z</time>
      </trkpt>
      <trkpt lat="45.19429" lon="5.54614">
        <ele>1277.25</ele>
        <time>2018-06-30T09:19:48Z</time>
      </trkpt>
      <trkpt lat="45.19435" lon="5.54606">
        <ele>1277.25</ele>
        <time>2018-06-30T09:19:50Z</time>
      </trkpt>
      <trkpt lat="45.19448" lon="5.54582">
        <ele>1274.85</ele>
        <time>2018-06-30T09:19:54Z</time>
      </trkpt>
      <trkpt lat="45.19467" lon="5.54537">
        <ele>1271</ele>
        <time>2018-06-30T09:20:00Z</time>
      </trkpt>
      <trkpt lat="45.1947" lon="5.54532">
        <ele>1270.52</ele>
        <time>2018-06-30T09:20:01Z</time>
      </trkpt>
      <trkpt lat="45.19491" lon="5.54493">
        <ele>1267.64</ele>
        <time>2018-06-30T09:20:07Z</time>
      </trkpt>
      <trkpt lat="45.19496" lon="5.54465">
        <ele>1264.27</ele>
        <time>2018-06-30T09:20:12Z</time>
      </trkpt>
      <trkpt lat="45.19498" lon="5.54458">
        <ele>1263.79</ele>
        <time>2018-06-30T09:20:13Z</time>
      </trkpt>
      <trkpt lat="45.19499" lon="5.54447">
        <ele>1262.35</ele>
        <time>2018-06-30T09:20:15Z</time>
      </trkpt>
      <trkpt lat="45.19507" lon="5.54407">
        <ele>1260.43</ele>
        <time>2018-06-30T09:20:21Z</time>
      </trkpt>
      <trkpt lat="45.19512" lon="5.5439">
        <ele>1258.5</ele>
        <time>2018-06-30T09:20:24Z</time>
      </trkpt>
      <trkpt lat="45.1952" lon="5.54383">
        <ele>1258.5</ele>
        <time>2018-06-30T09:20:28Z</time>
      </trkpt>
      <trkpt lat="45.19532" lon="5.54366">
        <ele>1258.5</ele>
        <time>2018-06-30T09:20:32Z</time>
      </trkpt>
      <trkpt lat="45.19538" lon="5.5436">
        <ele>1258.02</ele>
        <time>2018-06-30T09:20:34Z</time>
      </trkpt>
      <trkpt lat="45.19552" lon="5.54334">
        <ele>1256.58</ele>
        <time>2018-06-30T09:20:42Z</time>
      </trkpt>
      <trkpt lat="45.19553" lon="5.54324">
        <ele>1256.58</ele>
        <time>2018-06-30T09:20:53Z</time>
      </trkpt>
      <trkpt lat="45.19553" lon="5.54314">
        <ele>1258.02</ele>
        <time>2018-06-30T09:21:00Z</time>
      </trkpt>
      <trkpt lat="45.1955" lon="5.54303">
        <ele>1259.46</ele>
        <time>2018-06-30T09:21:12Z</time>
      </trkpt>
      <trkpt lat="45.19548" lon="5.543">
        <ele>1259.46</ele>
        <time>2018-06-30T09:21:21Z</time>
      </trkpt>
      <trkpt lat="45.19538" lon="5.54296">
        <ele>1256.58</ele>
        <time>2018-06-30T09:21:26Z</time>
      </trkpt>
      <trkpt lat="45.19531" lon="5.54283">
        <ele>1255.62</ele>
        <time>2018-06-30T09:21:29Z</time>
      </trkpt>
      <trkpt lat="45.1952" lon="5.54245">
        <ele>1253.22</ele>
        <time>2018-06-30T09:21:35Z</time>
      </trkpt>
      <trkpt lat="45.19515" lon="5.54223">
        <ele>1250.33</ele>
        <time>2018-06-30T09:21:37Z</time>
      </trkpt>
      <trkpt lat="45.1951" lon="5.54212">
        <ele>1248.41</ele>
        <time>2018-06-30T09:21:39Z</time>
      </trkpt>
      <trkpt lat="45.19506" lon="5.54206">
        <ele>1246.49</ele>
        <time>2018-06-30T09:21:41Z</time>
      </trkpt>
      <trkpt lat="45.19507" lon="5.54198">
        <ele>1245.53</ele>
        <time>2018-06-30T09:21:44Z</time>
      </trkpt>
      <trkpt lat="45.19507" lon="5.54194">
        <ele>1245.53</ele>
        <time>2018-06-30T09:21:45Z</time>
      </trkpt>
      <trkpt lat="45.19508" lon="5.54179">
        <ele>1244.08</ele>
        <time>2018-06-30T09:21:48Z</time>
      </trkpt>
      <trkpt lat="45.1951" lon="5.54173">
        <ele>1244.08</ele>
        <time>2018-06-30T09:21:49Z</time>
      </trkpt>
      <trkpt lat="45.19518" lon="5.54156">
        <ele>1244.08</ele>
        <time>2018-06-30T09:21:53Z</time>
      </trkpt>
      <trkpt lat="45.19517" lon="5.54145">
        <ele>1244.08</ele>
        <time>2018-06-30T09:21:57Z</time>
      </trkpt>
      <trkpt lat="45.19517" lon="5.54129">
        <ele>1245.53</ele>
        <time>2018-06-30T09:22:00Z</time>
      </trkpt>
      <trkpt lat="45.19517" lon="5.54109">
        <ele>1246.97</ele>
        <time>2018-06-30T09:22:05Z</time>
      </trkpt>
      <trkpt lat="45.19509" lon="5.54093">
        <ele>1247.45</ele>
        <time>2018-06-30T09:22:13Z</time>
      </trkpt>
      <trkpt lat="45.19502" lon="5.54056">
        <ele>1245.53</ele>
        <time>2018-06-30T09:22:22Z</time>
      </trkpt>
      <trkpt lat="45.19506" lon="5.54043">
        <ele>1245.53</ele>
        <time>2018-06-30T09:22:26Z</time>
      </trkpt>
      <trkpt lat="45.19505" lon="5.53997">
        <ele>1247.45</ele>
        <time>2018-06-30T09:22:37Z</time>
      </trkpt>
      <trkpt lat="45.19509" lon="5.53984">
        <ele>1246.01</ele>
        <time>2018-06-30T09:22:40Z</time>
      </trkpt>
      <trkpt lat="45.19514" lon="5.53943">
        <ele>1245.04</ele>
        <time>2018-06-30T09:22:48Z</time>
      </trkpt>
      <trkpt lat="45.19516" lon="5.53935">
        <ele>1244.56</ele>
        <time>2018-06-30T09:22:50Z</time>
      </trkpt>
      <trkpt lat="45.19519" lon="5.53928">
        <ele>1243.6</ele>
        <time>2018-06-30T09:22:52Z</time>
      </trkpt>
      <trkpt lat="45.19521" lon="5.53924">
        <ele>1243.6</ele>
        <time>2018-06-30T09:22:54Z</time>
      </trkpt>
      <trkpt lat="45.19541" lon="5.53905">
        <ele>1242.64</ele>
        <time>2018-06-30T09:23:01Z</time>
      </trkpt>
      <trkpt lat="45.19558" lon="5.53902">
        <ele>1244.08</ele>
        <time>2018-06-30T09:23:08Z</time>
      </trkpt>
      <trkpt lat="45.19566" lon="5.53898">
        <ele>1244.08</ele>
        <time>2018-06-30T09:23:11Z</time>
      </trkpt>
      <trkpt lat="45.19578" lon="5.53895">
        <ele>1244.08</ele>
        <time>2018-06-30T09:23:16Z</time>
      </trkpt>
      <trkpt lat="45.19606" lon="5.53882">
        <ele>1244.08</ele>
        <time>2018-06-30T09:23:26Z</time>
      </trkpt>
      <trkpt lat="45.19631" lon="5.53873">
        <ele>1244.56</ele>
        <time>2018-06-30T09:23:35Z</time>
      </trkpt>
      <trkpt lat="45.19637" lon="5.53867">
        <ele>1244.56</ele>
        <time>2018-06-30T09:23:38Z</time>
      </trkpt>
      <trkpt lat="45.19639" lon="5.53864">
        <ele>1244.56</ele>
        <time>2018-06-30T09:23:39Z</time>
      </trkpt>
      <trkpt lat="45.19641" lon="5.53861">
        <ele>1243.12</ele>
        <time>2018-06-30T09:23:40Z</time>
      </trkpt>
      <trkpt lat="45.19643" lon="5.5386">
        <ele>1243.12</ele>
        <time>2018-06-30T09:23:41Z</time>
      </trkpt>
      <trkpt lat="45.19645" lon="5.53859">
        <ele>1243.12</ele>
        <time>2018-06-30T09:23:42Z</time>
      </trkpt>
      <trkpt lat="45.19646" lon="5.53856">
        <ele>1243.12</ele>
        <time>2018-06-30T09:23:43Z</time>
      </trkpt>
      <trkpt lat="45.19646" lon="5.53852">
        <ele>1243.12</ele>
        <time>2018-06-30T09:23:44Z</time>
      </trkpt>
      <trkpt lat="45.19645" lon="5.53847">
        <ele>1242.16</ele>
        <time>2018-06-30T09:23:45Z</time>
      </trkpt>
      <trkpt lat="45.19643" lon="5.53836">
        <ele>1240.24</ele>
        <time>2018-06-30T09:23:47Z</time>
      </trkpt>
      <trkpt lat="45.19642" lon="5.53831">
        <ele>1239.28</ele>
        <time>2018-06-30T09:23:49Z</time>
      </trkpt>
      <trkpt lat="45.19646" lon="5.5383">
        <ele>1239.28</ele>
        <time>2018-06-30T09:24:02Z</time>
      </trkpt>
      <trkpt lat="45.19643" lon="5.53832">
        <ele>1239.28</ele>
        <time>2018-06-30T09:24:25Z</time>
      </trkpt>
      <trkpt lat="45.19645" lon="5.53831">
        <ele>1239.28</ele>
        <time>2018-06-30T09:24:52Z</time>
      </trkpt>
      <trkpt lat="45.19648" lon="5.53828">
        <ele>1239.28</ele>
        <time>2018-06-30T09:25:14Z</time>
      </trkpt>
      <trkpt lat="45.19643" lon="5.53827">
        <ele>1239.28</ele>
        <time>2018-06-30T09:25:33Z</time>
      </trkpt>
      <trkpt lat="45.19647" lon="5.5383">
        <ele>1238.8</ele>
        <time>2018-06-30T09:25:54Z</time>
      </trkpt>
      <trkpt lat="45.19643" lon="5.53832">
        <ele>1238.8</ele>
        <time>2018-06-30T09:26:13Z</time>
      </trkpt>
      <trkpt lat="45.19641" lon="5.53833">
        <ele>1238.8</ele>
        <time>2018-06-30T09:26:30Z</time>
      </trkpt>
      <trkpt lat="45.19647" lon="5.5383">
        <ele>1238.8</ele>
        <time>2018-06-30T09:26:45Z</time>
      </trkpt>
      <trkpt lat="45.19647" lon="5.53832">
        <ele>1238.8</ele>
        <time>2018-06-30T09:27:03Z</time>
      </trkpt>
      <trkpt lat="45.19644" lon="5.53836">
        <ele>1238.8</ele>
        <time>2018-06-30T09:27:23Z</time>
      </trkpt>
      <trkpt lat="45.19646" lon="5.53833">
        <ele>1238.8</ele>
        <time>2018-06-30T09:27:42Z</time>
      </trkpt>
      <trkpt lat="45.19633" lon="5.53829">
        <ele>1236.39</ele>
        <time>2018-06-30T09:27:56Z</time>
      </trkpt>
      <trkpt lat="45.19628" lon="5.53831">
        <ele>1235.91</ele>
        <time>2018-06-30T09:27:57Z</time>
      </trkpt>
      <trkpt lat="45.19623" lon="5.53835">
        <ele>1235.91</ele>
        <time>2018-06-30T09:27:58Z</time>
      </trkpt>
      <trkpt lat="45.1962" lon="5.53838">
        <ele>1235.43</ele>
        <time>2018-06-30T09:27:59Z</time>
      </trkpt>
      <trkpt lat="45.19616" lon="5.53839">
        <ele>1235.43</ele>
        <time>2018-06-30T09:28:00Z</time>
      </trkpt>
      <trkpt lat="45.19611" lon="5.5384">
        <ele>1235.43</ele>
        <time>2018-06-30T09:28:01Z</time>
      </trkpt>
      <trkpt lat="45.19607" lon="5.53842">
        <ele>1234.95</ele>
        <time>2018-06-30T09:28:02Z</time>
      </trkpt>
      <trkpt lat="45.19604" lon="5.53844">
        <ele>1234.95</ele>
        <time>2018-06-30T09:28:03Z</time>
      </trkpt>
      <trkpt lat="45.19601" lon="5.53846">
        <ele>1234.95</ele>
        <time>2018-06-30T09:28:04Z</time>
      </trkpt>
      <trkpt lat="45.19598" lon="5.53847">
        <ele>1234.95</ele>
        <time>2018-06-30T09:28:05Z</time>
      </trkpt>
      <trkpt lat="45.19594" lon="5.53848">
        <ele>1234.95</ele>
        <time>2018-06-30T09:28:06Z</time>
      </trkpt>
      <trkpt lat="45.19591" lon="5.53849">
        <ele>1234.95</ele>
        <time>2018-06-30T09:28:07Z</time>
      </trkpt>
      <trkpt lat="45.19588" lon="5.53849">
        <ele>1234.95</ele>
        <time>2018-06-30T09:28:08Z</time>
      </trkpt>
      <trkpt lat="45.19584" lon="5.53849">
        <ele>1234.95</ele>
        <time>2018-06-30T09:28:09Z</time>
      </trkpt>
      <trkpt lat="45.1958" lon="5.5385">
        <ele>1234.47</ele>
        <time>2018-06-30T09:28:10Z</time>
      </trkpt>
      <trkpt lat="45.19575" lon="5.53851">
        <ele>1234.47</ele>
        <time>2018-06-30T09:28:11Z</time>
      </trkpt>
      <trkpt lat="45.19559" lon="5.5386">
        <ele>1235.43</ele>
        <time>2018-06-30T09:28:16Z</time>
      </trkpt>
      <trkpt lat="45.19556" lon="5.5386">
        <ele>1235.43</ele>
        <time>2018-06-30T09:28:17Z</time>
      </trkpt>
      <trkpt lat="45.19537" lon="5.53864">
        <ele>1235.43</ele>
        <time>2018-06-30T09:28:22Z</time>
      </trkpt>
      <trkpt lat="45.19534" lon="5.53866">
        <ele>1235.43</ele>
        <time>2018-06-30T09:28:23Z</time>
      </trkpt>
      <trkpt lat="45.19531" lon="5.53869">
        <ele>1235.43</ele>
        <time>2018-06-30T09:28:24Z</time>
      </trkpt>
      <trkpt lat="45.19529" lon="5.5387">
        <ele>1235.43</ele>
        <time>2018-06-30T09:28:25Z</time>
      </trkpt>
      <trkpt lat="45.19526" lon="5.53871">
        <ele>1235.43</ele>
        <time>2018-06-30T09:28:26Z</time>
      </trkpt>
      <trkpt lat="45.19523" lon="5.53872">
        <ele>1235.43</ele>
        <time>2018-06-30T09:28:27Z</time>
      </trkpt>
      <trkpt lat="45.19519" lon="5.53872">
        <ele>1235.43</ele>
        <time>2018-06-30T09:28:28Z</time>
      </trkpt>
      <trkpt lat="45.19515" lon="5.53872">
        <ele>1234.47</ele>
        <time>2018-06-30T09:28:29Z</time>
      </trkpt>
      <trkpt lat="45.19511" lon="5.53871">
        <ele>1234.47</ele>
        <time>2018-06-30T09:28:30Z</time>
      </trkpt>
      <trkpt lat="45.19506" lon="5.53871">
        <ele>1232.55</ele>
        <time>2018-06-30T09:28:31Z</time>
      </trkpt>
      <trkpt lat="45.19501" lon="5.53871">
        <ele>1232.07</ele>
        <time>2018-06-30T09:28:32Z</time>
      </trkpt>
      <trkpt lat="45.19495" lon="5.53872">
        <ele>1231.59</ele>
        <time>2018-06-30T09:28:33Z</time>
      </trkpt>
      <trkpt lat="45.1949" lon="5.53873">
        <ele>1230.62</ele>
        <time>2018-06-30T09:28:34Z</time>
      </trkpt>
      <trkpt lat="45.19485" lon="5.53876">
        <ele>1230.62</ele>
        <time>2018-06-30T09:28:35Z</time>
      </trkpt>
      <trkpt lat="45.19481" lon="5.5388">
        <ele>1230.62</ele>
        <time>2018-06-30T09:28:36Z</time>
      </trkpt>
      <trkpt lat="45.19478" lon="5.53882">
        <ele>1230.62</ele>
        <time>2018-06-30T09:28:37Z</time>
      </trkpt>
      <trkpt lat="45.19474" lon="5.53884">
        <ele>1230.62</ele>
        <time>2018-06-30T09:28:38Z</time>
      </trkpt>
      <trkpt lat="45.1947" lon="5.53887">
        <ele>1230.62</ele>
        <time>2018-06-30T09:28:39Z</time>
      </trkpt>
      <trkpt lat="45.19467" lon="5.53889">
        <ele>1230.62</ele>
        <time>2018-06-30T09:28:40Z</time>
      </trkpt>
      <trkpt lat="45.19447" lon="5.539">
        <ele>1230.62</ele>
        <time>2018-06-30T09:28:47Z</time>
      </trkpt>
      <trkpt lat="45.19432" lon="5.53903">
        <ele>1229.18</ele>
        <time>2018-06-30T09:28:50Z</time>
      </trkpt>
      <trkpt lat="45.19418" lon="5.5391">
        <ele>1228.7</ele>
        <time>2018-06-30T09:28:53Z</time>
      </trkpt>
      <trkpt lat="45.19398" lon="5.53909">
        <ele>1227.26</ele>
        <time>2018-06-30T09:28:57Z</time>
      </trkpt>
      <trkpt lat="45.19367" lon="5.53903">
        <ele>1223.42</ele>
        <time>2018-06-30T09:29:06Z</time>
      </trkpt>
      <trkpt lat="45.19362" lon="5.53902">
        <ele>1222.93</ele>
        <time>2018-06-30T09:29:07Z</time>
      </trkpt>
      <trkpt lat="45.19349" lon="5.53895">
        <ele>1219.09</ele>
        <time>2018-06-30T09:29:12Z</time>
      </trkpt>
      <trkpt lat="45.1934" lon="5.53896">
        <ele>1217.65</ele>
        <time>2018-06-30T09:29:14Z</time>
      </trkpt>
      <trkpt lat="45.19323" lon="5.53902">
        <ele>1215.24</ele>
        <time>2018-06-30T09:29:18Z</time>
      </trkpt>
      <trkpt lat="45.19305" lon="5.53902">
        <ele>1211.88</ele>
        <time>2018-06-30T09:29:22Z</time>
      </trkpt>
      <trkpt lat="45.19286" lon="5.5389">
        <ele>1208.03</ele>
        <time>2018-06-30T09:29:26Z</time>
      </trkpt>
      <trkpt lat="45.19273" lon="5.53876">
        <ele>1204.19</ele>
        <time>2018-06-30T09:29:30Z</time>
      </trkpt>
      <trkpt lat="45.19262" lon="5.53873">
        <ele>1202.75</ele>
        <time>2018-06-30T09:29:32Z</time>
      </trkpt>
      <trkpt lat="45.19248" lon="5.53873">
        <ele>1200.82</ele>
        <time>2018-06-30T09:29:34Z</time>
      </trkpt>
      <trkpt lat="45.19236" lon="5.53868">
        <ele>1198.42</ele>
        <time>2018-06-30T09:29:38Z</time>
      </trkpt>
      <trkpt lat="45.19223" lon="5.53864">
        <ele>1195.54</ele>
        <time>2018-06-30T09:29:42Z</time>
      </trkpt>
      <trkpt lat="45.19214" lon="5.53866">
        <ele>1193.61</ele>
        <time>2018-06-30T09:29:45Z</time>
      </trkpt>
      <trkpt lat="45.19192" lon="5.53869">
        <ele>1189.77</ele>
        <time>2018-06-30T09:29:50Z</time>
      </trkpt>
      <trkpt lat="45.19188" lon="5.53876">
        <ele>1188.81</ele>
        <time>2018-06-30T09:29:52Z</time>
      </trkpt>
      <trkpt lat="45.19187" lon="5.53884">
        <ele>1188.81</ele>
        <time>2018-06-30T09:29:54Z</time>
      </trkpt>
      <trkpt lat="45.19177" lon="5.53899">
        <ele>1186.88</ele>
        <time>2018-06-30T09:29:58Z</time>
      </trkpt>
      <trkpt lat="45.19173" lon="5.53909">
        <ele>1184.48</ele>
        <time>2018-06-30T09:30:00Z</time>
      </trkpt>
      <trkpt lat="45.19162" lon="5.53938">
        <ele>1180.16</ele>
        <time>2018-06-30T09:30:05Z</time>
      </trkpt>
      <trkpt lat="45.19163" lon="5.53954">
        <ele>1179.67</ele>
        <time>2018-06-30T09:30:09Z</time>
      </trkpt>
      <trkpt lat="45.19169" lon="5.53966">
        <ele>1178.71</ele>
        <time>2018-06-30T09:30:12Z</time>
      </trkpt>
      <trkpt lat="45.19177" lon="5.53983">
        <ele>1177.27</ele>
        <time>2018-06-30T09:30:15Z</time>
      </trkpt>
      <trkpt lat="45.19194" lon="5.54019">
        <ele>1178.71</ele>
        <time>2018-06-30T09:30:24Z</time>
      </trkpt>
      <trkpt lat="45.19196" lon="5.54029">
        <ele>1178.23</ele>
        <time>2018-06-30T09:30:38Z</time>
      </trkpt>
      <trkpt lat="45.19196" lon="5.54041">
        <ele>1178.71</ele>
        <time>2018-06-30T09:30:58Z</time>
      </trkpt>
      <trkpt lat="45.19191" lon="5.54056">
        <ele>1177.27</ele>
        <time>2018-06-30T09:31:02Z</time>
      </trkpt>
      <trkpt lat="45.19182" lon="5.54082">
        <ele>1177.27</ele>
        <time>2018-06-30T09:31:07Z</time>
      </trkpt>
      <trkpt lat="45.19173" lon="5.54101">
        <ele>1176.31</ele>
        <time>2018-06-30T09:31:11Z</time>
      </trkpt>
      <trkpt lat="45.19172" lon="5.54106">
        <ele>1176.31</ele>
        <time>2018-06-30T09:31:13Z</time>
      </trkpt>
      <trkpt lat="45.19161" lon="5.54107">
        <ele>1172.95</ele>
        <time>2018-06-30T09:31:17Z</time>
      </trkpt>
      <trkpt lat="45.19158" lon="5.54106">
        <ele>1172.95</ele>
        <time>2018-06-30T09:31:18Z</time>
      </trkpt>
      <trkpt lat="45.19156" lon="5.54093">
        <ele>1171.98</ele>
        <time>2018-06-30T09:31:22Z</time>
      </trkpt>
      <trkpt lat="45.19153" lon="5.54092">
        <ele>1170.54</ele>
        <time>2018-06-30T09:31:24Z</time>
      </trkpt>
      <trkpt lat="45.19136" lon="5.54096">
        <ele>1166.7</ele>
        <time>2018-06-30T09:31:29Z</time>
      </trkpt>
      <trkpt lat="45.19132" lon="5.54102">
        <ele>1165.74</ele>
        <time>2018-06-30T09:31:31Z</time>
      </trkpt>
      <trkpt lat="45.19121" lon="5.54124">
        <ele>1161.89</ele>
        <time>2018-06-30T09:31:38Z</time>
      </trkpt>
      <trkpt lat="45.19119" lon="5.54123">
        <ele>1161.89</ele>
        <time>2018-06-30T09:31:39Z</time>
      </trkpt>
      <trkpt lat="45.19112" lon="5.54117">
        <ele>1161.89</ele>
        <time>2018-06-30T09:31:43Z</time>
      </trkpt>
      <trkpt lat="45.19108" lon="5.54114">
        <ele>1161.89</ele>
        <time>2018-06-30T09:31:45Z</time>
      </trkpt>
      <trkpt lat="45.19104" lon="5.54098">
        <ele>1161.41</ele>
        <time>2018-06-30T09:31:56Z</time>
      </trkpt>
      <trkpt lat="45.19105" lon="5.54086">
        <ele>1160.93</ele>
        <time>2018-06-30T09:31:58Z</time>
      </trkpt>
      <trkpt lat="45.19101" lon="5.54053">
        <ele>1158.05</ele>
        <time>2018-06-30T09:32:05Z</time>
      </trkpt>
      <trkpt lat="45.19102" lon="5.54048">
        <ele>1158.05</ele>
        <time>2018-06-30T09:32:06Z</time>
      </trkpt>
      <trkpt lat="45.19106" lon="5.54029">
        <ele>1158.05</ele>
        <time>2018-06-30T09:32:09Z</time>
      </trkpt>
      <trkpt lat="45.19106" lon="5.54023">
        <ele>1159.01</ele>
        <time>2018-06-30T09:32:10Z</time>
      </trkpt>
      <trkpt lat="45.19097" lon="5.54007">
        <ele>1158.05</ele>
        <time>2018-06-30T09:32:14Z</time>
      </trkpt>
      <trkpt lat="45.19088" lon="5.53985">
        <ele>1157.08</ele>
        <time>2018-06-30T09:32:19Z</time>
      </trkpt>
      <trkpt lat="45.1908" lon="5.53969">
        <ele>1159.49</ele>
        <time>2018-06-30T09:32:25Z</time>
      </trkpt>
      <trkpt lat="45.19079" lon="5.53962">
        <ele>1159.97</ele>
        <time>2018-06-30T09:32:32Z</time>
      </trkpt>
      <trkpt lat="45.19073" lon="5.53948">
        <ele>1159.97</ele>
        <time>2018-06-30T09:32:42Z</time>
      </trkpt>
      <trkpt lat="45.19073" lon="5.53916">
        <ele>1158.05</ele>
        <time>2018-06-30T09:32:52Z</time>
      </trkpt>
      <trkpt lat="45.19067" lon="5.5389">
        <ele>1156.12</ele>
        <time>2018-06-30T09:32:59Z</time>
      </trkpt>
      <trkpt lat="45.19054" lon="5.53881">
        <ele>1152.76</ele>
        <time>2018-06-30T09:33:03Z</time>
      </trkpt>
      <trkpt lat="45.19048" lon="5.53877">
        <ele>1151.32</ele>
        <time>2018-06-30T09:33:05Z</time>
      </trkpt>
      <trkpt lat="45.19056" lon="5.53856">
        <ele>1148.91</ele>
        <time>2018-06-30T09:33:10Z</time>
      </trkpt>
      <trkpt lat="45.1907" lon="5.53832">
        <ele>1148.91</ele>
        <time>2018-06-30T09:33:16Z</time>
      </trkpt>
      <trkpt lat="45.19077" lon="5.5382">
        <ele>1148.91</ele>
        <time>2018-06-30T09:33:19Z</time>
      </trkpt>
      <trkpt lat="45.19079" lon="5.53816">
        <ele>1148.91</ele>
        <time>2018-06-30T09:33:21Z</time>
      </trkpt>
      <trkpt lat="45.19076" lon="5.53809">
        <ele>1146.99</ele>
        <time>2018-06-30T09:33:25Z</time>
      </trkpt>
      <trkpt lat="45.19079" lon="5.53778">
        <ele>1146.51</ele>
        <time>2018-06-30T09:33:31Z</time>
      </trkpt>
      <trkpt lat="45.19073" lon="5.53773">
        <ele>1146.51</ele>
        <time>2018-06-30T09:33:36Z</time>
      </trkpt>
      <trkpt lat="45.19057" lon="5.53767">
        <ele>1147.47</ele>
        <time>2018-06-30T09:33:49Z</time>
      </trkpt>
      <trkpt lat="45.19047" lon="5.53775">
        <ele>1146.03</ele>
        <time>2018-06-30T09:33:56Z</time>
      </trkpt>
      <trkpt lat="45.19019" lon="5.53782">
        <ele>1145.07</ele>
        <time>2018-06-30T09:34:05Z</time>
      </trkpt>
      <trkpt lat="45.18999" lon="5.5378">
        <ele>1145.07</ele>
        <time>2018-06-30T09:34:13Z</time>
      </trkpt>
      <trkpt lat="45.18992" lon="5.53778">
        <ele>1145.07</ele>
        <time>2018-06-30T09:34:16Z</time>
      </trkpt>
      <trkpt lat="45.18979" lon="5.53763">
        <ele>1145.07</ele>
        <time>2018-06-30T09:34:22Z</time>
      </trkpt>
      <trkpt lat="45.18954" lon="5.53741">
        <ele>1142.66</ele>
        <time>2018-06-30T09:34:29Z</time>
      </trkpt>
      <trkpt lat="45.18951" lon="5.53739">
        <ele>1142.18</ele>
        <time>2018-06-30T09:34:30Z</time>
      </trkpt>
      <trkpt lat="45.1895" lon="5.53737">
        <ele>1142.18</ele>
        <time>2018-06-30T09:34:31Z</time>
      </trkpt>
      <trkpt lat="45.18947" lon="5.53728">
        <ele>1141.22</ele>
        <time>2018-06-30T09:34:43Z</time>
      </trkpt>
      <trkpt lat="45.18934" lon="5.53717">
        <ele>1138.82</ele>
        <time>2018-06-30T09:34:49Z</time>
      </trkpt>
      <trkpt lat="45.18929" lon="5.53713">
        <ele>1137.86</ele>
        <time>2018-06-30T09:34:50Z</time>
      </trkpt>
      <trkpt lat="45.18917" lon="5.53712">
        <ele>1134.97</ele>
        <time>2018-06-30T09:34:53Z</time>
      </trkpt>
      <trkpt lat="45.18906" lon="5.53724">
        <ele>1131.61</ele>
        <time>2018-06-30T09:34:56Z</time>
      </trkpt>
      <trkpt lat="45.189" lon="5.53736">
        <ele>1129.21</ele>
        <time>2018-06-30T09:34:58Z</time>
      </trkpt>
      <trkpt lat="45.18889" lon="5.53756">
        <ele>1125.84</ele>
        <time>2018-06-30T09:35:02Z</time>
      </trkpt>
      <trkpt lat="45.18881" lon="5.53768">
        <ele>1123.92</ele>
        <time>2018-06-30T09:35:05Z</time>
      </trkpt>
      <trkpt lat="45.1888" lon="5.53805">
        <ele>1120.07</ele>
        <time>2018-06-30T09:35:12Z</time>
      </trkpt>
      <trkpt lat="45.18874" lon="5.53823">
        <ele>1118.63</ele>
        <time>2018-06-30T09:35:15Z</time>
      </trkpt>
      <trkpt lat="45.18864" lon="5.53842">
        <ele>1118.63</ele>
        <time>2018-06-30T09:35:18Z</time>
      </trkpt>
      <trkpt lat="45.18857" lon="5.53856">
        <ele>1117.19</ele>
        <time>2018-06-30T09:35:21Z</time>
      </trkpt>
      <trkpt lat="45.18852" lon="5.53863">
        <ele>1117.19</ele>
        <time>2018-06-30T09:35:35Z</time>
      </trkpt>
      <trkpt lat="45.18843" lon="5.53867">
        <ele>1117.19</ele>
        <time>2018-06-30T09:35:58Z</time>
      </trkpt>
      <trkpt lat="45.1885" lon="5.53854">
        <ele>1118.15</ele>
        <time>2018-06-30T09:36:03Z</time>
      </trkpt>
      <trkpt lat="45.18851" lon="5.53852">
        <ele>1118.15</ele>
        <time>2018-06-30T09:36:04Z</time>
      </trkpt>
      <trkpt lat="45.18852" lon="5.53849">
        <ele>1119.11</ele>
        <time>2018-06-30T09:36:05Z</time>
      </trkpt>
      <trkpt lat="45.18859" lon="5.53837">
        <ele>1119.11</ele>
        <time>2018-06-30T09:36:09Z</time>
      </trkpt>
      <trkpt lat="45.18861" lon="5.53813">
        <ele>1120.55</ele>
        <time>2018-06-30T09:36:16Z</time>
      </trkpt>
      <trkpt lat="45.18858" lon="5.53802">
        <ele>1122</ele>
        <time>2018-06-30T09:36:22Z</time>
      </trkpt>
      <trkpt lat="45.18859" lon="5.53786">
        <ele>1123.44</ele>
        <time>2018-06-30T09:36:32Z</time>
      </trkpt>
      <trkpt lat="45.18862" lon="5.53776">
        <ele>1124.4</ele>
        <time>2018-06-30T09:36:44Z</time>
      </trkpt>
      <trkpt lat="45.18864" lon="5.53773">
        <ele>1125.36</ele>
        <time>2018-06-30T09:36:55Z</time>
      </trkpt>
      <trkpt lat="45.18866" lon="5.53768">
        <ele>1125.84</ele>
        <time>2018-06-30T09:37:00Z</time>
      </trkpt>
      <trkpt lat="45.18872" lon="5.53757">
        <ele>1127.28</ele>
        <time>2018-06-30T09:37:05Z</time>
      </trkpt>
      <trkpt lat="45.1888" lon="5.53743">
        <ele>1130.17</ele>
        <time>2018-06-30T09:37:16Z</time>
      </trkpt>
      <trkpt lat="45.18888" lon="5.53728">
        <ele>1133.05</ele>
        <time>2018-06-30T09:37:28Z</time>
      </trkpt>
      <trkpt lat="45.18894" lon="5.53721">
        <ele>1134.49</ele>
        <time>2018-06-30T09:37:33Z</time>
      </trkpt>
      <trkpt lat="45.18897" lon="5.5372">
        <ele>1134.97</ele>
        <time>2018-06-30T09:37:36Z</time>
      </trkpt>
      <trkpt lat="45.18904" lon="5.53716">
        <ele>1136.42</ele>
        <time>2018-06-30T09:37:39Z</time>
      </trkpt>
      <trkpt lat="45.18923" lon="5.53713">
        <ele>1139.3</ele>
        <time>2018-06-30T09:37:52Z</time>
      </trkpt>
      <trkpt lat="45.18934" lon="5.53721">
        <ele>1140.26</ele>
        <time>2018-06-30T09:38:02Z</time>
      </trkpt>
      <trkpt lat="45.18944" lon="5.53725">
        <ele>1141.7</ele>
        <time>2018-06-30T09:38:19Z</time>
      </trkpt>
      <trkpt lat="45.18948" lon="5.53734">
        <ele>1141.7</ele>
        <time>2018-06-30T09:38:31Z</time>
      </trkpt>
      <trkpt lat="45.18952" lon="5.53733">
        <ele>1141.7</ele>
        <time>2018-06-30T09:38:43Z</time>
      </trkpt>
      <trkpt lat="45.18953" lon="5.53729">
        <ele>1142.66</ele>
        <time>2018-06-30T09:39:13Z</time>
      </trkpt>
      <trkpt lat="45.18953" lon="5.53729">
        <ele>1142.66</ele>
        <time>2018-06-30T09:39:17Z</time>
      </trkpt>
      <trkpt lat="45.18949" lon="5.53723">
        <ele>1142.66</ele>
        <time>2018-06-30T09:39:21Z</time>
      </trkpt>
      <trkpt lat="45.18949" lon="5.5372">
        <ele>1142.66</ele>
        <time>2018-06-30T09:39:22Z</time>
      </trkpt>
      <trkpt lat="45.18947" lon="5.53711">
        <ele>1142.66</ele>
        <time>2018-06-30T09:39:26Z</time>
      </trkpt>
      <trkpt lat="45.18946" lon="5.53708">
        <ele>1142.66</ele>
        <time>2018-06-30T09:39:27Z</time>
      </trkpt>
      <trkpt lat="45.18932" lon="5.53666">
        <ele>1144.11</ele>
        <time>2018-06-30T09:39:40Z</time>
      </trkpt>
      <trkpt lat="45.1893" lon="5.53661">
        <ele>1142.66</ele>
        <time>2018-06-30T09:39:41Z</time>
      </trkpt>
      <trkpt lat="45.18926" lon="5.53656">
        <ele>1142.18</ele>
        <time>2018-06-30T09:39:42Z</time>
      </trkpt>
      <trkpt lat="45.18923" lon="5.53652">
        <ele>1142.18</ele>
        <time>2018-06-30T09:39:43Z</time>
      </trkpt>
      <trkpt lat="45.18919" lon="5.53649">
        <ele>1142.18</ele>
        <time>2018-06-30T09:39:44Z</time>
      </trkpt>
      <trkpt lat="45.18915" lon="5.53647">
        <ele>1142.18</ele>
        <time>2018-06-30T09:39:45Z</time>
      </trkpt>
      <trkpt lat="45.18911" lon="5.53645">
        <ele>1142.18</ele>
        <time>2018-06-30T09:39:46Z</time>
      </trkpt>
      <trkpt lat="45.18879" lon="5.53631">
        <ele>1140.74</ele>
        <time>2018-06-30T09:39:55Z</time>
      </trkpt>
      <trkpt lat="45.18875" lon="5.53629">
        <ele>1140.74</ele>
        <time>2018-06-30T09:39:56Z</time>
      </trkpt>
      <trkpt lat="45.18868" lon="5.53625">
        <ele>1140.74</ele>
        <time>2018-06-30T09:39:58Z</time>
      </trkpt>
      <trkpt lat="45.18863" lon="5.53623">
        <ele>1140.74</ele>
        <time>2018-06-30T09:39:59Z</time>
      </trkpt>
      <trkpt lat="45.18842" lon="5.53607">
        <ele>1136.9</ele>
        <time>2018-06-30T09:40:03Z</time>
      </trkpt>
      <trkpt lat="45.18837" lon="5.53601">
        <ele>1135.94</ele>
        <time>2018-06-30T09:40:04Z</time>
      </trkpt>
      <trkpt lat="45.18818" lon="5.53579">
        <ele>1133.53</ele>
        <time>2018-06-30T09:40:07Z</time>
      </trkpt>
      <trkpt lat="45.18811" lon="5.53573">
        <ele>1133.53</ele>
        <time>2018-06-30T09:40:08Z</time>
      </trkpt>
      <trkpt lat="45.18784" lon="5.53557">
        <ele>1134.01</ele>
        <time>2018-06-30T09:40:13Z</time>
      </trkpt>
      <trkpt lat="45.18745" lon="5.53539">
        <ele>1130.65</ele>
        <time>2018-06-30T09:40:22Z</time>
      </trkpt>
      <trkpt lat="45.18711" lon="5.53524">
        <ele>1126.32</ele>
        <time>2018-06-30T09:40:27Z</time>
      </trkpt>
      <trkpt lat="45.18687" lon="5.53512">
        <ele>1122.48</ele>
        <time>2018-06-30T09:40:30Z</time>
      </trkpt>
      <trkpt lat="45.1866" lon="5.535">
        <ele>1118.63</ele>
        <time>2018-06-30T09:40:33Z</time>
      </trkpt>
      <trkpt lat="45.18629" lon="5.53487">
        <ele>1115.75</ele>
        <time>2018-06-30T09:40:37Z</time>
      </trkpt>
      <trkpt lat="45.18624" lon="5.53487">
        <ele>1114.79</ele>
        <time>2018-06-30T09:40:38Z</time>
      </trkpt>
      <trkpt lat="45.18619" lon="5.53488">
        <ele>1113.82</ele>
        <time>2018-06-30T09:40:39Z</time>
      </trkpt>
      <trkpt lat="45.18614" lon="5.53491">
        <ele>1112.86</ele>
        <time>2018-06-30T09:40:40Z</time>
      </trkpt>
      <trkpt lat="45.1861" lon="5.53496">
        <ele>1112.38</ele>
        <time>2018-06-30T09:40:41Z</time>
      </trkpt>
      <trkpt lat="45.18607" lon="5.53502">
        <ele>1111.9</ele>
        <time>2018-06-30T09:40:42Z</time>
      </trkpt>
      <trkpt lat="45.18605" lon="5.5351">
        <ele>1110.94</ele>
        <time>2018-06-30T09:40:43Z</time>
      </trkpt>
      <trkpt lat="45.18603" lon="5.53519">
        <ele>1109.98</ele>
        <time>2018-06-30T09:40:44Z</time>
      </trkpt>
      <trkpt lat="45.186" lon="5.5353">
        <ele>1109.02</ele>
        <time>2018-06-30T09:40:45Z</time>
      </trkpt>
      <trkpt lat="45.18598" lon="5.53541">
        <ele>1108.06</ele>
        <time>2018-06-30T09:40:46Z</time>
      </trkpt>
      <trkpt lat="45.18588" lon="5.53571">
        <ele>1104.69</ele>
        <time>2018-06-30T09:40:49Z</time>
      </trkpt>
      <trkpt lat="45.18584" lon="5.53579">
        <ele>1103.73</ele>
        <time>2018-06-30T09:40:50Z</time>
      </trkpt>
      <trkpt lat="45.18581" lon="5.53585">
        <ele>1103.25</ele>
        <time>2018-06-30T09:40:51Z</time>
      </trkpt>
      <trkpt lat="45.18579" lon="5.5359">
        <ele>1103.25</ele>
        <time>2018-06-30T09:40:52Z</time>
      </trkpt>
      <trkpt lat="45.18578" lon="5.53593">
        <ele>1102.77</ele>
        <time>2018-06-30T09:40:53Z</time>
      </trkpt>
      <trkpt lat="45.18583" lon="5.53597">
        <ele>1102.29</ele>
        <time>2018-06-30T09:41:01Z</time>
      </trkpt>
      <trkpt lat="45.18582" lon="5.53596">
        <ele>1102.29</ele>
        <time>2018-06-30T09:41:05Z</time>
      </trkpt>
      <trkpt lat="45.18579" lon="5.53594">
        <ele>1102.29</ele>
        <time>2018-06-30T09:41:07Z</time>
      </trkpt>
      <trkpt lat="45.18575" lon="5.53593">
        <ele>1102.29</ele>
        <time>2018-06-30T09:41:09Z</time>
      </trkpt>
      <trkpt lat="45.18572" lon="5.53594">
        <ele>1101.81</ele>
        <time>2018-06-30T09:41:10Z</time>
      </trkpt>
      <trkpt lat="45.18569" lon="5.53595">
        <ele>1101.81</ele>
        <time>2018-06-30T09:41:11Z</time>
      </trkpt>
      <trkpt lat="45.18565" lon="5.53596">
        <ele>1101.33</ele>
        <time>2018-06-30T09:41:12Z</time>
      </trkpt>
      <trkpt lat="45.1856" lon="5.53598">
        <ele>1101.33</ele>
        <time>2018-06-30T09:41:13Z</time>
      </trkpt>
      <trkpt lat="45.18537" lon="5.53602">
        <ele>1097.48</ele>
        <time>2018-06-30T09:41:17Z</time>
      </trkpt>
      <trkpt lat="45.18531" lon="5.53604">
        <ele>1097.48</ele>
        <time>2018-06-30T09:41:18Z</time>
      </trkpt>
      <trkpt lat="45.18506" lon="5.53614">
        <ele>1094.6</ele>
        <time>2018-06-30T09:41:25Z</time>
      </trkpt>
      <trkpt lat="45.18484" lon="5.53624">
        <ele>1092.68</ele>
        <time>2018-06-30T09:41:30Z</time>
      </trkpt>
      <trkpt lat="45.18481" lon="5.53626">
        <ele>1092.2</ele>
        <time>2018-06-30T09:41:31Z</time>
      </trkpt>
      <trkpt lat="45.18479" lon="5.53627">
        <ele>1092.2</ele>
        <time>2018-06-30T09:41:32Z</time>
      </trkpt>
      <trkpt lat="45.18477" lon="5.53628">
        <ele>1092.2</ele>
        <time>2018-06-30T09:41:33Z</time>
      </trkpt>
      <trkpt lat="45.18475" lon="5.5363">
        <ele>1091.23</ele>
        <time>2018-06-30T09:41:34Z</time>
      </trkpt>
      <trkpt lat="45.18474" lon="5.53631">
        <ele>1091.23</ele>
        <time>2018-06-30T09:41:35Z</time>
      </trkpt>
      <trkpt lat="45.18458" lon="5.53649">
        <ele>1088.83</ele>
        <time>2018-06-30T09:41:42Z</time>
      </trkpt>
      <trkpt lat="45.18455" lon="5.53654">
        <ele>1088.35</ele>
        <time>2018-06-30T09:41:43Z</time>
      </trkpt>
      <trkpt lat="45.18452" lon="5.5366">
        <ele>1087.39</ele>
        <time>2018-06-30T09:41:44Z</time>
      </trkpt>
      <trkpt lat="45.1844" lon="5.53685">
        <ele>1085.47</ele>
        <time>2018-06-30T09:41:48Z</time>
      </trkpt>
      <trkpt lat="45.18422" lon="5.53717">
        <ele>1084.02</ele>
        <time>2018-06-30T09:41:56Z</time>
      </trkpt>
      <trkpt lat="45.18418" lon="5.53718">
        <ele>1084.02</ele>
        <time>2018-06-30T09:42:15Z</time>
      </trkpt>
      <trkpt lat="45.18417" lon="5.53718">
        <ele>1084.5</ele>
        <time>2018-06-30T09:42:29Z</time>
      </trkpt>
      <trkpt lat="45.18417" lon="5.53719">
        <ele>1084.5</ele>
        <time>2018-06-30T09:42:42Z</time>
      </trkpt>
      <trkpt lat="45.18416" lon="5.53721">
        <ele>1084.5</ele>
        <time>2018-06-30T09:42:45Z</time>
      </trkpt>
      <trkpt lat="45.18415" lon="5.53722">
        <ele>1084.5</ele>
        <time>2018-06-30T09:42:46Z</time>
      </trkpt>
      <trkpt lat="45.18413" lon="5.53724">
        <ele>1084.5</ele>
        <time>2018-06-30T09:42:47Z</time>
      </trkpt>
      <trkpt lat="45.18405" lon="5.5373">
        <ele>1083.06</ele>
        <time>2018-06-30T09:42:50Z</time>
      </trkpt>
      <trkpt lat="45.18349" lon="5.5374">
        <ele>1081.62</ele>
        <time>2018-06-30T09:43:05Z</time>
      </trkpt>
      <trkpt lat="45.18296" lon="5.53747">
        <ele>1081.62</ele>
        <time>2018-06-30T09:43:17Z</time>
      </trkpt>
      <trkpt lat="45.18238" lon="5.53758">
        <ele>1078.26</ele>
        <time>2018-06-30T09:43:26Z</time>
      </trkpt>
      <trkpt lat="45.18163" lon="5.53762">
        <ele>1074.89</ele>
        <time>2018-06-30T09:43:36Z</time>
      </trkpt>
      <trkpt lat="45.18148" lon="5.53765">
        <ele>1074.41</ele>
        <time>2018-06-30T09:43:38Z</time>
      </trkpt>
      <trkpt lat="45.18135" lon="5.53771">
        <ele>1073.93</ele>
        <time>2018-06-30T09:43:40Z</time>
      </trkpt>
      <trkpt lat="45.18128" lon="5.53776">
        <ele>1073.45</ele>
        <time>2018-06-30T09:43:41Z</time>
      </trkpt>
      <trkpt lat="45.18123" lon="5.53784">
        <ele>1073.45</ele>
        <time>2018-06-30T09:43:42Z</time>
      </trkpt>
      <trkpt lat="45.18119" lon="5.53791">
        <ele>1073.45</ele>
        <time>2018-06-30T09:43:43Z</time>
      </trkpt>
      <trkpt lat="45.18115" lon="5.53799">
        <ele>1073.45</ele>
        <time>2018-06-30T09:43:44Z</time>
      </trkpt>
      <trkpt lat="45.18079" lon="5.53892">
        <ele>1072.97</ele>
        <time>2018-06-30T09:43:56Z</time>
      </trkpt>
      <trkpt lat="45.18044" lon="5.53981">
        <ele>1072.49</ele>
        <time>2018-06-30T09:44:11Z</time>
      </trkpt>
      <trkpt lat="45.1804" lon="5.53984">
        <ele>1072.49</ele>
        <time>2018-06-30T09:44:12Z</time>
      </trkpt>
      <trkpt lat="45.18035" lon="5.53986">
        <ele>1072.49</ele>
        <time>2018-06-30T09:44:13Z</time>
      </trkpt>
      <trkpt lat="45.1803" lon="5.53987">
        <ele>1072.49</ele>
        <time>2018-06-30T09:44:14Z</time>
      </trkpt>
      <trkpt lat="45.18024" lon="5.53987">
        <ele>1072.49</ele>
        <time>2018-06-30T09:44:15Z</time>
      </trkpt>
      <trkpt lat="45.18019" lon="5.53985">
        <ele>1072.01</ele>
        <time>2018-06-30T09:44:16Z</time>
      </trkpt>
      <trkpt lat="45.18013" lon="5.53982">
        <ele>1072.01</ele>
        <time>2018-06-30T09:44:17Z</time>
      </trkpt>
      <trkpt lat="45.18007" lon="5.53978">
        <ele>1071.05</ele>
        <time>2018-06-30T09:44:18Z</time>
      </trkpt>
      <trkpt lat="45.18001" lon="5.53973">
        <ele>1070.57</ele>
        <time>2018-06-30T09:44:19Z</time>
      </trkpt>
      <trkpt lat="45.17967" lon="5.53945">
        <ele>1067.2</ele>
        <time>2018-06-30T09:44:24Z</time>
      </trkpt>
      <trkpt lat="45.17952" lon="5.53932">
        <ele>1065.76</ele>
        <time>2018-06-30T09:44:26Z</time>
      </trkpt>
      <trkpt lat="45.17944" lon="5.53928">
        <ele>1064.8</ele>
        <time>2018-06-30T09:44:27Z</time>
      </trkpt>
      <trkpt lat="45.17935" lon="5.53924">
        <ele>1064.32</ele>
        <time>2018-06-30T09:44:28Z</time>
      </trkpt>
      <trkpt lat="45.17926" lon="5.53921">
        <ele>1063.84</ele>
        <time>2018-06-30T09:44:29Z</time>
      </trkpt>
      <trkpt lat="45.17918" lon="5.5392">
        <ele>1063.36</ele>
        <time>2018-06-30T09:44:30Z</time>
      </trkpt>
      <trkpt lat="45.17909" lon="5.5392">
        <ele>1063.36</ele>
        <time>2018-06-30T09:44:31Z</time>
      </trkpt>
      <trkpt lat="45.179" lon="5.53921">
        <ele>1063.36</ele>
        <time>2018-06-30T09:44:32Z</time>
      </trkpt>
      <trkpt lat="45.17892" lon="5.53923">
        <ele>1063.36</ele>
        <time>2018-06-30T09:44:33Z</time>
      </trkpt>
      <trkpt lat="45.17884" lon="5.53927">
        <ele>1063.36</ele>
        <time>2018-06-30T09:44:34Z</time>
      </trkpt>
      <trkpt lat="45.17877" lon="5.53931">
        <ele>1063.36</ele>
        <time>2018-06-30T09:44:35Z</time>
      </trkpt>
      <trkpt lat="45.17868" lon="5.53936">
        <ele>1063.36</ele>
        <time>2018-06-30T09:44:36Z</time>
      </trkpt>
      <trkpt lat="45.17862" lon="5.53941">
        <ele>1063.36</ele>
        <time>2018-06-30T09:44:37Z</time>
      </trkpt>
      <trkpt lat="45.17809" lon="5.54018">
        <ele>1062.87</ele>
        <time>2018-06-30T09:44:49Z</time>
      </trkpt>
      <trkpt lat="45.17775" lon="5.54113">
        <ele>1062.87</ele>
        <time>2018-06-30T09:45:03Z</time>
      </trkpt>
      <trkpt lat="45.17755" lon="5.54183">
        <ele>1062.39</ele>
        <time>2018-06-30T09:45:13Z</time>
      </trkpt>
      <trkpt lat="45.17752" lon="5.5419">
        <ele>1062.39</ele>
        <time>2018-06-30T09:45:14Z</time>
      </trkpt>
      <trkpt lat="45.17726" lon="5.54234">
        <ele>1061.91</ele>
        <time>2018-06-30T09:45:22Z</time>
      </trkpt>
      <trkpt lat="45.17723" lon="5.54238">
        <ele>1061.91</ele>
        <time>2018-06-30T09:45:23Z</time>
      </trkpt>
      <trkpt lat="45.17719" lon="5.54241">
        <ele>1061.91</ele>
        <time>2018-06-30T09:45:24Z</time>
      </trkpt>
      <trkpt lat="45.17714" lon="5.54241">
        <ele>1061.91</ele>
        <time>2018-06-30T09:45:25Z</time>
      </trkpt>
      <trkpt lat="45.17709" lon="5.5424">
        <ele>1061.91</ele>
        <time>2018-06-30T09:45:26Z</time>
      </trkpt>
      <trkpt lat="45.17705" lon="5.54239">
        <ele>1061.91</ele>
        <time>2018-06-30T09:45:27Z</time>
      </trkpt>
      <trkpt lat="45.17624" lon="5.54215">
        <ele>1059.03</ele>
        <time>2018-06-30T09:45:41Z</time>
      </trkpt>
      <trkpt lat="45.17594" lon="5.54211">
        <ele>1057.59</ele>
        <time>2018-06-30T09:45:45Z</time>
      </trkpt>
      <trkpt lat="45.17558" lon="5.54209">
        <ele>1057.59</ele>
        <time>2018-06-30T09:45:50Z</time>
      </trkpt>
      <trkpt lat="45.17545" lon="5.54203">
        <ele>1057.59</ele>
        <time>2018-06-30T09:45:52Z</time>
      </trkpt>
      <trkpt lat="45.17527" lon="5.54196">
        <ele>1057.59</ele>
        <time>2018-06-30T09:45:56Z</time>
      </trkpt>
      <trkpt lat="45.17523" lon="5.54196">
        <ele>1057.59</ele>
        <time>2018-06-30T09:45:57Z</time>
      </trkpt>
      <trkpt lat="45.17515" lon="5.54194">
        <ele>1057.59</ele>
        <time>2018-06-30T09:45:59Z</time>
      </trkpt>
      <trkpt lat="45.17512" lon="5.54194">
        <ele>1057.59</ele>
        <time>2018-06-30T09:46:00Z</time>
      </trkpt>
      <trkpt lat="45.1751" lon="5.54195">
        <ele>1057.59</ele>
        <time>2018-06-30T09:46:01Z</time>
      </trkpt>
      <trkpt lat="45.17508" lon="5.54196">
        <ele>1057.59</ele>
        <time>2018-06-30T09:46:02Z</time>
      </trkpt>
      <trkpt lat="45.17504" lon="5.542">
        <ele>1057.59</ele>
        <time>2018-06-30T09:46:04Z</time>
      </trkpt>
      <trkpt lat="45.17499" lon="5.54207">
        <ele>1057.59</ele>
        <time>2018-06-30T09:46:06Z</time>
      </trkpt>
      <trkpt lat="45.17498" lon="5.54209">
        <ele>1057.59</ele>
        <time>2018-06-30T09:46:07Z</time>
      </trkpt>
      <trkpt lat="45.17497" lon="5.54213">
        <ele>1057.59</ele>
        <time>2018-06-30T09:46:08Z</time>
      </trkpt>
      <trkpt lat="45.17496" lon="5.54216">
        <ele>1057.11</ele>
        <time>2018-06-30T09:46:09Z</time>
      </trkpt>
      <trkpt lat="45.17495" lon="5.54219">
        <ele>1057.11</ele>
        <time>2018-06-30T09:46:10Z</time>
      </trkpt>
      <trkpt lat="45.17479" lon="5.54254">
        <ele>1056.15</ele>
        <time>2018-06-30T09:46:23Z</time>
      </trkpt>
      <trkpt lat="45.17461" lon="5.54295">
        <ele>1054.7</ele>
        <time>2018-06-30T09:46:32Z</time>
      </trkpt>
      <trkpt lat="45.17457" lon="5.54301">
        <ele>1054.7</ele>
        <time>2018-06-30T09:46:33Z</time>
      </trkpt>
      <trkpt lat="45.17429" lon="5.54349">
        <ele>1054.22</ele>
        <time>2018-06-30T09:46:43Z</time>
      </trkpt>
      <trkpt lat="45.17425" lon="5.54351">
        <ele>1054.22</ele>
        <time>2018-06-30T09:46:44Z</time>
      </trkpt>
      <trkpt lat="45.17422" lon="5.54354">
        <ele>1054.22</ele>
        <time>2018-06-30T09:46:45Z</time>
      </trkpt>
      <trkpt lat="45.1742" lon="5.54358">
        <ele>1054.22</ele>
        <time>2018-06-30T09:46:46Z</time>
      </trkpt>
      <trkpt lat="45.17419" lon="5.54362">
        <ele>1054.22</ele>
        <time>2018-06-30T09:46:47Z</time>
      </trkpt>
      <trkpt lat="45.17418" lon="5.54366">
        <ele>1054.22</ele>
        <time>2018-06-30T09:46:48Z</time>
      </trkpt>
      <trkpt lat="45.17417" lon="5.54371">
        <ele>1054.22</ele>
        <time>2018-06-30T09:46:49Z</time>
      </trkpt>
      <trkpt lat="45.17416" lon="5.54374">
        <ele>1054.22</ele>
        <time>2018-06-30T09:46:50Z</time>
      </trkpt>
      <trkpt lat="45.17414" lon="5.5438">
        <ele>1055.18</ele>
        <time>2018-06-30T09:46:52Z</time>
      </trkpt>
      <trkpt lat="45.17394" lon="5.54424">
        <ele>1056.15</ele>
        <time>2018-06-30T09:47:04Z</time>
      </trkpt>
      <trkpt lat="45.17376" lon="5.54468">
        <ele>1056.63</ele>
        <time>2018-06-30T09:47:15Z</time>
      </trkpt>
      <trkpt lat="45.17371" lon="5.5447">
        <ele>1056.63</ele>
        <time>2018-06-30T09:47:17Z</time>
      </trkpt>
      <trkpt lat="45.17368" lon="5.5447">
        <ele>1057.11</ele>
        <time>2018-06-30T09:47:18Z</time>
      </trkpt>
      <trkpt lat="45.17366" lon="5.5447">
        <ele>1057.11</ele>
        <time>2018-06-30T09:47:19Z</time>
      </trkpt>
      <trkpt lat="45.17348" lon="5.5449">
        <ele>1057.59</ele>
        <time>2018-06-30T09:47:28Z</time>
      </trkpt>
      <trkpt lat="45.17348" lon="5.54493">
        <ele>1057.59</ele>
        <time>2018-06-30T09:47:29Z</time>
      </trkpt>
      <trkpt lat="45.17348" lon="5.54497">
        <ele>1057.59</ele>
        <time>2018-06-30T09:47:30Z</time>
      </trkpt>
      <trkpt lat="45.17349" lon="5.545">
        <ele>1057.59</ele>
        <time>2018-06-30T09:47:31Z</time>
      </trkpt>
      <trkpt lat="45.17349" lon="5.54504">
        <ele>1057.59</ele>
        <time>2018-06-30T09:47:32Z</time>
      </trkpt>
      <trkpt lat="45.1735" lon="5.54508">
        <ele>1057.59</ele>
        <time>2018-06-30T09:47:33Z</time>
      </trkpt>
      <trkpt lat="45.1735" lon="5.54513">
        <ele>1057.59</ele>
        <time>2018-06-30T09:47:34Z</time>
      </trkpt>
      <trkpt lat="45.17349" lon="5.54517">
        <ele>1057.59</ele>
        <time>2018-06-30T09:47:35Z</time>
      </trkpt>
      <trkpt lat="45.17348" lon="5.5452">
        <ele>1057.59</ele>
        <time>2018-06-30T09:47:36Z</time>
      </trkpt>
      <trkpt lat="45.17346" lon="5.54524">
        <ele>1058.07</ele>
        <time>2018-06-30T09:47:37Z</time>
      </trkpt>
      <trkpt lat="45.17324" lon="5.54575">
        <ele>1059.51</ele>
        <time>2018-06-30T09:47:52Z</time>
      </trkpt>
      <trkpt lat="45.17311" lon="5.54612">
        <ele>1060.47</ele>
        <time>2018-06-30T09:48:03Z</time>
      </trkpt>
      <trkpt lat="45.17287" lon="5.54657">
        <ele>1062.87</ele>
        <time>2018-06-30T09:48:16Z</time>
      </trkpt>
      <trkpt lat="45.17265" lon="5.54702">
        <ele>1064.32</ele>
        <time>2018-06-30T09:48:28Z</time>
      </trkpt>
      <trkpt lat="45.17241" lon="5.54752">
        <ele>1065.76</ele>
        <time>2018-06-30T09:48:41Z</time>
      </trkpt>
      <trkpt lat="45.1721" lon="5.54818">
        <ele>1068.64</ele>
        <time>2018-06-30T09:48:58Z</time>
      </trkpt>
      <trkpt lat="45.17183" lon="5.54876">
        <ele>1071.05</ele>
        <time>2018-06-30T09:49:13Z</time>
      </trkpt>
      <trkpt lat="45.17156" lon="5.54933">
        <ele>1074.41</ele>
        <time>2018-06-30T09:49:28Z</time>
      </trkpt>
      <trkpt lat="45.17128" lon="5.54993">
        <ele>1076.81</ele>
        <time>2018-06-30T09:49:43Z</time>
      </trkpt>
      <trkpt lat="45.17101" lon="5.5505">
        <ele>1079.22</ele>
        <time>2018-06-30T09:49:58Z</time>
      </trkpt>
      <trkpt lat="45.17075" lon="5.55108">
        <ele>1082.1</ele>
        <time>2018-06-30T09:50:13Z</time>
      </trkpt>
      <trkpt lat="45.17043" lon="5.5517">
        <ele>1084.5</ele>
        <time>2018-06-30T09:50:30Z</time>
      </trkpt>
      <trkpt lat="45.17002" lon="5.55211">
        <ele>1087.39</ele>
        <time>2018-06-30T09:50:46Z</time>
      </trkpt>
      <trkpt lat="45.17" lon="5.55213">
        <ele>1087.39</ele>
        <time>2018-06-30T09:50:47Z</time>
      </trkpt>
      <trkpt lat="45.16949" lon="5.55236">
        <ele>1089.31</ele>
        <time>2018-06-30T09:51:05Z</time>
      </trkpt>
      <trkpt lat="45.16915" lon="5.55245">
        <ele>1089.79</ele>
        <time>2018-06-30T09:51:18Z</time>
      </trkpt>
      <trkpt lat="45.16871" lon="5.55255">
        <ele>1089.79</ele>
        <time>2018-06-30T09:51:35Z</time>
      </trkpt>
      <trkpt lat="45.16839" lon="5.55263">
        <ele>1087.87</ele>
        <time>2018-06-30T09:51:44Z</time>
      </trkpt>
      <trkpt lat="45.16765" lon="5.55279">
        <ele>1084.99</ele>
        <time>2018-06-30T09:51:59Z</time>
      </trkpt>
      <trkpt lat="45.16702" lon="5.55284">
        <ele>1082.1</ele>
        <time>2018-06-30T09:52:08Z</time>
      </trkpt>
      <trkpt lat="45.16644" lon="5.55286">
        <ele>1078.74</ele>
        <time>2018-06-30T09:52:16Z</time>
      </trkpt>
      <trkpt lat="45.16577" lon="5.5529">
        <ele>1075.85</ele>
        <time>2018-06-30T09:52:25Z</time>
      </trkpt>
      <trkpt lat="45.16506" lon="5.55293">
        <ele>1072.01</ele>
        <time>2018-06-30T09:52:35Z</time>
      </trkpt>
      <trkpt lat="45.16433" lon="5.55286">
        <ele>1068.64</ele>
        <time>2018-06-30T09:52:45Z</time>
      </trkpt>
      <trkpt lat="45.16349" lon="5.55279">
        <ele>1065.76</ele>
        <time>2018-06-30T09:52:57Z</time>
      </trkpt>
      <trkpt lat="45.16265" lon="5.55281">
        <ele>1062.39</ele>
        <time>2018-06-30T09:53:09Z</time>
      </trkpt>
      <trkpt lat="45.16161" lon="5.55286">
        <ele>1060.47</ele>
        <time>2018-06-30T09:53:25Z</time>
      </trkpt>
      <trkpt lat="45.16036" lon="5.55291">
        <ele>1059.99</ele>
        <time>2018-06-30T09:53:44Z</time>
      </trkpt>
      <trkpt lat="45.15896" lon="5.55294">
        <ele>1057.11</ele>
        <time>2018-06-30T09:54:04Z</time>
      </trkpt>
      <trkpt lat="45.15775" lon="5.55291">
        <ele>1057.59</ele>
        <time>2018-06-30T09:54:23Z</time>
      </trkpt>
      <trkpt lat="45.15689" lon="5.55308">
        <ele>1060.95</ele>
        <time>2018-06-30T09:54:41Z</time>
      </trkpt>
    </trkseg>
  </trk>
</gpx>